<?xml version='1.0' encoding='UTF-8'?><gpx version="1.1" creator="JPX - https://github.com/jenetics/jpx" xmlns="http://www.topografix.com/GPX/1/1"><trk><trkseg><trkpt lat="51.19701922411481" lon="5.228588403131622"><ele>38.0</ele><time>2026-04-13T15:12:16Z</time></trkpt><trkpt lat="51.19695340925939" lon="5.228585436347715"><ele>38.0</ele><time>2026-04-13T15:12:17Z</time></trkpt><trkpt lat="51.19685134825867" lon="5.228596842608209"><ele>38.0</ele><time>2026-04-13T15:12:19Z</time></trkpt><trkpt lat="51.19677972381213" lon="5.228635175579092"><ele>38.0</ele><time>2026-04-13T15:12:21Z</time></trkpt><trkpt lat="51.196754993011304" lon="5.228739986441512"><ele>38.0</ele><time>2026-04-13T15:12:23Z</time></trkpt><trkpt lat="51.19677476481854" lon="5.228913293672766"><ele>38.0</ele><time>2026-04-13T15:12:25Z</time></trkpt><trkpt lat="51.19680652503305" lon="5.229099940362781"><ele>38.0</ele><time>2026-04-13T15:12:27Z</time></trkpt><trkpt lat="51.19687384629654" lon="5.229143677542277"><ele>38.0</ele><time>2026-04-13T15:12:29Z</time></trkpt><trkpt lat="51.1969883123756" lon="5.229099576052718"><ele>38.0</ele><time>2026-04-13T15:12:31Z</time></trkpt><trkpt lat="51.19706972512292" lon="5.229035590066574"><ele>38.0</ele><time>2026-04-13T15:12:32Z</time></trkpt><trkpt lat="51.197167697708586" lon="5.228948143145735"><ele>38.0</ele><time>2026-04-13T15:12:33Z</time></trkpt><trkpt lat="51.19725788840732" lon="5.228869817228781"><ele>38.0</ele><time>2026-04-13T15:12:34Z</time></trkpt><trkpt lat="51.197363218601105" lon="5.228798331189224"><ele>38.0</ele><time>2026-04-13T15:12:35Z</time></trkpt><trkpt lat="51.197462649392016" lon="5.228743950624047"><ele>38.0</ele><time>2026-04-13T15:12:36Z</time></trkpt><trkpt lat="51.19754597856557" lon="5.22869491072831"><ele>38.0</ele><time>2026-04-13T15:12:37Z</time></trkpt><trkpt lat="51.197615676211655" lon="5.2286548047092944"><ele>38.0</ele><time>2026-04-13T15:12:38Z</time></trkpt><trkpt lat="51.19766798449526" lon="5.228591299009189"><ele>38.0</ele><time>2026-04-13T15:12:39Z</time></trkpt><trkpt lat="51.19774089679489" lon="5.228460199808413"><ele>38.0</ele><time>2026-04-13T15:12:41Z</time></trkpt><trkpt lat="51.19768712842652" lon="5.228331455517834"><ele>38.0</ele><time>2026-04-13T15:12:42Z</time></trkpt><trkpt lat="51.19765663727543" lon="5.2281959474986754"><ele>38.0</ele><time>2026-04-13T15:12:43Z</time></trkpt><trkpt lat="51.19763075069656" lon="5.2280527192177075"><ele>38.0</ele><time>2026-04-13T15:12:44Z</time></trkpt><trkpt lat="51.19759685398605" lon="5.227918785166208"><ele>38.0</ele><time>2026-04-13T15:12:45Z</time></trkpt><trkpt lat="51.197558658085235" lon="5.227785101033202"><ele>38.0</ele><time>2026-04-13T15:12:46Z</time></trkpt><trkpt lat="51.19752749630494" lon="5.227656248452194"><ele>38.0</ele><time>2026-04-13T15:12:47Z</time></trkpt><trkpt lat="51.19750197165683" lon="5.22752055373487"><ele>38.0</ele><time>2026-04-13T15:12:48Z</time></trkpt><trkpt lat="51.197475127263885" lon="5.227379711580476"><ele>38.0</ele><time>2026-04-13T15:12:49Z</time></trkpt><trkpt lat="51.19744684556758" lon="5.2272305555444385"><ele>38.0</ele><time>2026-04-13T15:12:50Z</time></trkpt><trkpt lat="51.197413944899616" lon="5.2270896725103695"><ele>38.166666666666664</ele><time>2026-04-13T15:12:51Z</time></trkpt><trkpt lat="51.19738615670782" lon="5.226963759248143"><ele>38.33333333333333</ele><time>2026-04-13T15:12:52Z</time></trkpt><trkpt lat="51.19736989521565" lon="5.226857924803712"><ele>38.5</ele><time>2026-04-13T15:12:53Z</time></trkpt><trkpt lat="51.1973487696788" lon="5.226735534744396"><ele>38.666666666666664</ele><time>2026-04-13T15:12:55Z</time></trkpt><trkpt lat="51.19743701670968" lon="5.2267144315304455"><ele>38.833333333333336</ele><time>2026-04-13T15:12:57Z</time></trkpt><trkpt lat="51.197520505477875" lon="5.226704111972095"><ele>39.0</ele><time>2026-04-13T15:12:58Z</time></trkpt><trkpt lat="51.19763566563502" lon="5.226674258747242"><ele>39.0</ele><time>2026-04-13T15:12:59Z</time></trkpt><trkpt lat="51.197788843004695" lon="5.22666251615514"><ele>39.0</ele><time>2026-04-13T15:13:00Z</time></trkpt><trkpt lat="51.197972980315285" lon="5.226630324678378"><ele>39.0</ele><time>2026-04-13T15:13:01Z</time></trkpt><trkpt lat="51.19815224338298" lon="5.226611548399182"><ele>39.0</ele><time>2026-04-13T15:13:02Z</time></trkpt><trkpt lat="51.19833692942278" lon="5.22658697835272"><ele>39.0</ele><time>2026-04-13T15:13:03Z</time></trkpt><trkpt lat="51.19853477556516" lon="5.22656029841491"><ele>39.0</ele><time>2026-04-13T15:13:04Z</time></trkpt><trkpt lat="51.19873020632666" lon="5.226537432796685"><ele>39.0</ele><time>2026-04-13T15:13:05Z</time></trkpt><trkpt lat="51.198926082561826" lon="5.22652060797572"><ele>39.0</ele><time>2026-04-13T15:13:06Z</time></trkpt><trkpt lat="51.199122952680646" lon="5.226500747160373"><ele>39.0</ele><time>2026-04-13T15:13:07Z</time></trkpt><trkpt lat="51.19931862853195" lon="5.2264730642614055"><ele>38.666666666666664</ele><time>2026-04-13T15:13:08Z</time></trkpt><trkpt lat="51.199511970973994" lon="5.226449783065496"><ele>38.33333333333333</ele><time>2026-04-13T15:13:09Z</time></trkpt><trkpt lat="51.19970283410631" lon="5.226426364178144"><ele>38.0</ele><time>2026-04-13T15:13:10Z</time></trkpt><trkpt lat="51.199889103002796" lon="5.226402868882985"><ele>38.0</ele><time>2026-04-13T15:13:11Z</time></trkpt><trkpt lat="51.200074716161915" lon="5.2263787690412125"><ele>38.0</ele><time>2026-04-13T15:13:12Z</time></trkpt><trkpt lat="51.20026004159494" lon="5.226356457725548"><ele>38.0</ele><time>2026-04-13T15:13:13Z</time></trkpt><trkpt lat="51.200444213351076" lon="5.2263449823205885"><ele>38.0</ele><time>2026-04-13T15:13:14Z</time></trkpt><trkpt lat="51.200626764593785" lon="5.226330435151519"><ele>38.0</ele><time>2026-04-13T15:13:15Z</time></trkpt><trkpt lat="51.20080861784491" lon="5.226307241194051"><ele>38.0</ele><time>2026-04-13T15:13:16Z</time></trkpt><trkpt lat="51.20098730163571" lon="5.22628275882878"><ele>38.33333333333333</ele><time>2026-04-13T15:13:17Z</time></trkpt><trkpt lat="51.20116385826333" lon="5.226254902836822"><ele>38.666666666666664</ele><time>2026-04-13T15:13:18Z</time></trkpt><trkpt lat="51.20133486007533" lon="5.226222808175915"><ele>39.0</ele><time>2026-04-13T15:13:19Z</time></trkpt><trkpt lat="51.20150688782752" lon="5.226185294711838"><ele>39.333333333333336</ele><time>2026-04-13T15:13:20Z</time></trkpt><trkpt lat="51.20167441982486" lon="5.226133681403044"><ele>39.66666666666667</ele><time>2026-04-13T15:13:21Z</time></trkpt><trkpt lat="51.20183164336866" lon="5.2260766135587975"><ele>40.0</ele><time>2026-04-13T15:13:22Z</time></trkpt><trkpt lat="51.20197146542613" lon="5.226014177040268"><ele>40.0</ele><time>2026-04-13T15:13:23Z</time></trkpt><trkpt lat="51.20209889798039" lon="5.225944002387587"><ele>40.0</ele><time>2026-04-13T15:13:24Z</time></trkpt><trkpt lat="51.202208924962314" lon="5.225864366256902"><ele>40.0</ele><time>2026-04-13T15:13:25Z</time></trkpt><trkpt lat="51.20229739882058" lon="5.225795444365649"><ele>40.0</ele><time>2026-04-13T15:13:26Z</time></trkpt><trkpt lat="51.20237732731946" lon="5.22573360913766"><ele>40.0</ele><time>2026-04-13T15:13:27Z</time></trkpt><trkpt lat="51.202449564058064" lon="5.225680666371711"><ele>39.833333333333336</ele><time>2026-04-13T15:13:28Z</time></trkpt><trkpt lat="51.20251960047756" lon="5.2256278785327135"><ele>39.66666666666667</ele><time>2026-04-13T15:13:29Z</time></trkpt><trkpt lat="51.202602347238354" lon="5.225600777744728"><ele>39.5</ele><time>2026-04-13T15:13:30Z</time></trkpt><trkpt lat="51.20267915493868" lon="5.225562137486438"><ele>39.333333333333336</ele><time>2026-04-13T15:13:31Z</time></trkpt><trkpt lat="51.202747475106776" lon="5.225537412703098"><ele>39.166666666666664</ele><time>2026-04-13T15:13:32Z</time></trkpt><trkpt lat="51.202817593740335" lon="5.2255149086495045"><ele>39.0</ele><time>2026-04-13T15:13:33Z</time></trkpt><trkpt lat="51.202886761107436" lon="5.225494938525009"><ele>39.0</ele><time>2026-04-13T15:13:34Z</time></trkpt><trkpt lat="51.2029598570603" lon="5.225447293433878"><ele>39.0</ele><time>2026-04-13T15:13:35Z</time></trkpt><trkpt lat="51.20302902313425" lon="5.22542661211518"><ele>39.0</ele><time>2026-04-13T15:13:36Z</time></trkpt><trkpt lat="51.20310604802985" lon="5.225378796254233"><ele>39.0</ele><time>2026-04-13T15:13:37Z</time></trkpt><trkpt lat="51.20317468292206" lon="5.225281679109184"><ele>39.0</ele><time>2026-04-13T15:13:38Z</time></trkpt><trkpt lat="51.20324624011232" lon="5.225167664062704"><ele>39.0</ele><time>2026-04-13T15:13:39Z</time></trkpt><trkpt lat="51.203304736145284" lon="5.2250458117815715"><ele>38.75</ele><time>2026-04-13T15:13:40Z</time></trkpt><trkpt lat="51.20338754298726" lon="5.224934102524671"><ele>38.5</ele><time>2026-04-13T15:13:41Z</time></trkpt><trkpt lat="51.20349053249271" lon="5.224839620476847"><ele>38.25</ele><time>2026-04-13T15:13:42Z</time></trkpt><trkpt lat="51.203601666272924" lon="5.224741375389539"><ele>38.0</ele><time>2026-04-13T15:13:43Z</time></trkpt><trkpt lat="51.20372816299801" lon="5.224628539630923"><ele>38.0</ele><time>2026-04-13T15:13:44Z</time></trkpt><trkpt lat="51.203849379195475" lon="5.224519255545361"><ele>38.0</ele><time>2026-04-13T15:13:45Z</time></trkpt><trkpt lat="51.203977616331564" lon="5.2244301152753945"><ele>38.0</ele><time>2026-04-13T15:13:46Z</time></trkpt><trkpt lat="51.20410764240973" lon="5.224313782718885"><ele>38.0</ele><time>2026-04-13T15:13:47Z</time></trkpt><trkpt lat="51.204248644058204" lon="5.22418627708723"><ele>38.0</ele><time>2026-04-13T15:13:48Z</time></trkpt><trkpt lat="51.20439399913531" lon="5.224054834751793"><ele>38.0</ele><time>2026-04-13T15:13:49Z</time></trkpt><trkpt lat="51.20454644572793" lon="5.2239169796425395"><ele>38.0</ele><time>2026-04-13T15:13:50Z</time></trkpt><trkpt lat="51.20470377838069" lon="5.223774706151499"><ele>37.666666666666664</ele><time>2026-04-13T15:13:51Z</time></trkpt><trkpt lat="51.204848774583034" lon="5.223645737621189"><ele>37.333333333333336</ele><time>2026-04-13T15:13:52Z</time></trkpt><trkpt lat="51.20498581534231" lon="5.223523173402167"><ele>37.0</ele><time>2026-04-13T15:13:53Z</time></trkpt><trkpt lat="51.20510912632354" lon="5.223381435854658"><ele>37.0</ele><time>2026-04-13T15:13:54Z</time></trkpt><trkpt lat="51.20524480451613" lon="5.22326144244867"><ele>37.0</ele><time>2026-04-13T15:13:55Z</time></trkpt><trkpt lat="51.20538143272445" lon="5.223143286204783"><ele>37.0</ele><time>2026-04-13T15:13:56Z</time></trkpt><trkpt lat="51.205516447578425" lon="5.223025190214111"><ele>37.0</ele><time>2026-04-13T15:13:57Z</time></trkpt><trkpt lat="51.20565418572938" lon="5.2228999902343025"><ele>37.0</ele><time>2026-04-13T15:13:58Z</time></trkpt><trkpt lat="51.20578956554632" lon="5.222779556146733"><ele>37.0</ele><time>2026-04-13T15:13:59Z</time></trkpt><trkpt lat="51.20592603674985" lon="5.222660002730245"><ele>37.0</ele><time>2026-04-13T15:14:00Z</time></trkpt><trkpt lat="51.20606226884027" lon="5.222544300290896"><ele>37.0</ele><time>2026-04-13T15:14:01Z</time></trkpt><trkpt lat="51.20619911865999" lon="5.2224202788243606"><ele>37.0</ele><time>2026-04-13T15:14:02Z</time></trkpt><trkpt lat="51.20633159579567" lon="5.22229576878348"><ele>37.66666666666667</ele><time>2026-04-13T15:14:03Z</time></trkpt><trkpt lat="51.20646057595888" lon="5.222178481812145"><ele>38.333333333333336</ele><time>2026-04-13T15:14:04Z</time></trkpt><trkpt lat="51.206590732265575" lon="5.22206063818911"><ele>39.0</ele><time>2026-04-13T15:14:05Z</time></trkpt><trkpt lat="51.206722723494515" lon="5.221941483221077"><ele>40.0</ele><time>2026-04-13T15:14:06Z</time></trkpt><trkpt lat="51.20685065581194" lon="5.221818951674552"><ele>41.0</ele><time>2026-04-13T15:14:07Z</time></trkpt><trkpt lat="51.20698178961906" lon="5.221704170703922"><ele>42.0</ele><time>2026-04-13T15:14:08Z</time></trkpt><trkpt lat="51.207120592302914" lon="5.221589709218038"><ele>42.666666666666664</ele><time>2026-04-13T15:14:09Z</time></trkpt><trkpt lat="51.20726437717158" lon="5.221455587977232"><ele>43.33333333333333</ele><time>2026-04-13T15:14:10Z</time></trkpt><trkpt lat="51.20740896528803" lon="5.2213094547012995"><ele>44.0</ele><time>2026-04-13T15:14:11Z</time></trkpt><trkpt lat="51.207548682414966" lon="5.221149930704043"><ele>42.666666666666664</ele><time>2026-04-13T15:14:12Z</time></trkpt><trkpt lat="51.207682936815736" lon="5.220978108760883"><ele>41.333333333333336</ele><time>2026-04-13T15:14:13Z</time></trkpt><trkpt lat="51.207810368716984" lon="5.220792623490658"><ele>40.0</ele><time>2026-04-13T15:14:14Z</time></trkpt><trkpt lat="51.20793649350712" lon="5.220609866086828"><ele>40.0</ele><time>2026-04-13T15:14:15Z</time></trkpt><trkpt lat="51.20804971456466" lon="5.220430732613961"><ele>40.0</ele><time>2026-04-13T15:14:16Z</time></trkpt><trkpt lat="51.20814228045359" lon="5.220262288391524"><ele>40.0</ele><time>2026-04-13T15:14:17Z</time></trkpt><trkpt lat="51.208228802677745" lon="5.22008492551868"><ele>40.0</ele><time>2026-04-13T15:14:18Z</time></trkpt><trkpt lat="51.2083118990857" lon="5.219908792794254"><ele>39.5</ele><time>2026-04-13T15:14:19Z</time></trkpt><trkpt lat="51.20839358452981" lon="5.219737086984866"><ele>39.0</ele><time>2026-04-13T15:14:20Z</time></trkpt><trkpt lat="51.208467278779764" lon="5.219576094266947"><ele>38.5</ele><time>2026-04-13T15:14:21Z</time></trkpt><trkpt lat="51.20853407938122" lon="5.219422964678497"><ele>38.0</ele><time>2026-04-13T15:14:22Z</time></trkpt><trkpt lat="51.208596268463516" lon="5.219279802364087"><ele>38.0</ele><time>2026-04-13T15:14:23Z</time></trkpt><trkpt lat="51.20865467388642" lon="5.219147204049972"><ele>38.0</ele><time>2026-04-13T15:14:24Z</time></trkpt><trkpt lat="51.208706432337515" lon="5.219029534616449"><ele>38.0</ele><time>2026-04-13T15:14:25Z</time></trkpt><trkpt lat="51.20874446037097" lon="5.21892924483152"><ele>38.0</ele><time>2026-04-13T15:14:26Z</time></trkpt><trkpt lat="51.20880832503751" lon="5.2187771855867044"><ele>38.0</ele><time>2026-04-13T15:14:28Z</time></trkpt><trkpt lat="51.20884406580069" lon="5.218693737042935"><ele>38.0</ele><time>2026-04-13T15:14:30Z</time></trkpt><trkpt lat="51.208885577873" lon="5.218597614099113"><ele>37.6</ele><time>2026-04-13T15:15:08Z</time></trkpt><trkpt lat="51.20896575027546" lon="5.218488635043906"><ele>37.199999999999996</ele><time>2026-04-13T15:15:10Z</time></trkpt><trkpt lat="51.209037445714806" lon="5.218445071543199"><ele>36.8</ele><time>2026-04-13T15:15:11Z</time></trkpt><trkpt lat="51.209104057833905" lon="5.218404479456062"><ele>36.4</ele><time>2026-04-13T15:15:12Z</time></trkpt><trkpt lat="51.20919761909041" lon="5.218352253861954"><ele>36.0</ele><time>2026-04-13T15:15:14Z</time></trkpt><trkpt lat="51.20922075708437" lon="5.2181832056053645"><ele>35.833333333333336</ele><time>2026-04-13T15:15:16Z</time></trkpt><trkpt lat="51.209210651939415" lon="5.218081823746991"><ele>35.666666666666664</ele><time>2026-04-13T15:15:18Z</time></trkpt><trkpt lat="51.209175184886526" lon="5.217952123088599"><ele>35.5</ele><time>2026-04-13T15:15:27Z</time></trkpt><trkpt lat="51.209153831107585" lon="5.217857568343356"><ele>35.33333333333333</ele><time>2026-04-13T15:15:28Z</time></trkpt><trkpt lat="51.20912489868123" lon="5.217707961391886"><ele>35.166666666666664</ele><time>2026-04-13T15:15:29Z</time></trkpt><trkpt lat="51.20909252326659" lon="5.217525545877527"><ele>35.0</ele><time>2026-04-13T15:15:30Z</time></trkpt><trkpt lat="51.209063917573744" lon="5.217358756945079"><ele>35.0</ele><time>2026-04-13T15:15:31Z</time></trkpt><trkpt lat="51.20902828544742" lon="5.217164754327518"><ele>35.0</ele><time>2026-04-13T15:15:32Z</time></trkpt><trkpt lat="51.20898504707067" lon="5.216941388082535"><ele>35.0</ele><time>2026-04-13T15:15:33Z</time></trkpt><trkpt lat="51.20893622495934" lon="5.216689297657939"><ele>35.0</ele><time>2026-04-13T15:15:34Z</time></trkpt><trkpt lat="51.2088809297881" lon="5.216403996970341"><ele>35.33333333333333</ele><time>2026-04-13T15:15:35Z</time></trkpt><trkpt lat="51.20882677861409" lon="5.21612374457351"><ele>35.666666666666664</ele><time>2026-04-13T15:15:36Z</time></trkpt><trkpt lat="51.20876700022273" lon="5.215819397438002"><ele>36.0</ele><time>2026-04-13T15:15:37Z</time></trkpt><trkpt lat="51.208708927322036" lon="5.215517246976562"><ele>36.666666666666664</ele><time>2026-04-13T15:15:38Z</time></trkpt><trkpt lat="51.20864726114834" lon="5.215188458603657"><ele>37.33333333333333</ele><time>2026-04-13T15:15:39Z</time></trkpt><trkpt lat="51.208580640971874" lon="5.214853093959367"><ele>38.0</ele><time>2026-04-13T15:15:40Z</time></trkpt><trkpt lat="51.2085046610997" lon="5.214505672738946"><ele>38.0</ele><time>2026-04-13T15:15:41Z</time></trkpt><trkpt lat="51.208422240082356" lon="5.214142282288621"><ele>38.0</ele><time>2026-04-13T15:15:42Z</time></trkpt><trkpt lat="51.20834019627842" lon="5.213770723439918"><ele>38.0</ele><time>2026-04-13T15:15:43Z</time></trkpt><trkpt lat="51.20826576017285" lon="5.213423550360395"><ele>38.0</ele><time>2026-04-13T15:15:44Z</time></trkpt><trkpt lat="51.20818928599795" lon="5.2130738524037765"><ele>36.5</ele><time>2026-04-13T15:15:45Z</time></trkpt><trkpt lat="51.20811141922208" lon="5.212722919789618"><ele>35.0</ele><time>2026-04-13T15:15:46Z</time></trkpt><trkpt lat="51.208033506729834" lon="5.2123674805050095"><ele>35.0</ele><time>2026-04-13T15:15:47Z</time></trkpt><trkpt lat="51.2079525454225" lon="5.212013719682708"><ele>35.0</ele><time>2026-04-13T15:15:48Z</time></trkpt><trkpt lat="51.2078715099454" lon="5.2116623160336895"><ele>36.0</ele><time>2026-04-13T15:15:49Z</time></trkpt><trkpt lat="51.20779106393577" lon="5.211317900673491"><ele>37.0</ele><time>2026-04-13T15:15:50Z</time></trkpt><trkpt lat="51.207710210980494" lon="5.2109759498181205"><ele>36.5</ele><time>2026-04-13T15:15:51Z</time></trkpt><trkpt lat="51.207628676720184" lon="5.210636779963673"><ele>36.0</ele><time>2026-04-13T15:15:52Z</time></trkpt><trkpt lat="51.2075472504113" lon="5.210298356425518"><ele>36.0</ele><time>2026-04-13T15:15:53Z</time></trkpt><trkpt lat="51.20746950808613" lon="5.209956949486284"><ele>36.0</ele><time>2026-04-13T15:15:54Z</time></trkpt><trkpt lat="51.20739202190687" lon="5.209612699243849"><ele>35.0</ele><time>2026-04-13T15:15:55Z</time></trkpt><trkpt lat="51.20731257520189" lon="5.209268899706892"><ele>34.0</ele><time>2026-04-13T15:15:56Z</time></trkpt><trkpt lat="51.20723026283238" lon="5.208924885608986"><ele>33.5</ele><time>2026-04-13T15:15:57Z</time></trkpt><trkpt lat="51.20714528225327" lon="5.208578244071318"><ele>33.0</ele><time>2026-04-13T15:15:58Z</time></trkpt><trkpt lat="51.20705604150144" lon="5.208227625950789"><ele>33.5</ele><time>2026-04-13T15:15:59Z</time></trkpt><trkpt lat="51.20696720846622" lon="5.207872515654484"><ele>34.0</ele><time>2026-04-13T15:16:00Z</time></trkpt><trkpt lat="51.206874689313935" lon="5.207514689873982"><ele>33.5</ele><time>2026-04-13T15:16:01Z</time></trkpt><trkpt lat="51.20676707470547" lon="5.207147106432471"><ele>33.0</ele><time>2026-04-13T15:16:02Z</time></trkpt><trkpt lat="51.20664997189789" lon="5.206759245012647"><ele>32.5</ele><time>2026-04-13T15:16:03Z</time></trkpt><trkpt lat="51.206529605529916" lon="5.2063228496574645"><ele>32.0</ele><time>2026-04-13T15:16:04Z</time></trkpt><trkpt lat="51.206401649224794" lon="5.2058204029098745"><ele>31.5</ele><time>2026-04-13T15:16:05Z</time></trkpt><trkpt lat="51.20626424973271" lon="5.20528303904824"><ele>31.0</ele><time>2026-04-13T15:16:06Z</time></trkpt><trkpt lat="51.20612470074207" lon="5.204739296691494"><ele>31.0</ele><time>2026-04-13T15:16:07Z</time></trkpt><trkpt lat="51.205989148666056" lon="5.204203421116231"><ele>31.0</ele><time>2026-04-13T15:16:08Z</time></trkpt><trkpt lat="51.2058628949254" lon="5.203677514547696"><ele>31.0</ele><time>2026-04-13T15:16:09Z</time></trkpt><trkpt lat="51.20574315019277" lon="5.203146289690771"><ele>31.0</ele><time>2026-04-13T15:16:10Z</time></trkpt><trkpt lat="51.205628071244256" lon="5.202622420246996"><ele>30.5</ele><time>2026-04-13T15:16:11Z</time></trkpt><trkpt lat="51.205516100751346" lon="5.202116289023827"><ele>30.0</ele><time>2026-04-13T15:16:12Z</time></trkpt><trkpt lat="51.205403846094036" lon="5.201615167322661"><ele>30.0</ele><time>2026-04-13T15:16:13Z</time></trkpt><trkpt lat="51.20529454421977" lon="5.201112115181331"><ele>30.0</ele><time>2026-04-13T15:16:14Z</time></trkpt><trkpt lat="51.20519140868454" lon="5.200607084656142"><ele>31.0</ele><time>2026-04-13T15:16:15Z</time></trkpt><trkpt lat="51.2050954561149" lon="5.200105307255559"><ele>32.0</ele><time>2026-04-13T15:16:16Z</time></trkpt><trkpt lat="51.20500440755693" lon="5.199614164781546"><ele>32.0</ele><time>2026-04-13T15:16:17Z</time></trkpt><trkpt lat="51.204918827829744" lon="5.199139731414227"><ele>32.0</ele><time>2026-04-13T15:16:18Z</time></trkpt><trkpt lat="51.20483737866618" lon="5.198684895485548"><ele>30.5</ele><time>2026-04-13T15:16:19Z</time></trkpt><trkpt lat="51.20476094537146" lon="5.198242374020484"><ele>29.0</ele><time>2026-04-13T15:16:20Z</time></trkpt><trkpt lat="51.20468736739206" lon="5.197799019470134"><ele>29.0</ele><time>2026-04-13T15:16:21Z</time></trkpt><trkpt lat="51.20461574957007" lon="5.197348749807478"><ele>29.0</ele><time>2026-04-13T15:16:22Z</time></trkpt><trkpt lat="51.2045481685396" lon="5.196890477500988"><ele>29.5</ele><time>2026-04-13T15:16:23Z</time></trkpt><trkpt lat="51.204481872823955" lon="5.1964285142819895"><ele>30.0</ele><time>2026-04-13T15:16:24Z</time></trkpt><trkpt lat="51.204418000643706" lon="5.195964295788771"><ele>30.5</ele><time>2026-04-13T15:16:25Z</time></trkpt><trkpt lat="51.2043576214305" lon="5.195499097497511"><ele>31.0</ele><time>2026-04-13T15:16:26Z</time></trkpt><trkpt lat="51.20429927191889" lon="5.195033200215282"><ele>31.0</ele><time>2026-04-13T15:16:27Z</time></trkpt><trkpt lat="51.20424109585701" lon="5.194567154166698"><ele>31.0</ele><time>2026-04-13T15:16:28Z</time></trkpt><trkpt lat="51.20418458390405" lon="5.19409992941895"><ele>31.0</ele><time>2026-04-13T15:16:29Z</time></trkpt><trkpt lat="51.2041315471537" lon="5.193631970626748"><ele>31.0</ele><time>2026-04-13T15:16:30Z</time></trkpt><trkpt lat="51.20408712547391" lon="5.193155900807939"><ele>31.0</ele><time>2026-04-13T15:16:31Z</time></trkpt><trkpt lat="51.20405102036752" lon="5.192673867259598"><ele>31.0</ele><time>2026-04-13T15:16:32Z</time></trkpt><trkpt lat="51.20401593135489" lon="5.1921887132315065"><ele>31.0</ele><time>2026-04-13T15:16:33Z</time></trkpt><trkpt lat="51.20398502113783" lon="5.191702433509651"><ele>31.0</ele><time>2026-04-13T15:16:34Z</time></trkpt><trkpt lat="51.203959898411675" lon="5.191212235681745"><ele>31.0</ele><time>2026-04-13T15:16:35Z</time></trkpt><trkpt lat="51.20394125725408" lon="5.190726963676154"><ele>31.0</ele><time>2026-04-13T15:16:36Z</time></trkpt><trkpt lat="51.20392891062433" lon="5.19024729440595"><ele>33.5</ele><time>2026-04-13T15:16:37Z</time></trkpt><trkpt lat="51.203922690392" lon="5.189771084160144"><ele>36.0</ele><time>2026-04-13T15:16:38Z</time></trkpt><trkpt lat="51.20392088583481" lon="5.189291867662296"><ele>35.5</ele><time>2026-04-13T15:16:39Z</time></trkpt><trkpt lat="51.203921489752005" lon="5.18881057503666"><ele>35.0</ele><time>2026-04-13T15:16:40Z</time></trkpt><trkpt lat="51.20392331528536" lon="5.188328609620713"><ele>33.5</ele><time>2026-04-13T15:16:41Z</time></trkpt><trkpt lat="51.20392837066789" lon="5.187845243251854"><ele>32.0</ele><time>2026-04-13T15:16:42Z</time></trkpt><trkpt lat="51.20393942805394" lon="5.187361074859873"><ele>32.5</ele><time>2026-04-13T15:16:43Z</time></trkpt><trkpt lat="51.20395973181939" lon="5.186875778459577"><ele>33.0</ele><time>2026-04-13T15:16:44Z</time></trkpt><trkpt lat="51.20398943811974" lon="5.186395642467527"><ele>31.0</ele><time>2026-04-13T15:16:45Z</time></trkpt><trkpt lat="51.20402241449748" lon="5.1859366380747405"><ele>29.0</ele><time>2026-04-13T15:16:46Z</time></trkpt><trkpt lat="51.20405648586632" lon="5.185499331365395"><ele>29.0</ele><time>2026-04-13T15:16:47Z</time></trkpt><trkpt lat="51.2040937786862" lon="5.185086641693472"><ele>29.0</ele><time>2026-04-13T15:16:48Z</time></trkpt><trkpt lat="51.20413311658911" lon="5.184696830705355"><ele>29.0</ele><time>2026-04-13T15:16:49Z</time></trkpt><trkpt lat="51.20417308004294" lon="5.18435096092024"><ele>29.0</ele><time>2026-04-13T15:16:50Z</time></trkpt><trkpt lat="51.204211841107735" lon="5.184051460111826"><ele>29.0</ele><time>2026-04-13T15:16:51Z</time></trkpt><trkpt lat="51.20424758531147" lon="5.1837885053098685"><ele>29.0</ele><time>2026-04-13T15:16:52Z</time></trkpt><trkpt lat="51.204277972382926" lon="5.183565991109205"><ele>29.0</ele><time>2026-04-13T15:16:53Z</time></trkpt><trkpt lat="51.20430139788176" lon="5.183393672852407"><ele>29.0</ele><time>2026-04-13T15:16:54Z</time></trkpt><trkpt lat="51.2043186101211" lon="5.183252218856467"><ele>29.0</ele><time>2026-04-13T15:16:55Z</time></trkpt><trkpt lat="51.20433137935428" lon="5.183136712896073"><ele>29.0</ele><time>2026-04-13T15:16:56Z</time></trkpt><trkpt lat="51.20435281452929" lon="5.1829965594364"><ele>29.25</ele><time>2026-04-13T15:16:58Z</time></trkpt><trkpt lat="51.204367669843066" lon="5.182892477900035"><ele>29.5</ele><time>2026-04-13T15:17:01Z</time></trkpt><trkpt lat="51.20440189738423" lon="5.182701716476162"><ele>29.75</ele><time>2026-04-13T15:17:03Z</time></trkpt><trkpt lat="51.204428728397225" lon="5.182515388278793"><ele>30.0</ele><time>2026-04-13T15:17:04Z</time></trkpt><trkpt lat="51.20446701380479" lon="5.182269507553112"><ele>30.0</ele><time>2026-04-13T15:17:05Z</time></trkpt><trkpt lat="51.20450709135794" lon="5.1820153643846485"><ele>30.0</ele><time>2026-04-13T15:17:06Z</time></trkpt><trkpt lat="51.20455579481384" lon="5.181712974587588"><ele>30.0</ele><time>2026-04-13T15:17:07Z</time></trkpt><trkpt lat="51.204615337606" lon="5.181357286326818"><ele>30.0</ele><time>2026-04-13T15:17:08Z</time></trkpt><trkpt lat="51.204684439964005" lon="5.180966416486989"><ele>30.0</ele><time>2026-04-13T15:17:09Z</time></trkpt><trkpt lat="51.20475774275996" lon="5.18055450363397"><ele>29.5</ele><time>2026-04-13T15:17:10Z</time></trkpt><trkpt lat="51.20483147431771" lon="5.180133754133703"><ele>29.0</ele><time>2026-04-13T15:17:11Z</time></trkpt><trkpt lat="51.204906201674156" lon="5.1796968587583585"><ele>29.0</ele><time>2026-04-13T15:17:12Z</time></trkpt><trkpt lat="51.20497750420669" lon="5.179263550394317"><ele>29.0</ele><time>2026-04-13T15:17:13Z</time></trkpt><trkpt lat="51.20505286802808" lon="5.178816226779163"><ele>29.0</ele><time>2026-04-13T15:17:14Z</time></trkpt><trkpt lat="51.2051299431879" lon="5.178363833632246"><ele>29.0</ele><time>2026-04-13T15:17:15Z</time></trkpt><trkpt lat="51.20521125583628" lon="5.177902233581742"><ele>29.5</ele><time>2026-04-13T15:17:16Z</time></trkpt><trkpt lat="51.20529219732223" lon="5.177455357572781"><ele>30.0</ele><time>2026-04-13T15:17:17Z</time></trkpt><trkpt lat="51.20537531810833" lon="5.176997722284763"><ele>30.5</ele><time>2026-04-13T15:17:18Z</time></trkpt><trkpt lat="51.2054587582964" lon="5.176528265094558"><ele>31.0</ele><time>2026-04-13T15:17:19Z</time></trkpt><trkpt lat="51.205544218295834" lon="5.1760518156966855"><ele>33.5</ele><time>2026-04-13T15:17:20Z</time></trkpt><trkpt lat="51.20563114976206" lon="5.175566627169373"><ele>36.0</ele><time>2026-04-13T15:17:21Z</time></trkpt><trkpt lat="51.20571883243145" lon="5.175079690842956"><ele>37.0</ele><time>2026-04-13T15:17:22Z</time></trkpt><trkpt lat="51.20580638301394" lon="5.174601670006948"><ele>38.0</ele><time>2026-04-13T15:17:23Z</time></trkpt><trkpt lat="51.20589114643426" lon="5.17412705446379"><ele>38.0</ele><time>2026-04-13T15:17:24Z</time></trkpt><trkpt lat="51.20597398412185" lon="5.17366318150426"><ele>38.0</ele><time>2026-04-13T15:17:25Z</time></trkpt><trkpt lat="51.2060540063416" lon="5.173214281602569"><ele>38.5</ele><time>2026-04-13T15:17:26Z</time></trkpt><trkpt lat="51.206135757326564" lon="5.172765589053259"><ele>39.0</ele><time>2026-04-13T15:17:27Z</time></trkpt><trkpt lat="51.20621648847203" lon="5.1723162524668735"><ele>39.0</ele><time>2026-04-13T15:17:28Z</time></trkpt><trkpt lat="51.2063029950222" lon="5.171861849060851"><ele>39.0</ele><time>2026-04-13T15:17:29Z</time></trkpt><trkpt lat="51.20639695046198" lon="5.171405472590248"><ele>39.5</ele><time>2026-04-13T15:17:30Z</time></trkpt><trkpt lat="51.2064824629037" lon="5.170944566910901"><ele>40.0</ele><time>2026-04-13T15:17:31Z</time></trkpt><trkpt lat="51.206563557091975" lon="5.170481342503653"><ele>37.5</ele><time>2026-04-13T15:17:32Z</time></trkpt><trkpt lat="51.206642095809606" lon="5.1700276672392205"><ele>35.0</ele><time>2026-04-13T15:17:33Z</time></trkpt><trkpt lat="51.2067138223214" lon="5.169580798723884"><ele>35.0</ele><time>2026-04-13T15:17:34Z</time></trkpt><trkpt lat="51.206775931090405" lon="5.169140751139744"><ele>35.0</ele><time>2026-04-13T15:17:35Z</time></trkpt><trkpt lat="51.20682892437302" lon="5.1687103702753445"><ele>35.5</ele><time>2026-04-13T15:17:36Z</time></trkpt><trkpt lat="51.206870500886744" lon="5.168289081657748"><ele>36.0</ele><time>2026-04-13T15:17:37Z</time></trkpt><trkpt lat="51.20690152634478" lon="5.167875328854211"><ele>36.5</ele><time>2026-04-13T15:17:38Z</time></trkpt><trkpt lat="51.206922288470174" lon="5.16746667621275"><ele>37.0</ele><time>2026-04-13T15:17:39Z</time></trkpt><trkpt lat="51.206932591196214" lon="5.167069760470418"><ele>37.0</ele><time>2026-04-13T15:17:40Z</time></trkpt><trkpt lat="51.20693506034275" lon="5.1666943402824765"><ele>37.0</ele><time>2026-04-13T15:17:41Z</time></trkpt><trkpt lat="51.20693220948462" lon="5.1663269215738605"><ele>36.0</ele><time>2026-04-13T15:17:42Z</time></trkpt><trkpt lat="51.20692460639165" lon="5.165956960458073"><ele>35.0</ele><time>2026-04-13T15:17:43Z</time></trkpt><trkpt lat="51.20691176957516" lon="5.165591946697193"><ele>34.0</ele><time>2026-04-13T15:17:44Z</time></trkpt><trkpt lat="51.20689134060091" lon="5.165232291713571"><ele>33.0</ele><time>2026-04-13T15:17:45Z</time></trkpt><trkpt lat="51.206863213344775" lon="5.164872141351362"><ele>33.5</ele><time>2026-04-13T15:17:46Z</time></trkpt><trkpt lat="51.20682382736893" lon="5.164506134843729"><ele>34.0</ele><time>2026-04-13T15:17:47Z</time></trkpt><trkpt lat="51.206775034490384" lon="5.16414282051292"><ele>35.0</ele><time>2026-04-13T15:17:48Z</time></trkpt><trkpt lat="51.20671648742701" lon="5.163788032270124"><ele>36.0</ele><time>2026-04-13T15:17:49Z</time></trkpt><trkpt lat="51.206653343536985" lon="5.163445844748069"><ele>35.666666666666664</ele><time>2026-04-13T15:17:50Z</time></trkpt><trkpt lat="51.20658114663041" lon="5.163105078185958"><ele>35.33333333333333</ele><time>2026-04-13T15:17:51Z</time></trkpt><trkpt lat="51.20650773931358" lon="5.162771979129588"><ele>35.0</ele><time>2026-04-13T15:17:52Z</time></trkpt><trkpt lat="51.20643128153253" lon="5.162447219356662"><ele>33.666666666666664</ele><time>2026-04-13T15:17:53Z</time></trkpt><trkpt lat="51.20634293553345" lon="5.162132723340632"><ele>32.333333333333336</ele><time>2026-04-13T15:17:54Z</time></trkpt><trkpt lat="51.206256735893206" lon="5.161816898496741"><ele>31.0</ele><time>2026-04-13T15:17:55Z</time></trkpt><trkpt lat="51.206176554591565" lon="5.161502601433354"><ele>31.0</ele><time>2026-04-13T15:17:56Z</time></trkpt><trkpt lat="51.206097732185256" lon="5.16119507182022"><ele>31.0</ele><time>2026-04-13T15:17:57Z</time></trkpt><trkpt lat="51.20602092482998" lon="5.160885696002327"><ele>31.0</ele><time>2026-04-13T15:17:58Z</time></trkpt><trkpt lat="51.20594924816021" lon="5.160572575074571"><ele>31.0</ele><time>2026-04-13T15:17:59Z</time></trkpt><trkpt lat="51.205883162698235" lon="5.160260169485954"><ele>31.0</ele><time>2026-04-13T15:18:00Z</time></trkpt><trkpt lat="51.20581932016236" lon="5.159948373632806"><ele>31.0</ele><time>2026-04-13T15:18:01Z</time></trkpt><trkpt lat="51.20575761029072" lon="5.159641048107832"><ele>30.666666666666668</ele><time>2026-04-13T15:18:02Z</time></trkpt><trkpt lat="51.20569851252932" lon="5.159339091775163"><ele>30.333333333333336</ele><time>2026-04-13T15:18:03Z</time></trkpt><trkpt lat="51.205638423862865" lon="5.159038275840155"><ele>30.0</ele><time>2026-04-13T15:18:04Z</time></trkpt><trkpt lat="51.20557748824735" lon="5.158737919662383"><ele>30.666666666666664</ele><time>2026-04-13T15:18:05Z</time></trkpt><trkpt lat="51.20551643187684" lon="5.158434529053999"><ele>31.333333333333332</ele><time>2026-04-13T15:18:06Z</time></trkpt><trkpt lat="51.205455139270164" lon="5.1581164801539225"><ele>32.0</ele><time>2026-04-13T15:18:07Z</time></trkpt><trkpt lat="51.20539273763438" lon="5.157787130074369"><ele>32.33333333333333</ele><time>2026-04-13T15:18:08Z</time></trkpt><trkpt lat="51.20533008416224" lon="5.1574566290511035"><ele>32.666666666666664</ele><time>2026-04-13T15:18:09Z</time></trkpt><trkpt lat="51.20526591169101" lon="5.1571293945367485"><ele>33.0</ele><time>2026-04-13T15:18:10Z</time></trkpt><trkpt lat="51.2051974904111" lon="5.156791940159129"><ele>34.5</ele><time>2026-04-13T15:18:11Z</time></trkpt><trkpt lat="51.20512664345419" lon="5.156442543620736"><ele>36.0</ele><time>2026-04-13T15:18:12Z</time></trkpt><trkpt lat="51.20505512756584" lon="5.156076734075773"><ele>36.5</ele><time>2026-04-13T15:18:13Z</time></trkpt><trkpt lat="51.20498063150901" lon="5.155691872175653"><ele>37.0</ele><time>2026-04-13T15:18:14Z</time></trkpt><trkpt lat="51.204902054743755" lon="5.155287159397963"><ele>35.0</ele><time>2026-04-13T15:18:15Z</time></trkpt><trkpt lat="51.20482129373818" lon="5.154873998016317"><ele>33.0</ele><time>2026-04-13T15:18:16Z</time></trkpt><trkpt lat="51.204745681007346" lon="5.154481894789524"><ele>33.0</ele><time>2026-04-13T15:18:17Z</time></trkpt><trkpt lat="51.20467565792667" lon="5.154098534521231"><ele>33.0</ele><time>2026-04-13T15:18:18Z</time></trkpt><trkpt lat="51.20461337890079" lon="5.153720091738036"><ele>32.0</ele><time>2026-04-13T15:18:19Z</time></trkpt><trkpt lat="51.20455002601428" lon="5.153349908193937"><ele>31.0</ele><time>2026-04-13T15:18:20Z</time></trkpt><trkpt lat="51.204478554417854" lon="5.152986955561471"><ele>31.0</ele><time>2026-04-13T15:18:21Z</time></trkpt><trkpt lat="51.20439796028685" lon="5.152625029301056"><ele>31.0</ele><time>2026-04-13T15:18:22Z</time></trkpt><trkpt lat="51.20431167884666" lon="5.1522598998536395"><ele>32.0</ele><time>2026-04-13T15:18:23Z</time></trkpt><trkpt lat="51.20422048601683" lon="5.151893305130482"><ele>33.0</ele><time>2026-04-13T15:18:24Z</time></trkpt><trkpt lat="51.20412279871981" lon="5.1515290958501945"><ele>34.0</ele><time>2026-04-13T15:18:25Z</time></trkpt><trkpt lat="51.20401835765909" lon="5.151169078467388"><ele>35.0</ele><time>2026-04-13T15:18:26Z</time></trkpt><trkpt lat="51.203908537972055" lon="5.150815964095086"><ele>36.0</ele><time>2026-04-13T15:18:27Z</time></trkpt><trkpt lat="51.20379572638818" lon="5.1504772824075165"><ele>37.0</ele><time>2026-04-13T15:18:28Z</time></trkpt><trkpt lat="51.20367870250158" lon="5.150148605270209"><ele>36.5</ele><time>2026-04-13T15:18:29Z</time></trkpt><trkpt lat="51.20355776436542" lon="5.149829604151125"><ele>36.0</ele><time>2026-04-13T15:18:30Z</time></trkpt><trkpt lat="51.203433894465086" lon="5.149518621468751"><ele>36.0</ele><time>2026-04-13T15:18:31Z</time></trkpt><trkpt lat="51.20330770003097" lon="5.149218885685473"><ele>36.0</ele><time>2026-04-13T15:18:32Z</time></trkpt><trkpt lat="51.203177323484496" lon="5.148928208493911"><ele>35.5</ele><time>2026-04-13T15:18:33Z</time></trkpt><trkpt lat="51.20304138371465" lon="5.148642622842661"><ele>35.0</ele><time>2026-04-13T15:18:34Z</time></trkpt><trkpt lat="51.20290379157641" lon="5.1483556272502335"><ele>34.0</ele><time>2026-04-13T15:18:35Z</time></trkpt><trkpt lat="51.20276919258653" lon="5.14806897360695"><ele>33.0</ele><time>2026-04-13T15:18:36Z</time></trkpt><trkpt lat="51.20262545462392" lon="5.1477926261803955"><ele>32.0</ele><time>2026-04-13T15:18:37Z</time></trkpt><trkpt lat="51.20247025665924" lon="5.147525976073394"><ele>30.5</ele><time>2026-04-13T15:18:38Z</time></trkpt><trkpt lat="51.20230903458544" lon="5.147261557637635"><ele>29.0</ele><time>2026-04-13T15:18:39Z</time></trkpt><trkpt lat="51.20214332433573" lon="5.146998570418195"><ele>29.0</ele><time>2026-04-13T15:18:40Z</time></trkpt><trkpt lat="51.20197289402095" lon="5.146738997287731"><ele>29.0</ele><time>2026-04-13T15:18:41Z</time></trkpt><trkpt lat="51.20180270627701" lon="5.1464933357569835"><ele>29.0</ele><time>2026-04-13T15:18:42Z</time></trkpt><trkpt lat="51.20163730893902" lon="5.146270844149464"><ele>29.0</ele><time>2026-04-13T15:18:43Z</time></trkpt><trkpt lat="51.20147722144983" lon="5.146064486888339"><ele>29.0</ele><time>2026-04-13T15:18:44Z</time></trkpt><trkpt lat="51.2013258023178" lon="5.145877226354535"><ele>29.0</ele><time>2026-04-13T15:18:45Z</time></trkpt><trkpt lat="51.20118558418124" lon="5.145718523523092"><ele>29.0</ele><time>2026-04-13T15:18:46Z</time></trkpt><trkpt lat="51.201058824777235" lon="5.145587829596934"><ele>29.0</ele><time>2026-04-13T15:18:47Z</time></trkpt><trkpt lat="51.20093727983083" lon="5.145463696873565"><ele>29.0</ele><time>2026-04-13T15:18:48Z</time></trkpt><trkpt lat="51.20083386572844" lon="5.1453495241299025"><ele>29.0</ele><time>2026-04-13T15:18:49Z</time></trkpt><trkpt lat="51.200748142530195" lon="5.145251557937594"><ele>29.0</ele><time>2026-04-13T15:18:50Z</time></trkpt><trkpt lat="51.20067280958139" lon="5.145165696022499"><ele>29.0</ele><time>2026-04-13T15:18:51Z</time></trkpt><trkpt lat="51.20060256173367" lon="5.145083001929336"><ele>29.0</ele><time>2026-04-13T15:18:52Z</time></trkpt><trkpt lat="51.20053648439741" lon="5.145005799501037"><ele>28.999999999999996</ele><time>2026-04-13T15:18:53Z</time></trkpt><trkpt lat="51.2004739610604" lon="5.144929663728878"><ele>29.0</ele><time>2026-04-13T15:18:54Z</time></trkpt><trkpt lat="51.20041331892612" lon="5.144853450314383"><ele>29.0</ele><time>2026-04-13T15:18:55Z</time></trkpt><trkpt lat="51.20035436300992" lon="5.144785742136245"><ele>29.0</ele><time>2026-04-13T15:18:56Z</time></trkpt><trkpt lat="51.200287479440874" lon="5.144708090300966"><ele>28.999999999999996</ele><time>2026-04-13T15:18:57Z</time></trkpt><trkpt lat="51.200203183736505" lon="5.144610607771814"><ele>29.0</ele><time>2026-04-13T15:18:58Z</time></trkpt><trkpt lat="51.20011601915381" lon="5.144510465088644"><ele>28.75</ele><time>2026-04-13T15:18:59Z</time></trkpt><trkpt lat="51.20002559503472" lon="5.144405127701264"><ele>28.5</ele><time>2026-04-13T15:19:00Z</time></trkpt><trkpt lat="51.19992720965698" lon="5.144293840862658"><ele>28.25</ele><time>2026-04-13T15:19:01Z</time></trkpt><trkpt lat="51.19981619462447" lon="5.144177866395429"><ele>28.0</ele><time>2026-04-13T15:19:02Z</time></trkpt><trkpt lat="51.19969210847654" lon="5.14405212589765"><ele>27.0</ele><time>2026-04-13T15:19:03Z</time></trkpt><trkpt lat="51.19956455008843" lon="5.1439179489057265"><ele>26.0</ele><time>2026-04-13T15:19:04Z</time></trkpt><trkpt lat="51.199434980581714" lon="5.14378117662116"><ele>25.0</ele><time>2026-04-13T15:19:05Z</time></trkpt><trkpt lat="51.199291605659766" lon="5.143630984215386"><ele>25.0</ele><time>2026-04-13T15:19:06Z</time></trkpt><trkpt lat="51.19914514268038" lon="5.143473750192999"><ele>25.0</ele><time>2026-04-13T15:19:07Z</time></trkpt><trkpt lat="51.199001386073625" lon="5.1433071469190565"><ele>25.0</ele><time>2026-04-13T15:19:08Z</time></trkpt><trkpt lat="51.19884905321117" lon="5.143130615025687"><ele>26.0</ele><time>2026-04-13T15:19:09Z</time></trkpt><trkpt lat="51.198670554556514" lon="5.142923928976168"><ele>27.0</ele><time>2026-04-13T15:19:10Z</time></trkpt><trkpt lat="51.198466418160045" lon="5.142688508382494"><ele>27.0</ele><time>2026-04-13T15:19:11Z</time></trkpt><trkpt lat="51.1982480067299" lon="5.142440370151321"><ele>27.0</ele><time>2026-04-13T15:19:12Z</time></trkpt><trkpt lat="51.19802777596268" lon="5.142191655957138"><ele>27.0</ele><time>2026-04-13T15:19:13Z</time></trkpt><trkpt lat="51.19779321114049" lon="5.141924275227554"><ele>27.0</ele><time>2026-04-13T15:19:14Z</time></trkpt><trkpt lat="51.19756388597215" lon="5.141663585879869"><ele>26.5</ele><time>2026-04-13T15:19:15Z</time></trkpt><trkpt lat="51.197327629843045" lon="5.141396207988762"><ele>26.0</ele><time>2026-04-13T15:19:16Z</time></trkpt><trkpt lat="51.19709051147467" lon="5.141120909952385"><ele>26.0</ele><time>2026-04-13T15:19:17Z</time></trkpt><trkpt lat="51.196857867605466" lon="5.140835069654835"><ele>26.0</ele><time>2026-04-13T15:19:18Z</time></trkpt><trkpt lat="51.19662628175626" lon="5.140551189241124"><ele>26.0</ele><time>2026-04-13T15:19:19Z</time></trkpt><trkpt lat="51.1963928848632" lon="5.140284819411954"><ele>26.0</ele><time>2026-04-13T15:19:20Z</time></trkpt><trkpt lat="51.196158921227045" lon="5.1400261254492055"><ele>26.5</ele><time>2026-04-13T15:19:21Z</time></trkpt><trkpt lat="51.19592884851344" lon="5.139766798991732"><ele>27.0</ele><time>2026-04-13T15:19:22Z</time></trkpt><trkpt lat="51.19570093202802" lon="5.139503852349703"><ele>27.5</ele><time>2026-04-13T15:19:23Z</time></trkpt><trkpt lat="51.19547109477811" lon="5.139236379964274"><ele>28.0</ele><time>2026-04-13T15:19:24Z</time></trkpt><trkpt lat="51.19523962986763" lon="5.138972296131681"><ele>28.0</ele><time>2026-04-13T15:19:25Z</time></trkpt><trkpt lat="51.1950055027814" lon="5.138709985467279"><ele>28.0</ele><time>2026-04-13T15:19:26Z</time></trkpt><trkpt lat="51.19477952066419" lon="5.138455964360844"><ele>28.0</ele><time>2026-04-13T15:19:27Z</time></trkpt><trkpt lat="51.19455086459243" lon="5.138198088100311"><ele>28.0</ele><time>2026-04-13T15:19:28Z</time></trkpt><trkpt lat="51.19432022837415" lon="5.137936458876474"><ele>28.0</ele><time>2026-04-13T15:19:29Z</time></trkpt><trkpt lat="51.19408776063698" lon="5.1376737865780955"><ele>28.0</ele><time>2026-04-13T15:19:30Z</time></trkpt><trkpt lat="51.19385444304202" lon="5.137412502916943"><ele>28.0</ele><time>2026-04-13T15:19:31Z</time></trkpt><trkpt lat="51.193619454090104" lon="5.13714962927547"><ele>28.0</ele><time>2026-04-13T15:19:32Z</time></trkpt><trkpt lat="51.19338138550436" lon="5.1368798389830825"><ele>28.5</ele><time>2026-04-13T15:19:33Z</time></trkpt><trkpt lat="51.19314212421283" lon="5.136604893252062"><ele>29.0</ele><time>2026-04-13T15:19:34Z</time></trkpt><trkpt lat="51.192905693830774" lon="5.136333809728376"><ele>29.0</ele><time>2026-04-13T15:19:35Z</time></trkpt><trkpt lat="51.19267172824167" lon="5.136067163275148"><ele>29.0</ele><time>2026-04-13T15:19:36Z</time></trkpt><trkpt lat="51.19243736317194" lon="5.135805718586417"><ele>29.5</ele><time>2026-04-13T15:19:37Z</time></trkpt><trkpt lat="51.19219682886879" lon="5.1355475225803"><ele>30.0</ele><time>2026-04-13T15:19:38Z</time></trkpt><trkpt lat="51.19195047099684" lon="5.135293043097421"><ele>30.0</ele><time>2026-04-13T15:19:39Z</time></trkpt><trkpt lat="51.191699560114515" lon="5.135042711086917"><ele>30.0</ele><time>2026-04-13T15:19:40Z</time></trkpt><trkpt lat="51.19144575560385" lon="5.134797803263178"><ele>29.5</ele><time>2026-04-13T15:19:41Z</time></trkpt><trkpt lat="51.19118818975001" lon="5.134556425407378"><ele>29.0</ele><time>2026-04-13T15:19:42Z</time></trkpt><trkpt lat="51.190929132041724" lon="5.134314446474452"><ele>29.0</ele><time>2026-04-13T15:19:43Z</time></trkpt><trkpt lat="51.1906684663116" lon="5.134078346185798"><ele>29.0</ele><time>2026-04-13T15:19:44Z</time></trkpt><trkpt lat="51.19040092710085" lon="5.133858422939052"><ele>29.0</ele><time>2026-04-13T15:19:45Z</time></trkpt><trkpt lat="51.19013211956261" lon="5.133633866065019"><ele>29.0</ele><time>2026-04-13T15:19:46Z</time></trkpt><trkpt lat="51.18986339173863" lon="5.133404284285485"><ele>28.5</ele><time>2026-04-13T15:19:47Z</time></trkpt><trkpt lat="51.18959262281707" lon="5.133175176310396"><ele>28.0</ele><time>2026-04-13T15:19:48Z</time></trkpt><trkpt lat="51.18932086246626" lon="5.1329443198050315"><ele>28.0</ele><time>2026-04-13T15:19:49Z</time></trkpt><trkpt lat="51.18904794072216" lon="5.132712844879788"><ele>28.0</ele><time>2026-04-13T15:19:50Z</time></trkpt><trkpt lat="51.18877297255513" lon="5.132479946639093"><ele>27.0</ele><time>2026-04-13T15:19:51Z</time></trkpt><trkpt lat="51.18849434314098" lon="5.132247688034118"><ele>26.0</ele><time>2026-04-13T15:19:52Z</time></trkpt><trkpt lat="51.18821484229514" lon="5.1320108144986705"><ele>25.5</ele><time>2026-04-13T15:19:53Z</time></trkpt><trkpt lat="51.18793352713398" lon="5.1317715626728315"><ele>25.0</ele><time>2026-04-13T15:19:54Z</time></trkpt><trkpt lat="51.187650335451465" lon="5.13153197859595"><ele>25.0</ele><time>2026-04-13T15:19:55Z</time></trkpt><trkpt lat="51.18736555984373" lon="5.131292343703283"><ele>25.0</ele><time>2026-04-13T15:19:56Z</time></trkpt><trkpt lat="51.187080654299486" lon="5.131048560363101"><ele>25.5</ele><time>2026-04-13T15:19:57Z</time></trkpt><trkpt lat="51.18679807246578" lon="5.130805159283832"><ele>26.0</ele><time>2026-04-13T15:19:58Z</time></trkpt><trkpt lat="51.186518324867194" lon="5.130568570883864"><ele>24.5</ele><time>2026-04-13T15:19:59Z</time></trkpt><trkpt lat="51.18624058674656" lon="5.130335510600564"><ele>23.0</ele><time>2026-04-13T15:20:00Z</time></trkpt><trkpt lat="51.18596507668309" lon="5.130103402945312"><ele>24.0</ele><time>2026-04-13T15:20:01Z</time></trkpt><trkpt lat="51.1856899612474" lon="5.12987092038233"><ele>25.0</ele><time>2026-04-13T15:20:02Z</time></trkpt><trkpt lat="51.18541680640647" lon="5.129636279612698"><ele>25.0</ele><time>2026-04-13T15:20:03Z</time></trkpt><trkpt lat="51.185144213702465" lon="5.129402379744943"><ele>25.0</ele><time>2026-04-13T15:20:04Z</time></trkpt><trkpt lat="51.18487082095014" lon="5.1291697706277635"><ele>26.5</ele><time>2026-04-13T15:20:05Z</time></trkpt><trkpt lat="51.18459841735043" lon="5.128936557884691"><ele>28.0</ele><time>2026-04-13T15:20:06Z</time></trkpt><trkpt lat="51.18432665698461" lon="5.128704599508762"><ele>28.0</ele><time>2026-04-13T15:20:07Z</time></trkpt><trkpt lat="51.18405594650801" lon="5.128471334665863"><ele>28.0</ele><time>2026-04-13T15:20:08Z</time></trkpt><trkpt lat="51.183784648708816" lon="5.1282408201496965"><ele>27.0</ele><time>2026-04-13T15:20:09Z</time></trkpt><trkpt lat="51.18351337154038" lon="5.128012747885148"><ele>26.0</ele><time>2026-04-13T15:20:10Z</time></trkpt><trkpt lat="51.18324472323387" lon="5.1277880411157275"><ele>25.5</ele><time>2026-04-13T15:20:11Z</time></trkpt><trkpt lat="51.1829802972621" lon="5.127563554903679"><ele>25.0</ele><time>2026-04-13T15:20:12Z</time></trkpt><trkpt lat="51.18271831294159" lon="5.127341902625214"><ele>25.0</ele><time>2026-04-13T15:20:13Z</time></trkpt><trkpt lat="51.18246228510369" lon="5.127123451485563"><ele>25.0</ele><time>2026-04-13T15:20:14Z</time></trkpt><trkpt lat="51.182215276292084" lon="5.126912458125439"><ele>25.0</ele><time>2026-04-13T15:20:15Z</time></trkpt><trkpt lat="51.18197633662475" lon="5.126708880810626"><ele>25.0</ele><time>2026-04-13T15:20:16Z</time></trkpt><trkpt lat="51.181743423031" lon="5.126512745362609"><ele>25.0</ele><time>2026-04-13T15:20:17Z</time></trkpt><trkpt lat="51.18151613605845" lon="5.126323395099257"><ele>25.0</ele><time>2026-04-13T15:20:18Z</time></trkpt><trkpt lat="51.18129892282058" lon="5.1261439513544635"><ele>24.666666666666668</ele><time>2026-04-13T15:20:19Z</time></trkpt><trkpt lat="51.18109488482835" lon="5.125973993482051"><ele>24.333333333333336</ele><time>2026-04-13T15:20:20Z</time></trkpt><trkpt lat="51.18090168164697" lon="5.125811560733712"><ele>24.0</ele><time>2026-04-13T15:20:21Z</time></trkpt><trkpt lat="51.18071810820847" lon="5.12565626338351"><ele>24.333333333333336</ele><time>2026-04-13T15:20:22Z</time></trkpt><trkpt lat="51.18054330866394" lon="5.125506184902871"><ele>24.666666666666668</ele><time>2026-04-13T15:20:23Z</time></trkpt><trkpt lat="51.180379118565014" lon="5.125362035746798"><ele>25.0</ele><time>2026-04-13T15:20:24Z</time></trkpt><trkpt lat="51.18023767957641" lon="5.125237811857271"><ele>25.0</ele><time>2026-04-13T15:20:25Z</time></trkpt><trkpt lat="51.180117421755135" lon="5.125122973285442"><ele>25.0</ele><time>2026-04-13T15:20:26Z</time></trkpt><trkpt lat="51.18002929667615" lon="5.125027409559684"><ele>25.0</ele><time>2026-04-13T15:20:27Z</time></trkpt><trkpt lat="51.179966179416056" lon="5.124956892502354"><ele>25.0</ele><time>2026-04-13T15:20:28Z</time></trkpt><trkpt lat="51.179907424386236" lon="5.124890257823146"><ele>25.0</ele><time>2026-04-13T15:20:30Z</time></trkpt><trkpt lat="51.17983700012047" lon="5.1248278012377115"><ele>25.0</ele><time>2026-04-13T15:21:45Z</time></trkpt><trkpt lat="51.17975949286593" lon="5.1247388934904645"><ele>25.0</ele><time>2026-04-13T15:21:46Z</time></trkpt><trkpt lat="51.179650195579086" lon="5.124599547633629"><ele>25.0</ele><time>2026-04-13T15:21:47Z</time></trkpt><trkpt lat="51.1795323335721" lon="5.124443008546859"><ele>25.0</ele><time>2026-04-13T15:21:48Z</time></trkpt><trkpt lat="51.179400547663754" lon="5.124262775045929"><ele>25.0</ele><time>2026-04-13T15:21:49Z</time></trkpt><trkpt lat="51.1792519894687" lon="5.1240527716793425"><ele>25.0</ele><time>2026-04-13T15:21:50Z</time></trkpt><trkpt lat="51.17910317227775" lon="5.123832849344145"><ele>25.0</ele><time>2026-04-13T15:21:51Z</time></trkpt><trkpt lat="51.17894654799101" lon="5.123578625410916"><ele>25.0</ele><time>2026-04-13T15:21:52Z</time></trkpt><trkpt lat="51.178782893954114" lon="5.123289449067306"><ele>25.0</ele><time>2026-04-13T15:21:53Z</time></trkpt><trkpt lat="51.178618875455214" lon="5.122980637212966"><ele>24.5</ele><time>2026-04-13T15:21:54Z</time></trkpt><trkpt lat="51.178467190516706" lon="5.122675052803517"><ele>24.0</ele><time>2026-04-13T15:21:55Z</time></trkpt><trkpt lat="51.17831698361954" lon="5.1223542417851915"><ele>23.5</ele><time>2026-04-13T15:21:56Z</time></trkpt><trkpt lat="51.178170023837396" lon="5.122013191668145"><ele>23.0</ele><time>2026-04-13T15:21:57Z</time></trkpt><trkpt lat="51.17802970488354" lon="5.121644198021944"><ele>22.5</ele><time>2026-04-13T15:21:58Z</time></trkpt><trkpt lat="51.17789625930884" lon="5.12126704232843"><ele>22.0</ele><time>2026-04-13T15:21:59Z</time></trkpt><trkpt lat="51.177770129163044" lon="5.120879535964222"><ele>22.5</ele><time>2026-04-13T15:22:00Z</time></trkpt><trkpt lat="51.177658988433166" lon="5.120467151778262"><ele>23.0</ele><time>2026-04-13T15:22:01Z</time></trkpt><trkpt lat="51.17755050378766" lon="5.120038717044718"><ele>23.5</ele><time>2026-04-13T15:22:02Z</time></trkpt><trkpt lat="51.17744753135945" lon="5.119593945167962"><ele>24.0</ele><time>2026-04-13T15:22:03Z</time></trkpt><trkpt lat="51.177344361420644" lon="5.119137870062638"><ele>23.5</ele><time>2026-04-13T15:22:04Z</time></trkpt><trkpt lat="51.17724228968735" lon="5.118690635280399"><ele>23.0</ele><time>2026-04-13T15:22:05Z</time></trkpt><trkpt lat="51.17713174882862" lon="5.1182216321312675"><ele>23.0</ele><time>2026-04-13T15:22:06Z</time></trkpt><trkpt lat="51.17701592624845" lon="5.117735137688414"><ele>23.0</ele><time>2026-04-13T15:22:07Z</time></trkpt><trkpt lat="51.17690334391703" lon="5.1172595138691825"><ele>23.5</ele><time>2026-04-13T15:22:08Z</time></trkpt><trkpt lat="51.17678969789277" lon="5.116785644806561"><ele>24.0</ele><time>2026-04-13T15:22:09Z</time></trkpt><trkpt lat="51.176676463325684" lon="5.11631607219985"><ele>24.5</ele><time>2026-04-13T15:22:10Z</time></trkpt><trkpt lat="51.17656877655735" lon="5.115862334273843"><ele>25.0</ele><time>2026-04-13T15:22:11Z</time></trkpt><trkpt lat="51.176464664512565" lon="5.115419226155066"><ele>24.5</ele><time>2026-04-13T15:22:12Z</time></trkpt><trkpt lat="51.1763628928589" lon="5.114987639104236"><ele>24.0</ele><time>2026-04-13T15:22:13Z</time></trkpt><trkpt lat="51.17626276854068" lon="5.11456758087354"><ele>24.0</ele><time>2026-04-13T15:22:14Z</time></trkpt><trkpt lat="51.17616395101867" lon="5.114157535362183"><ele>24.0</ele><time>2026-04-13T15:22:15Z</time></trkpt><trkpt lat="51.17607098093991" lon="5.113758819021477"><ele>24.5</ele><time>2026-04-13T15:22:16Z</time></trkpt><trkpt lat="51.175977241357835" lon="5.113365667251694"><ele>25.0</ele><time>2026-04-13T15:22:17Z</time></trkpt><trkpt lat="51.17588645776617" lon="5.112982984235125"><ele>25.0</ele><time>2026-04-13T15:22:18Z</time></trkpt><trkpt lat="51.17579880419216" lon="5.112613605831727"><ele>25.0</ele><time>2026-04-13T15:22:19Z</time></trkpt><trkpt lat="51.17571514470908" lon="5.112262619246268"><ele>25.333333333333336</ele><time>2026-04-13T15:22:20Z</time></trkpt><trkpt lat="51.17563678385357" lon="5.1119304106381325"><ele>25.666666666666664</ele><time>2026-04-13T15:22:21Z</time></trkpt><trkpt lat="51.175560882127286" lon="5.111612447473682"><ele>26.0</ele><time>2026-04-13T15:22:22Z</time></trkpt><trkpt lat="51.17548892337853" lon="5.111308022169817"><ele>26.0</ele><time>2026-04-13T15:22:23Z</time></trkpt><trkpt lat="51.175420671990935" lon="5.111018318625267"><ele>26.0</ele><time>2026-04-13T15:22:24Z</time></trkpt><trkpt lat="51.17535593901383" lon="5.110738901612799"><ele>26.0</ele><time>2026-04-13T15:22:25Z</time></trkpt><trkpt lat="51.17529317452811" lon="5.110473402604841"><ele>26.0</ele><time>2026-04-13T15:22:26Z</time></trkpt><trkpt lat="51.175234891117434" lon="5.1102269192933445"><ele>26.0</ele><time>2026-04-13T15:22:27Z</time></trkpt><trkpt lat="51.175179913568385" lon="5.109994107453544"><ele>26.0</ele><time>2026-04-13T15:22:28Z</time></trkpt><trkpt lat="51.175127841818814" lon="5.109776842878775"><ele>25.5</ele><time>2026-04-13T15:22:29Z</time></trkpt><trkpt lat="51.17507791900834" lon="5.109569208867165"><ele>25.0</ele><time>2026-04-13T15:22:30Z</time></trkpt><trkpt lat="51.175033316047966" lon="5.109382170539781"><ele>24.5</ele><time>2026-04-13T15:22:31Z</time></trkpt><trkpt lat="51.17499461372244" lon="5.109220894134797"><ele>24.0</ele><time>2026-04-13T15:22:32Z</time></trkpt><trkpt lat="51.17496036029937" lon="5.109081697341779"><ele>24.0</ele><time>2026-04-13T15:22:33Z</time></trkpt><trkpt lat="51.17493612999184" lon="5.108980968216821"><ele>24.0</ele><time>2026-04-13T15:22:34Z</time></trkpt><trkpt lat="51.174909639335354" lon="5.108871001591784"><ele>24.0</ele><time>2026-04-13T15:22:36Z</time></trkpt><trkpt lat="51.1748841436508" lon="5.1087286767497195"><ele>24.0</ele><time>2026-04-13T15:22:39Z</time></trkpt><trkpt lat="51.17486655028307" lon="5.108625551437893"><ele>24.0</ele><time>2026-04-13T15:22:41Z</time></trkpt><trkpt lat="51.17483924091345" lon="5.108529058583815"><ele>24.0</ele><time>2026-04-13T15:23:37Z</time></trkpt><trkpt lat="51.17478382491174" lon="5.108288611061851"><ele>23.666666666666668</ele><time>2026-04-13T15:23:39Z</time></trkpt><trkpt lat="51.17473546920128" lon="5.108077688550998"><ele>23.333333333333336</ele><time>2026-04-13T15:23:40Z</time></trkpt><trkpt lat="51.17468226124209" lon="5.107845829437639"><ele>23.0</ele><time>2026-04-13T15:23:41Z</time></trkpt><trkpt lat="51.17462029464683" lon="5.107573598943063"><ele>23.666666666666668</ele><time>2026-04-13T15:23:42Z</time></trkpt><trkpt lat="51.17455306844269" lon="5.107282762005082"><ele>24.333333333333336</ele><time>2026-04-13T15:23:43Z</time></trkpt><trkpt lat="51.174478059069926" lon="5.106967429934114"><ele>25.0</ele><time>2026-04-13T15:23:44Z</time></trkpt><trkpt lat="51.17438943076688" lon="5.106598647200318"><ele>24.5</ele><time>2026-04-13T15:23:45Z</time></trkpt><trkpt lat="51.17429876056052" lon="5.106217123372917"><ele>24.0</ele><time>2026-04-13T15:23:46Z</time></trkpt><trkpt lat="51.174208988634106" lon="5.105836886003279"><ele>24.0</ele><time>2026-04-13T15:23:47Z</time></trkpt><trkpt lat="51.17411002143118" lon="5.105421475067182"><ele>24.0</ele><time>2026-04-13T15:23:48Z</time></trkpt><trkpt lat="51.17401298230003" lon="5.105007237597869"><ele>24.0</ele><time>2026-04-13T15:23:49Z</time></trkpt><trkpt lat="51.17391568373433" lon="5.104597901452957"><ele>24.0</ele><time>2026-04-13T15:23:50Z</time></trkpt><trkpt lat="51.17381652505523" lon="5.104177326761695"><ele>24.0</ele><time>2026-04-13T15:23:51Z</time></trkpt><trkpt lat="51.173716676536706" lon="5.103753333365214"><ele>24.0</ele><time>2026-04-13T15:23:52Z</time></trkpt><trkpt lat="51.17361437329407" lon="5.103324197441378"><ele>24.5</ele><time>2026-04-13T15:23:53Z</time></trkpt><trkpt lat="51.17351007498916" lon="5.102887344703423"><ele>25.0</ele><time>2026-04-13T15:23:54Z</time></trkpt><trkpt lat="51.17340844503977" lon="5.102462599729729"><ele>25.0</ele><time>2026-04-13T15:23:55Z</time></trkpt><trkpt lat="51.17330690370009" lon="5.102042966572845"><ele>25.0</ele><time>2026-04-13T15:23:56Z</time></trkpt><trkpt lat="51.17320597477013" lon="5.101623146206089"><ele>25.5</ele><time>2026-04-13T15:23:57Z</time></trkpt><trkpt lat="51.17310518497005" lon="5.1012023978589145"><ele>26.0</ele><time>2026-04-13T15:23:58Z</time></trkpt><trkpt lat="51.173004917465576" lon="5.100781727142721"><ele>24.5</ele><time>2026-04-13T15:23:59Z</time></trkpt><trkpt lat="51.17290351655634" lon="5.10035993489847"><ele>23.0</ele><time>2026-04-13T15:24:00Z</time></trkpt><trkpt lat="51.172802718035804" lon="5.099939242996379"><ele>22.5</ele><time>2026-04-13T15:24:01Z</time></trkpt><trkpt lat="51.172701047261185" lon="5.099515036934391"><ele>22.0</ele><time>2026-04-13T15:24:02Z</time></trkpt><trkpt lat="51.17260006530141" lon="5.099090794890153"><ele>22.0</ele><time>2026-04-13T15:24:03Z</time></trkpt><trkpt lat="51.1724983404223" lon="5.098664888179132"><ele>22.0</ele><time>2026-04-13T15:24:04Z</time></trkpt><trkpt lat="51.172397443111755" lon="5.098239414361462"><ele>26.0</ele><time>2026-04-13T15:24:05Z</time></trkpt><trkpt lat="51.17229665842822" lon="5.097813532462085"><ele>30.0</ele><time>2026-04-13T15:24:06Z</time></trkpt><trkpt lat="51.17219507961113" lon="5.097386395164415"><ele>30.0</ele><time>2026-04-13T15:24:07Z</time></trkpt><trkpt lat="51.1720953085394" lon="5.096957770148435"><ele>30.0</ele><time>2026-04-13T15:24:08Z</time></trkpt><trkpt lat="51.17200758750955" lon="5.096522286881403"><ele>28.5</ele><time>2026-04-13T15:24:09Z</time></trkpt><trkpt lat="51.17193187880984" lon="5.096081398674758"><ele>27.0</ele><time>2026-04-13T15:24:10Z</time></trkpt><trkpt lat="51.17186253677186" lon="5.095638110515971"><ele>25.5</ele><time>2026-04-13T15:24:11Z</time></trkpt><trkpt lat="51.1717993023051" lon="5.095192562291476"><ele>24.0</ele><time>2026-04-13T15:24:12Z</time></trkpt><trkpt lat="51.17174195600696" lon="5.094744335537776"><ele>24.0</ele><time>2026-04-13T15:24:13Z</time></trkpt><trkpt lat="51.17168727197428" lon="5.0942953922074"><ele>24.0</ele><time>2026-04-13T15:24:14Z</time></trkpt><trkpt lat="51.17162959892614" lon="5.0938482421623075"><ele>24.0</ele><time>2026-04-13T15:24:15Z</time></trkpt><trkpt lat="51.17156987040189" lon="5.093402599026303"><ele>24.0</ele><time>2026-04-13T15:24:16Z</time></trkpt><trkpt lat="51.171511008927546" lon="5.092958426100576"><ele>25.0</ele><time>2026-04-13T15:24:17Z</time></trkpt><trkpt lat="51.17145573098611" lon="5.092525612310476"><ele>26.0</ele><time>2026-04-13T15:24:18Z</time></trkpt><trkpt lat="51.17140149546549" lon="5.092101818910733"><ele>28.5</ele><time>2026-04-13T15:24:19Z</time></trkpt><trkpt lat="51.171348102446274" lon="5.091686774794257"><ele>31.0</ele><time>2026-04-13T15:24:20Z</time></trkpt><trkpt lat="51.17129548663113" lon="5.0912776519419625"><ele>31.5</ele><time>2026-04-13T15:24:21Z</time></trkpt><trkpt lat="51.17124205783071" lon="5.090868895107549"><ele>32.0</ele><time>2026-04-13T15:24:22Z</time></trkpt><trkpt lat="51.1711873458468" lon="5.090443918083139"><ele>30.5</ele><time>2026-04-13T15:24:23Z</time></trkpt><trkpt lat="51.17112992626499" lon="5.09000267493372"><ele>29.0</ele><time>2026-04-13T15:24:24Z</time></trkpt><trkpt lat="51.171069499383" lon="5.089550773530917"><ele>26.5</ele><time>2026-04-13T15:24:25Z</time></trkpt><trkpt lat="51.1710075377876" lon="5.089088814897587"><ele>24.0</ele><time>2026-04-13T15:24:26Z</time></trkpt><trkpt lat="51.170946063641324" lon="5.088621638682699"><ele>25.0</ele><time>2026-04-13T15:24:27Z</time></trkpt><trkpt lat="51.170886236408315" lon="5.0881552984527465"><ele>26.0</ele><time>2026-04-13T15:24:28Z</time></trkpt><trkpt lat="51.170825119885244" lon="5.087689376964625"><ele>25.5</ele><time>2026-04-13T15:24:29Z</time></trkpt><trkpt lat="51.17076282368013" lon="5.087224003585336"><ele>25.0</ele><time>2026-04-13T15:24:30Z</time></trkpt><trkpt lat="51.170695877489614" lon="5.086759433590946"><ele>23.0</ele><time>2026-04-13T15:24:31Z</time></trkpt><trkpt lat="51.17063416028046" lon="5.086291463114298"><ele>21.0</ele><time>2026-04-13T15:24:32Z</time></trkpt><trkpt lat="51.17057667967664" lon="5.085821721715688"><ele>20.5</ele><time>2026-04-13T15:24:33Z</time></trkpt><trkpt lat="51.17051830353495" lon="5.085350926715563"><ele>20.0</ele><time>2026-04-13T15:24:34Z</time></trkpt><trkpt lat="51.17046734712166" lon="5.0848770507455265"><ele>20.0</ele><time>2026-04-13T15:24:35Z</time></trkpt><trkpt lat="51.17042832568191" lon="5.084400726573825"><ele>20.0</ele><time>2026-04-13T15:24:36Z</time></trkpt><trkpt lat="51.1703943628882" lon="5.083923586606514"><ele>20.5</ele><time>2026-04-13T15:24:37Z</time></trkpt><trkpt lat="51.17036417689141" lon="5.0834458418931305"><ele>21.0</ele><time>2026-04-13T15:24:38Z</time></trkpt><trkpt lat="51.17034227091852" lon="5.0829713078486165"><ele>21.0</ele><time>2026-04-13T15:24:39Z</time></trkpt><trkpt lat="51.17032650602193" lon="5.082496148685405"><ele>21.0</ele><time>2026-04-13T15:24:40Z</time></trkpt><trkpt lat="51.17031817864874" lon="5.082019859676346"><ele>21.0</ele><time>2026-04-13T15:24:41Z</time></trkpt><trkpt lat="51.17031784851849" lon="5.081543504029311"><ele>21.0</ele><time>2026-04-13T15:24:42Z</time></trkpt><trkpt lat="51.170324605589535" lon="5.081066504187764"><ele>21.0</ele><time>2026-04-13T15:24:43Z</time></trkpt><trkpt lat="51.170332494715076" lon="5.0805896047298065"><ele>21.0</ele><time>2026-04-13T15:24:44Z</time></trkpt><trkpt lat="51.17034163627066" lon="5.080112225947826"><ele>21.0</ele><time>2026-04-13T15:24:45Z</time></trkpt><trkpt lat="51.17036164299481" lon="5.079634978451321"><ele>21.0</ele><time>2026-04-13T15:24:46Z</time></trkpt><trkpt lat="51.170386074768714" lon="5.079158835500103"><ele>21.0</ele><time>2026-04-13T15:24:47Z</time></trkpt><trkpt lat="51.17040613428694" lon="5.078685409293304"><ele>21.0</ele><time>2026-04-13T15:24:48Z</time></trkpt><trkpt lat="51.170425796785786" lon="5.078220204967309"><ele>21.0</ele><time>2026-04-13T15:24:49Z</time></trkpt><trkpt lat="51.17044488005587" lon="5.077756557271132"><ele>21.0</ele><time>2026-04-13T15:24:50Z</time></trkpt><trkpt lat="51.17046422394557" lon="5.0772943249731135"><ele>20.5</ele><time>2026-04-13T15:24:51Z</time></trkpt><trkpt lat="51.170483729453096" lon="5.076832248165214"><ele>20.0</ele><time>2026-04-13T15:24:52Z</time></trkpt><trkpt lat="51.1705031471675" lon="5.076369116857877"><ele>20.0</ele><time>2026-04-13T15:24:53Z</time></trkpt><trkpt lat="51.17052362588981" lon="5.075905769259727"><ele>20.0</ele><time>2026-04-13T15:24:54Z</time></trkpt><trkpt lat="51.17054417907011" lon="5.075439384007684"><ele>20.5</ele><time>2026-04-13T15:24:55Z</time></trkpt><trkpt lat="51.17056503857641" lon="5.074971972917772"><ele>21.0</ele><time>2026-04-13T15:24:56Z</time></trkpt><trkpt lat="51.17058403793099" lon="5.0745023490408725"><ele>21.0</ele><time>2026-04-13T15:24:57Z</time></trkpt><trkpt lat="51.17060159802386" lon="5.074032576161516"><ele>21.0</ele><time>2026-04-13T15:24:58Z</time></trkpt><trkpt lat="51.17062098410227" lon="5.073561517955729"><ele>20.5</ele><time>2026-04-13T15:24:59Z</time></trkpt><trkpt lat="51.1706414081968" lon="5.073089799981259"><ele>20.0</ele><time>2026-04-13T15:25:00Z</time></trkpt><trkpt lat="51.17066233775221" lon="5.0726165139156985"><ele>20.5</ele><time>2026-04-13T15:25:01Z</time></trkpt><trkpt lat="51.17068315971435" lon="5.072142477378883"><ele>21.0</ele><time>2026-04-13T15:25:02Z</time></trkpt><trkpt lat="51.17070340395177" lon="5.0716675801230835"><ele>21.0</ele><time>2026-04-13T15:25:03Z</time></trkpt><trkpt lat="51.17072459123032" lon="5.071191379623333"><ele>21.0</ele><time>2026-04-13T15:25:04Z</time></trkpt><trkpt lat="51.17074513598299" lon="5.070715390469538"><ele>21.0</ele><time>2026-04-13T15:25:05Z</time></trkpt><trkpt lat="51.17076548419516" lon="5.070239863660503"><ele>21.0</ele><time>2026-04-13T15:25:06Z</time></trkpt><trkpt lat="51.17078550120342" lon="5.069768015269255"><ele>21.0</ele><time>2026-04-13T15:25:07Z</time></trkpt><trkpt lat="51.17080578903529" lon="5.0692998083069085"><ele>21.0</ele><time>2026-04-13T15:25:08Z</time></trkpt><trkpt lat="51.17082588295924" lon="5.068834813901434"><ele>21.0</ele><time>2026-04-13T15:25:09Z</time></trkpt><trkpt lat="51.17084607198807" lon="5.068372430505421"><ele>21.0</ele><time>2026-04-13T15:25:10Z</time></trkpt><trkpt lat="51.170865753261616" lon="5.06791417239559"><ele>21.5</ele><time>2026-04-13T15:25:11Z</time></trkpt><trkpt lat="51.17088412144598" lon="5.067459413102059"><ele>22.0</ele><time>2026-04-13T15:25:12Z</time></trkpt><trkpt lat="51.170902474538906" lon="5.067014434387025"><ele>21.5</ele><time>2026-04-13T15:25:13Z</time></trkpt><trkpt lat="51.17091978016891" lon="5.06660127751765"><ele>21.0</ele><time>2026-04-13T15:25:14Z</time></trkpt><trkpt lat="51.17093706879927" lon="5.066203087756052"><ele>21.0</ele><time>2026-04-13T15:25:15Z</time></trkpt><trkpt lat="51.1709529707574" lon="5.065825899520415"><ele>21.0</ele><time>2026-04-13T15:25:16Z</time></trkpt><trkpt lat="51.17096797545279" lon="5.065463474703203"><ele>21.0</ele><time>2026-04-13T15:25:17Z</time></trkpt><trkpt lat="51.17098245978131" lon="5.065120592450813"><ele>21.0</ele><time>2026-04-13T15:25:18Z</time></trkpt><trkpt lat="51.170996380638556" lon="5.064793415388617"><ele>21.0</ele><time>2026-04-13T15:25:19Z</time></trkpt><trkpt lat="51.171009622559666" lon="5.064486107446649"><ele>21.0</ele><time>2026-04-13T15:25:20Z</time></trkpt><trkpt lat="51.17102280193007" lon="5.064201782883765"><ele>21.0</ele><time>2026-04-13T15:25:21Z</time></trkpt><trkpt lat="51.1710334079971" lon="5.063963217826125"><ele>21.0</ele><time>2026-04-13T15:25:22Z</time></trkpt><trkpt lat="51.171041739942325" lon="5.063771304887182"><ele>21.0</ele><time>2026-04-13T15:25:23Z</time></trkpt><trkpt lat="51.17104726970821" lon="5.0636184593533216"><ele>21.0</ele><time>2026-04-13T15:25:24Z</time></trkpt><trkpt lat="51.171047311898874" lon="5.063503067138612"><ele>21.0</ele><time>2026-04-13T15:25:25Z</time></trkpt><trkpt lat="51.17104979993102" lon="5.063377375416685"><ele>21.0</ele><time>2026-04-13T15:25:27Z</time></trkpt><trkpt lat="51.17105270049841" lon="5.063274308798046"><ele>21.0</ele><time>2026-04-13T15:25:37Z</time></trkpt><trkpt lat="51.171057750506364" lon="5.063074004046698"><ele>21.0</ele><time>2026-04-13T15:25:39Z</time></trkpt><trkpt lat="51.17106600675247" lon="5.062905586709627"><ele>21.0</ele><time>2026-04-13T15:25:40Z</time></trkpt><trkpt lat="51.171066368756854" lon="5.062693074726262"><ele>21.333333333333332</ele><time>2026-04-13T15:25:41Z</time></trkpt><trkpt lat="51.17106261391461" lon="5.062486919497886"><ele>21.666666666666664</ele><time>2026-04-13T15:25:42Z</time></trkpt><trkpt lat="51.17105281577434" lon="5.062242673219665"><ele>22.0</ele><time>2026-04-13T15:25:43Z</time></trkpt><trkpt lat="51.1710377790367" lon="5.061969373755035"><ele>22.0</ele><time>2026-04-13T15:25:44Z</time></trkpt><trkpt lat="51.171020073944554" lon="5.06169419209389"><ele>22.0</ele><time>2026-04-13T15:25:45Z</time></trkpt><trkpt lat="51.17099702415064" lon="5.061403510732832"><ele>22.0</ele><time>2026-04-13T15:25:46Z</time></trkpt><trkpt lat="51.170960361158315" lon="5.061094663972458"><ele>22.333333333333332</ele><time>2026-04-13T15:25:47Z</time></trkpt><trkpt lat="51.17090634878464" lon="5.060762568712998"><ele>22.666666666666668</ele><time>2026-04-13T15:25:48Z</time></trkpt><trkpt lat="51.17084579019615" lon="5.06044238672509"><ele>23.0</ele><time>2026-04-13T15:25:49Z</time></trkpt><trkpt lat="51.17077503157205" lon="5.060116007670823"><ele>23.0</ele><time>2026-04-13T15:25:50Z</time></trkpt><trkpt lat="51.17069609857566" lon="5.059781222487996"><ele>23.0</ele><time>2026-04-13T15:25:51Z</time></trkpt><trkpt lat="51.17061230651305" lon="5.059443373031808"><ele>22.0</ele><time>2026-04-13T15:25:52Z</time></trkpt><trkpt lat="51.1705104480483" lon="5.0591036157294145"><ele>21.0</ele><time>2026-04-13T15:25:53Z</time></trkpt><trkpt lat="51.17041457841228" lon="5.058749962725974"><ele>21.0</ele><time>2026-04-13T15:25:54Z</time></trkpt><trkpt lat="51.17033221827719" lon="5.058385285459157"><ele>21.0</ele><time>2026-04-13T15:25:55Z</time></trkpt><trkpt lat="51.170242416254915" lon="5.058020877793778"><ele>21.0</ele><time>2026-04-13T15:25:56Z</time></trkpt><trkpt lat="51.17015382795908" lon="5.057663124838483"><ele>21.0</ele><time>2026-04-13T15:25:57Z</time></trkpt><trkpt lat="51.170069149104314" lon="5.057314734441075"><ele>21.0</ele><time>2026-04-13T15:25:58Z</time></trkpt><trkpt lat="51.16998295889272" lon="5.05696117614314"><ele>21.0</ele><time>2026-04-13T15:25:59Z</time></trkpt><trkpt lat="51.169893921623334" lon="5.056599143179422"><ele>20.5</ele><time>2026-04-13T15:26:00Z</time></trkpt><trkpt lat="51.16980433760604" lon="5.056232401413128"><ele>20.0</ele><time>2026-04-13T15:26:01Z</time></trkpt><trkpt lat="51.1697149573419" lon="5.05586191723402"><ele>21.5</ele><time>2026-04-13T15:26:02Z</time></trkpt><trkpt lat="51.16962683834597" lon="5.055496873346165"><ele>23.0</ele><time>2026-04-13T15:26:03Z</time></trkpt><trkpt lat="51.16954065171191" lon="5.055141240744156"><ele>23.5</ele><time>2026-04-13T15:26:04Z</time></trkpt><trkpt lat="51.16945580166547" lon="5.054790639523476"><ele>24.0</ele><time>2026-04-13T15:26:05Z</time></trkpt><trkpt lat="51.169371496496204" lon="5.054443647237709"><ele>22.5</ele><time>2026-04-13T15:26:06Z</time></trkpt><trkpt lat="51.169286687280504" lon="5.054098716707321"><ele>21.0</ele><time>2026-04-13T15:26:07Z</time></trkpt><trkpt lat="51.16920253238255" lon="5.053755420570819"><ele>21.0</ele><time>2026-04-13T15:26:08Z</time></trkpt><trkpt lat="51.16911831507678" lon="5.053414862590129"><ele>21.0</ele><time>2026-04-13T15:26:09Z</time></trkpt><trkpt lat="51.16903584608943" lon="5.053073390163396"><ele>20.5</ele><time>2026-04-13T15:26:10Z</time></trkpt><trkpt lat="51.16895481944914" lon="5.052734254658089"><ele>20.0</ele><time>2026-04-13T15:26:11Z</time></trkpt><trkpt lat="51.16887344646131" lon="5.052396426746732"><ele>20.0</ele><time>2026-04-13T15:26:12Z</time></trkpt><trkpt lat="51.16879183459484" lon="5.052061047989675"><ele>20.0</ele><time>2026-04-13T15:26:13Z</time></trkpt><trkpt lat="51.168710117754216" lon="5.051726896455535"><ele>20.333333333333336</ele><time>2026-04-13T15:26:14Z</time></trkpt><trkpt lat="51.16862922166097" lon="5.051393254087525"><ele>20.666666666666668</ele><time>2026-04-13T15:26:15Z</time></trkpt><trkpt lat="51.16854957660151" lon="5.0510597021434265"><ele>21.0</ele><time>2026-04-13T15:26:16Z</time></trkpt><trkpt lat="51.168469742441246" lon="5.050728438955702"><ele>21.0</ele><time>2026-04-13T15:26:17Z</time></trkpt><trkpt lat="51.16838853304006" lon="5.050398517330774"><ele>21.0</ele><time>2026-04-13T15:26:18Z</time></trkpt><trkpt lat="51.16830787806911" lon="5.050068001040495"><ele>21.0</ele><time>2026-04-13T15:26:19Z</time></trkpt><trkpt lat="51.168229094332354" lon="5.049738926335337"><ele>21.0</ele><time>2026-04-13T15:26:20Z</time></trkpt><trkpt lat="51.168151369453135" lon="5.049418591951134"><ele>21.0</ele><time>2026-04-13T15:26:21Z</time></trkpt><trkpt lat="51.16807534898409" lon="5.049110958666374"><ele>21.0</ele><time>2026-04-13T15:26:22Z</time></trkpt><trkpt lat="51.16800153364698" lon="5.0488100847555755"><ele>20.666666666666668</ele><time>2026-04-13T15:26:23Z</time></trkpt><trkpt lat="51.16792961131742" lon="5.048515151903532"><ele>20.333333333333336</ele><time>2026-04-13T15:26:24Z</time></trkpt><trkpt lat="51.16785847606775" lon="5.048221824215575"><ele>20.0</ele><time>2026-04-13T15:26:25Z</time></trkpt><trkpt lat="51.16778612831461" lon="5.047924766646099"><ele>20.0</ele><time>2026-04-13T15:26:26Z</time></trkpt><trkpt lat="51.167713937409815" lon="5.047624436757393"><ele>20.0</ele><time>2026-04-13T15:26:27Z</time></trkpt><trkpt lat="51.167640319747086" lon="5.04732490934489"><ele>20.0</ele><time>2026-04-13T15:26:28Z</time></trkpt><trkpt lat="51.16756738621949" lon="5.047030374629581"><ele>20.0</ele><time>2026-04-13T15:26:29Z</time></trkpt><trkpt lat="51.16749700600346" lon="5.046743014514637"><ele>20.0</ele><time>2026-04-13T15:26:30Z</time></trkpt><trkpt lat="51.16742940251729" lon="5.04646313284169"><ele>20.0</ele><time>2026-04-13T15:26:31Z</time></trkpt><trkpt lat="51.16736326211056" lon="5.046190710891142"><ele>20.0</ele><time>2026-04-13T15:26:32Z</time></trkpt><trkpt lat="51.16729956891192" lon="5.045926693610383"><ele>20.0</ele><time>2026-04-13T15:26:33Z</time></trkpt><trkpt lat="51.16723598766625" lon="5.045669599231796"><ele>20.0</ele><time>2026-04-13T15:26:34Z</time></trkpt><trkpt lat="51.16717589490297" lon="5.0454185166310195"><ele>20.0</ele><time>2026-04-13T15:26:35Z</time></trkpt><trkpt lat="51.16711629254345" lon="5.0451731082195685"><ele>20.0</ele><time>2026-04-13T15:26:36Z</time></trkpt><trkpt lat="51.167056860524546" lon="5.044930246189627"><ele>20.0</ele><time>2026-04-13T15:26:37Z</time></trkpt><trkpt lat="51.166999536888014" lon="5.044697704918816"><ele>19.666666666666668</ele><time>2026-04-13T15:26:38Z</time></trkpt><trkpt lat="51.166945980179854" lon="5.044482324469203"><ele>19.333333333333332</ele><time>2026-04-13T15:26:39Z</time></trkpt><trkpt lat="51.16688791784268" lon="5.0442482101275266"><ele>19.0</ele><time>2026-04-13T15:26:40Z</time></trkpt><trkpt lat="51.16682860119537" lon="5.0440033423115285"><ele>19.666666666666664</ele><time>2026-04-13T15:26:41Z</time></trkpt><trkpt lat="51.166767458783745" lon="5.043753698022609"><ele>20.333333333333332</ele><time>2026-04-13T15:26:42Z</time></trkpt><trkpt lat="51.16670486622447" lon="5.043501035722746"><ele>21.0</ele><time>2026-04-13T15:26:43Z</time></trkpt><trkpt lat="51.16664472157488" lon="5.043253847026522"><ele>21.333333333333332</ele><time>2026-04-13T15:26:44Z</time></trkpt><trkpt lat="51.166586309746144" lon="5.043011306326307"><ele>21.666666666666664</ele><time>2026-04-13T15:26:45Z</time></trkpt><trkpt lat="51.166528178276444" lon="5.042774098385628"><ele>22.0</ele><time>2026-04-13T15:26:46Z</time></trkpt><trkpt lat="51.1664705439541" lon="5.042539572970337"><ele>22.0</ele><time>2026-04-13T15:26:47Z</time></trkpt><trkpt lat="51.16641390709402" lon="5.042306770119142"><ele>22.0</ele><time>2026-04-13T15:26:48Z</time></trkpt><trkpt lat="51.16635926551038" lon="5.04207488260714"><ele>22.0</ele><time>2026-04-13T15:26:49Z</time></trkpt><trkpt lat="51.16630466157259" lon="5.041844462217448"><ele>22.333333333333332</ele><time>2026-04-13T15:26:50Z</time></trkpt><trkpt lat="51.16624920079439" lon="5.041616353328198"><ele>22.666666666666668</ele><time>2026-04-13T15:26:51Z</time></trkpt><trkpt lat="51.16619341877554" lon="5.041388767865315"><ele>23.0</ele><time>2026-04-13T15:26:52Z</time></trkpt><trkpt lat="51.16613763246427" lon="5.041163235325332"><ele>23.0</ele><time>2026-04-13T15:26:53Z</time></trkpt><trkpt lat="51.16608190223527" lon="5.040938605945023"><ele>23.0</ele><time>2026-04-13T15:26:54Z</time></trkpt><trkpt lat="51.166027525477894" lon="5.040715094427704"><ele>23.0</ele><time>2026-04-13T15:26:55Z</time></trkpt><trkpt lat="51.165974387757416" lon="5.040490862903609"><ele>23.333333333333336</ele><time>2026-04-13T15:26:56Z</time></trkpt><trkpt lat="51.165918365863874" lon="5.040268192295081"><ele>23.666666666666668</ele><time>2026-04-13T15:26:57Z</time></trkpt><trkpt lat="51.16586159214948" lon="5.040046434488652"><ele>24.0</ele><time>2026-04-13T15:26:58Z</time></trkpt><trkpt lat="51.1658072113996" lon="5.039824163634253"><ele>24.0</ele><time>2026-04-13T15:26:59Z</time></trkpt><trkpt lat="51.165754487816834" lon="5.039602730207315"><ele>24.0</ele><time>2026-04-13T15:27:00Z</time></trkpt><trkpt lat="51.16570214081002" lon="5.039382434916906"><ele>24.0</ele><time>2026-04-13T15:27:01Z</time></trkpt><trkpt lat="51.16564941716277" lon="5.039162229591096"><ele>24.0</ele><time>2026-04-13T15:27:02Z</time></trkpt><trkpt lat="51.16559698753674" lon="5.038942396626544"><ele>23.0</ele><time>2026-04-13T15:27:03Z</time></trkpt><trkpt lat="51.16554324448788" lon="5.03872444283244"><ele>22.0</ele><time>2026-04-13T15:27:04Z</time></trkpt><trkpt lat="51.165489390029165" lon="5.038507456291291"><ele>21.0</ele><time>2026-04-13T15:27:05Z</time></trkpt><trkpt lat="51.165434965855134" lon="5.038291248038834"><ele>20.0</ele><time>2026-04-13T15:27:06Z</time></trkpt><trkpt lat="51.165381562914064" lon="5.038075278512774"><ele>20.0</ele><time>2026-04-13T15:27:07Z</time></trkpt><trkpt lat="51.165332019425286" lon="5.037858808277492"><ele>20.0</ele><time>2026-04-13T15:27:08Z</time></trkpt><trkpt lat="51.16527965506698" lon="5.037643950519189"><ele>20.0</ele><time>2026-04-13T15:27:09Z</time></trkpt><trkpt lat="51.1652278574781" lon="5.037430393544336"><ele>20.0</ele><time>2026-04-13T15:27:10Z</time></trkpt><trkpt lat="51.16517580059433" lon="5.037216870726082"><ele>20.0</ele><time>2026-04-13T15:27:11Z</time></trkpt><trkpt lat="51.16512530222321" lon="5.03700460512485"><ele>20.0</ele><time>2026-04-13T15:27:12Z</time></trkpt><trkpt lat="51.16507477778613" lon="5.036794135743406"><ele>20.0</ele><time>2026-04-13T15:27:13Z</time></trkpt><trkpt lat="51.165023394506356" lon="5.0365843407494175"><ele>20.0</ele><time>2026-04-13T15:27:14Z</time></trkpt><trkpt lat="51.16497214099542" lon="5.036381348372759"><ele>19.75</ele><time>2026-04-13T15:27:15Z</time></trkpt><trkpt lat="51.16492792357781" lon="5.036195684840732"><ele>19.5</ele><time>2026-04-13T15:27:16Z</time></trkpt><trkpt lat="51.16488856000499" lon="5.036020931520323"><ele>19.25</ele><time>2026-04-13T15:27:17Z</time></trkpt><trkpt lat="51.16484793787907" lon="5.035845487036678"><ele>19.0</ele><time>2026-04-13T15:27:18Z</time></trkpt><trkpt lat="51.164807207040674" lon="5.0356693790551015"><ele>19.0</ele><time>2026-04-13T15:27:19Z</time></trkpt><trkpt lat="51.16477040102975" lon="5.035505393092562"><ele>19.0</ele><time>2026-04-13T15:27:20Z</time></trkpt><trkpt lat="51.1647381676105" lon="5.0353608586590495"><ele>19.0</ele><time>2026-04-13T15:27:21Z</time></trkpt><trkpt lat="51.16471147643647" lon="5.035232442714979"><ele>19.0</ele><time>2026-04-13T15:27:22Z</time></trkpt><trkpt lat="51.164698878798106" lon="5.0351106568068795"><ele>19.0</ele><time>2026-04-13T15:27:23Z</time></trkpt><trkpt lat="51.16470094445573" lon="5.034977032013842"><ele>18.8</ele><time>2026-04-13T15:27:24Z</time></trkpt><trkpt lat="51.164714007118114" lon="5.034842351903343"><ele>18.599999999999998</ele><time>2026-04-13T15:27:25Z</time></trkpt><trkpt lat="51.16471458713411" lon="5.034717529937158"><ele>18.4</ele><time>2026-04-13T15:27:26Z</time></trkpt><trkpt lat="51.16468668021114" lon="5.03459692825282"><ele>18.2</ele><time>2026-04-13T15:27:27Z</time></trkpt><trkpt lat="51.16463469142461" lon="5.034472951065287"><ele>18.0</ele><time>2026-04-13T15:27:28Z</time></trkpt><trkpt lat="51.164564344905834" lon="5.034325302293848"><ele>18.333333333333332</ele><time>2026-04-13T15:27:29Z</time></trkpt><trkpt lat="51.164499855151576" lon="5.034137110916138"><ele>18.666666666666664</ele><time>2026-04-13T15:27:30Z</time></trkpt><trkpt lat="51.16443796603045" lon="5.033911514429301"><ele>19.0</ele><time>2026-04-13T15:27:31Z</time></trkpt><trkpt lat="51.164373532655425" lon="5.0336727296868"><ele>19.0</ele><time>2026-04-13T15:27:32Z</time></trkpt><trkpt lat="51.16430424497131" lon="5.033426964155519"><ele>19.0</ele><time>2026-04-13T15:27:33Z</time></trkpt><trkpt lat="51.16422143568956" lon="5.033148741965799"><ele>19.0</ele><time>2026-04-13T15:27:34Z</time></trkpt><trkpt lat="51.164136338265784" lon="5.0328323873873675"><ele>19.5</ele><time>2026-04-13T15:27:35Z</time></trkpt><trkpt lat="51.16405171263306" lon="5.032482985163587"><ele>20.0</ele><time>2026-04-13T15:27:36Z</time></trkpt><trkpt lat="51.16395839631941" lon="5.032097253961685"><ele>20.0</ele><time>2026-04-13T15:27:37Z</time></trkpt><trkpt lat="51.16386022042119" lon="5.031694084450331"><ele>20.0</ele><time>2026-04-13T15:27:38Z</time></trkpt><trkpt lat="51.163762354394244" lon="5.031290582513251"><ele>19.0</ele><time>2026-04-13T15:27:39Z</time></trkpt><trkpt lat="51.163658154245645" lon="5.030865316633721"><ele>18.0</ele><time>2026-04-13T15:27:40Z</time></trkpt><trkpt lat="51.163556704028444" lon="5.030447970370887"><ele>18.0</ele><time>2026-04-13T15:27:41Z</time></trkpt><trkpt lat="51.16345126949985" lon="5.030019666038474"><ele>18.0</ele><time>2026-04-13T15:27:42Z</time></trkpt><trkpt lat="51.16334228202327" lon="5.0295779198926445"><ele>19.5</ele><time>2026-04-13T15:27:43Z</time></trkpt><trkpt lat="51.16323534295934" lon="5.029141573128313"><ele>21.0</ele><time>2026-04-13T15:27:44Z</time></trkpt><trkpt lat="51.16312820893699" lon="5.028710557094397"><ele>20.5</ele><time>2026-04-13T15:27:45Z</time></trkpt><trkpt lat="51.163023163070925" lon="5.028279127177673"><ele>20.0</ele><time>2026-04-13T15:27:46Z</time></trkpt><trkpt lat="51.162919994810245" lon="5.027847591114132"><ele>19.0</ele><time>2026-04-13T15:27:47Z</time></trkpt><trkpt lat="51.162815846691494" lon="5.027416469098465"><ele>18.0</ele><time>2026-04-13T15:27:48Z</time></trkpt><trkpt lat="51.16271040333357" lon="5.026985769049069"><ele>18.0</ele><time>2026-04-13T15:27:49Z</time></trkpt><trkpt lat="51.16260521327419" lon="5.0265529812184"><ele>18.0</ele><time>2026-04-13T15:27:50Z</time></trkpt><trkpt lat="51.16250084586796" lon="5.026120580063695"><ele>18.0</ele><time>2026-04-13T15:27:51Z</time></trkpt><trkpt lat="51.16239688856348" lon="5.0256883668417505"><ele>18.0</ele><time>2026-04-13T15:27:52Z</time></trkpt><trkpt lat="51.162292359943" lon="5.02525501099663"><ele>17.5</ele><time>2026-04-13T15:27:53Z</time></trkpt><trkpt lat="51.162185405065685" lon="5.024821841179682"><ele>17.0</ele><time>2026-04-13T15:27:54Z</time></trkpt><trkpt lat="51.16207236352922" lon="5.0243912496729095"><ele>17.5</ele><time>2026-04-13T15:27:55Z</time></trkpt><trkpt lat="51.16195083135703" lon="5.023967489506416"><ele>18.0</ele><time>2026-04-13T15:27:56Z</time></trkpt><trkpt lat="51.16182388118304" lon="5.023549206541934"><ele>18.5</ele><time>2026-04-13T15:27:57Z</time></trkpt><trkpt lat="51.16168995117631" lon="5.0231352854032085"><ele>19.0</ele><time>2026-04-13T15:27:58Z</time></trkpt><trkpt lat="51.16155149867197" lon="5.022720444709843"><ele>18.0</ele><time>2026-04-13T15:27:59Z</time></trkpt><trkpt lat="51.1614065003718" lon="5.02230860101328"><ele>17.0</ele><time>2026-04-13T15:28:00Z</time></trkpt><trkpt lat="51.16124727996615" lon="5.021908640601864"><ele>18.0</ele><time>2026-04-13T15:28:01Z</time></trkpt><trkpt lat="51.1610769189825" lon="5.021519063301817"><ele>19.0</ele><time>2026-04-13T15:28:02Z</time></trkpt><trkpt lat="51.160899034865686" lon="5.021135830632206"><ele>19.5</ele><time>2026-04-13T15:28:03Z</time></trkpt><trkpt lat="51.16071308907768" lon="5.020760190827206"><ele>20.0</ele><time>2026-04-13T15:28:04Z</time></trkpt><trkpt lat="51.16051746007122" lon="5.020393403927816"><ele>19.0</ele><time>2026-04-13T15:28:05Z</time></trkpt><trkpt lat="51.16032487339013" lon="5.020021438652897"><ele>18.0</ele><time>2026-04-13T15:28:06Z</time></trkpt><trkpt lat="51.1601310617461" lon="5.0196438187495245"><ele>18.0</ele><time>2026-04-13T15:28:07Z</time></trkpt><trkpt lat="51.15993577756019" lon="5.01926527657524"><ele>18.0</ele><time>2026-04-13T15:28:08Z</time></trkpt><trkpt lat="51.159741113413126" lon="5.018884953634697"><ele>18.0</ele><time>2026-04-13T15:28:09Z</time></trkpt><trkpt lat="51.15954564264247" lon="5.0185023813192124"><ele>18.0</ele><time>2026-04-13T15:28:10Z</time></trkpt><trkpt lat="51.159350165864524" lon="5.018118199320573"><ele>18.0</ele><time>2026-04-13T15:28:11Z</time></trkpt><trkpt lat="51.159154511761635" lon="5.017734394108445"><ele>18.0</ele><time>2026-04-13T15:28:12Z</time></trkpt><trkpt lat="51.15895793436522" lon="5.017348655569267"><ele>18.5</ele><time>2026-04-13T15:28:13Z</time></trkpt><trkpt lat="51.15876062899965" lon="5.016962143284377"><ele>19.0</ele><time>2026-04-13T15:28:14Z</time></trkpt><trkpt lat="51.15856210257848" lon="5.016576071716645"><ele>19.0</ele><time>2026-04-13T15:28:15Z</time></trkpt><trkpt lat="51.15836564072758" lon="5.01619132272043"><ele>19.0</ele><time>2026-04-13T15:28:16Z</time></trkpt><trkpt lat="51.158172009966115" lon="5.015801862064001"><ele>18.5</ele><time>2026-04-13T15:28:17Z</time></trkpt><trkpt lat="51.15798703709502" lon="5.015403794240837"><ele>18.0</ele><time>2026-04-13T15:28:18Z</time></trkpt><trkpt lat="51.15781333560462" lon="5.014993203707735"><ele>18.0</ele><time>2026-04-13T15:28:19Z</time></trkpt><trkpt lat="51.157647726489515" lon="5.014575968103709"><ele>18.0</ele><time>2026-04-13T15:28:20Z</time></trkpt><trkpt lat="51.15748662163182" lon="5.01415438640366"><ele>18.0</ele><time>2026-04-13T15:28:21Z</time></trkpt><trkpt lat="51.157325647045" lon="5.013734160576956"><ele>18.0</ele><time>2026-04-13T15:28:22Z</time></trkpt><trkpt lat="51.157170052709475" lon="5.013307667968838"><ele>18.0</ele><time>2026-04-13T15:28:23Z</time></trkpt><trkpt lat="51.15701193828528" lon="5.012882257706034"><ele>18.0</ele><time>2026-04-13T15:28:24Z</time></trkpt><trkpt lat="51.156850242999354" lon="5.012455310873839"><ele>18.0</ele><time>2026-04-13T15:28:25Z</time></trkpt><trkpt lat="51.15668973355012" lon="5.012026168061386"><ele>18.0</ele><time>2026-04-13T15:28:26Z</time></trkpt><trkpt lat="51.15652788567677" lon="5.011594977155102"><ele>18.0</ele><time>2026-04-13T15:28:27Z</time></trkpt><trkpt lat="51.15635750758752" lon="5.011159727424866"><ele>18.0</ele><time>2026-04-13T15:28:28Z</time></trkpt><trkpt lat="51.15617878680693" lon="5.010715162292728"><ele>18.0</ele><time>2026-04-13T15:28:29Z</time></trkpt><trkpt lat="51.15599914267483" lon="5.010257520415517"><ele>18.0</ele><time>2026-04-13T15:28:30Z</time></trkpt><trkpt lat="51.1558219518541" lon="5.009785969432462"><ele>18.0</ele><time>2026-04-13T15:28:31Z</time></trkpt><trkpt lat="51.15564743562026" lon="5.009312529960977"><ele>18.0</ele><time>2026-04-13T15:28:32Z</time></trkpt><trkpt lat="51.155474172443775" lon="5.008849108877605"><ele>18.0</ele><time>2026-04-13T15:28:33Z</time></trkpt><trkpt lat="51.15530575805805" lon="5.008398466253939"><ele>18.0</ele><time>2026-04-13T15:28:34Z</time></trkpt><trkpt lat="51.15514076071179" lon="5.007958468629655"><ele>18.0</ele><time>2026-04-13T15:28:35Z</time></trkpt><trkpt lat="51.15497866819174" lon="5.007524512627678"><ele>18.0</ele><time>2026-04-13T15:28:36Z</time></trkpt><trkpt lat="51.1548169653262" lon="5.0070909209052346"><ele>18.0</ele><time>2026-04-13T15:28:37Z</time></trkpt><trkpt lat="51.15465648042721" lon="5.006656755545431"><ele>18.0</ele><time>2026-04-13T15:28:38Z</time></trkpt><trkpt lat="51.154496999901" lon="5.006223954538455"><ele>18.0</ele><time>2026-04-13T15:28:39Z</time></trkpt><trkpt lat="51.154337372528225" lon="5.005795238318958"><ele>18.0</ele><time>2026-04-13T15:28:40Z</time></trkpt><trkpt lat="51.15417891087536" lon="5.005372004379999"><ele>18.0</ele><time>2026-04-13T15:28:41Z</time></trkpt><trkpt lat="51.154022885851" lon="5.004948880058393"><ele>18.0</ele><time>2026-04-13T15:28:42Z</time></trkpt><trkpt lat="51.15386727377615" lon="5.004529858614716"><ele>18.5</ele><time>2026-04-13T15:28:43Z</time></trkpt><trkpt lat="51.153712448712604" lon="5.004112018742007"><ele>19.0</ele><time>2026-04-13T15:28:44Z</time></trkpt><trkpt lat="51.15355829775189" lon="5.003697631911418"><ele>19.5</ele><time>2026-04-13T15:28:45Z</time></trkpt><trkpt lat="51.15340220521006" lon="5.003288987881481"><ele>20.0</ele><time>2026-04-13T15:28:46Z</time></trkpt><trkpt lat="51.15324610962564" lon="5.002882337573861"><ele>20.0</ele><time>2026-04-13T15:28:47Z</time></trkpt><trkpt lat="51.15309455248607" lon="5.002475139150462"><ele>20.0</ele><time>2026-04-13T15:28:48Z</time></trkpt><trkpt lat="51.1529438647219" lon="5.002068639375684"><ele>20.0</ele><time>2026-04-13T15:28:49Z</time></trkpt><trkpt lat="51.15279534601458" lon="5.001662412249115"><ele>20.0</ele><time>2026-04-13T15:28:50Z</time></trkpt><trkpt lat="51.15264786863401" lon="5.0012578634409"><ele>20.0</ele><time>2026-04-13T15:28:51Z</time></trkpt><trkpt lat="51.15249901482645" lon="5.00085601106994"><ele>20.0</ele><time>2026-04-13T15:28:52Z</time></trkpt><trkpt lat="51.15235009777252" lon="5.000455460346442"><ele>19.0</ele><time>2026-04-13T15:28:53Z</time></trkpt><trkpt lat="51.1522018861465" lon="5.000056447376047"><ele>18.0</ele><time>2026-04-13T15:28:54Z</time></trkpt><trkpt lat="51.1520552722524" lon="4.999661029244824"><ele>18.0</ele><time>2026-04-13T15:28:55Z</time></trkpt><trkpt lat="51.151917997618334" lon="4.999286080568521"><ele>18.0</ele><time>2026-04-13T15:28:56Z</time></trkpt><trkpt lat="51.15178678733383" lon="4.998927847152337"><ele>18.5</ele><time>2026-04-13T15:28:57Z</time></trkpt><trkpt lat="51.15166004345671" lon="4.998585421094456"><ele>19.0</ele><time>2026-04-13T15:28:58Z</time></trkpt><trkpt lat="51.15153101451718" lon="4.998243584280466"><ele>19.0</ele><time>2026-04-13T15:28:59Z</time></trkpt><trkpt lat="51.1514041905928" lon="4.997908297346857"><ele>19.0</ele><time>2026-04-13T15:29:00Z</time></trkpt><trkpt lat="51.151286038485395" lon="4.997593293705175"><ele>19.0</ele><time>2026-04-13T15:29:01Z</time></trkpt><trkpt lat="51.15117549349597" lon="4.9972939853195415"><ele>19.0</ele><time>2026-04-13T15:29:02Z</time></trkpt><trkpt lat="51.1510705967041" lon="4.997007312854791"><ele>19.0</ele><time>2026-04-13T15:29:03Z</time></trkpt><trkpt lat="51.15097505407211" lon="4.996742116947224"><ele>18.666666666666664</ele><time>2026-04-13T15:29:04Z</time></trkpt><trkpt lat="51.150883222517784" lon="4.996487691903981"><ele>18.333333333333332</ele><time>2026-04-13T15:29:05Z</time></trkpt><trkpt lat="51.15080217384052" lon="4.996245708006252"><ele>18.0</ele><time>2026-04-13T15:29:06Z</time></trkpt><trkpt lat="51.15072590099788" lon="4.996012669883001"><ele>18.333333333333332</ele><time>2026-04-13T15:29:07Z</time></trkpt><trkpt lat="51.150641877316154" lon="4.995780571887171"><ele>18.666666666666664</ele><time>2026-04-13T15:29:08Z</time></trkpt><trkpt lat="51.15055510241502" lon="4.99555124088753"><ele>19.0</ele><time>2026-04-13T15:29:09Z</time></trkpt><trkpt lat="51.150476385774915" lon="4.995337403959679"><ele>19.0</ele><time>2026-04-13T15:29:10Z</time></trkpt><trkpt lat="51.150405464226864" lon="4.9951394407424585"><ele>19.0</ele><time>2026-04-13T15:29:11Z</time></trkpt><trkpt lat="51.150336418940434" lon="4.994946654503396"><ele>19.0</ele><time>2026-04-13T15:29:12Z</time></trkpt><trkpt lat="51.15026482062502" lon="4.994749086016896"><ele>19.0</ele><time>2026-04-13T15:29:13Z</time></trkpt><trkpt lat="51.15019053673479" lon="4.994551351591858"><ele>18.666666666666664</ele><time>2026-04-13T15:29:14Z</time></trkpt><trkpt lat="51.15011127101211" lon="4.9943439057722125"><ele>18.333333333333332</ele><time>2026-04-13T15:29:15Z</time></trkpt><trkpt lat="51.150025302120945" lon="4.994118040985281"><ele>18.0</ele><time>2026-04-13T15:29:16Z</time></trkpt><trkpt lat="51.149932993865626" lon="4.993873805670489"><ele>18.0</ele><time>2026-04-13T15:29:17Z</time></trkpt><trkpt lat="51.14983227965459" lon="4.993604549306357"><ele>18.0</ele><time>2026-04-13T15:29:18Z</time></trkpt><trkpt lat="51.14973555605633" lon="4.9933457064065205"><ele>18.0</ele><time>2026-04-13T15:29:19Z</time></trkpt><trkpt lat="51.14963962717784" lon="4.993090128547702"><ele>18.0</ele><time>2026-04-13T15:29:20Z</time></trkpt><trkpt lat="51.1495367533916" lon="4.992824901128644"><ele>18.0</ele><time>2026-04-13T15:29:21Z</time></trkpt><trkpt lat="51.14942907434575" lon="4.992552716633089"><ele>18.0</ele><time>2026-04-13T15:29:22Z</time></trkpt><trkpt lat="51.149319937959405" lon="4.992272976239891"><ele>18.0</ele><time>2026-04-13T15:29:23Z</time></trkpt><trkpt lat="51.14921380953448" lon="4.991989207485986"><ele>18.0</ele><time>2026-04-13T15:29:24Z</time></trkpt><trkpt lat="51.1491089292316" lon="4.991702462222415"><ele>18.0</ele><time>2026-04-13T15:29:25Z</time></trkpt><trkpt lat="51.1490035115542" lon="4.991406945615693"><ele>18.0</ele><time>2026-04-13T15:29:26Z</time></trkpt><trkpt lat="51.1488991935391" lon="4.991104825454253"><ele>18.0</ele><time>2026-04-13T15:29:27Z</time></trkpt><trkpt lat="51.14880139702381" lon="4.990790769681453"><ele>18.0</ele><time>2026-04-13T15:29:28Z</time></trkpt><trkpt lat="51.14871250698621" lon="4.990475942902361"><ele>18.0</ele><time>2026-04-13T15:29:29Z</time></trkpt><trkpt lat="51.14863231585567" lon="4.9901673738266945"><ele>18.0</ele><time>2026-04-13T15:29:30Z</time></trkpt><trkpt lat="51.14855948413784" lon="4.989862622397822"><ele>18.0</ele><time>2026-04-13T15:29:31Z</time></trkpt><trkpt lat="51.14849261570345" lon="4.989551666432485"><ele>18.0</ele><time>2026-04-13T15:29:32Z</time></trkpt><trkpt lat="51.14842813134975" lon="4.98923146883294"><ele>18.0</ele><time>2026-04-13T15:29:33Z</time></trkpt><trkpt lat="51.148368448063145" lon="4.988900055842867"><ele>18.0</ele><time>2026-04-13T15:29:34Z</time></trkpt><trkpt lat="51.14831672299555" lon="4.988558338867598"><ele>17.5</ele><time>2026-04-13T15:29:35Z</time></trkpt><trkpt lat="51.148270022027326" lon="4.98820860906032"><ele>17.0</ele><time>2026-04-13T15:29:36Z</time></trkpt><trkpt lat="51.14822836691251" lon="4.98785294976847"><ele>17.0</ele><time>2026-04-13T15:29:37Z</time></trkpt><trkpt lat="51.1482002753409" lon="4.987517899669391"><ele>17.0</ele><time>2026-04-13T15:29:38Z</time></trkpt><trkpt lat="51.14817654265987" lon="4.987202276029832"><ele>17.0</ele><time>2026-04-13T15:29:39Z</time></trkpt><trkpt lat="51.14815880023551" lon="4.986914211588463"><ele>16.666666666666668</ele><time>2026-04-13T15:29:40Z</time></trkpt><trkpt lat="51.14814960725428" lon="4.9866513807620825"><ele>16.333333333333332</ele><time>2026-04-13T15:29:41Z</time></trkpt><trkpt lat="51.148147382702184" lon="4.986406286474257"><ele>16.0</ele><time>2026-04-13T15:29:42Z</time></trkpt><trkpt lat="51.14814711827693" lon="4.9861734297090585"><ele>16.0</ele><time>2026-04-13T15:29:43Z</time></trkpt><trkpt lat="51.14815108381372" lon="4.985955398496445"><ele>16.0</ele><time>2026-04-13T15:29:44Z</time></trkpt><trkpt lat="51.1481567493084" lon="4.98574996713686"><ele>16.0</ele><time>2026-04-13T15:29:45Z</time></trkpt><trkpt lat="51.14816113491256" lon="4.9855573942353075"><ele>16.0</ele><time>2026-04-13T15:29:46Z</time></trkpt><trkpt lat="51.14816556854346" lon="4.9853770756041325"><ele>16.0</ele><time>2026-04-13T15:29:47Z</time></trkpt><trkpt lat="51.148173973676236" lon="4.985200943604157"><ele>16.0</ele><time>2026-04-13T15:29:48Z</time></trkpt><trkpt lat="51.148184637727645" lon="4.985040621194107"><ele>16.0</ele><time>2026-04-13T15:29:49Z</time></trkpt><trkpt lat="51.148195122340304" lon="4.984889473321078"><ele>16.0</ele><time>2026-04-13T15:29:50Z</time></trkpt><trkpt lat="51.148208956830835" lon="4.984749493176184"><ele>16.0</ele><time>2026-04-13T15:29:51Z</time></trkpt><trkpt lat="51.14822325787918" lon="4.984618253773509"><ele>16.333333333333332</ele><time>2026-04-13T15:29:52Z</time></trkpt><trkpt lat="51.14823373494998" lon="4.984494749617053"><ele>16.666666666666664</ele><time>2026-04-13T15:29:53Z</time></trkpt><trkpt lat="51.148247123987524" lon="4.9843809032944675"><ele>17.0</ele><time>2026-04-13T15:29:54Z</time></trkpt><trkpt lat="51.14825844381538" lon="4.9842808112290005"><ele>17.333333333333332</ele><time>2026-04-13T15:29:55Z</time></trkpt><trkpt lat="51.148273879146195" lon="4.984128077054808"><ele>17.666666666666668</ele><time>2026-04-13T15:29:57Z</time></trkpt><trkpt lat="51.148292469269364" lon="4.984022980997405"><ele>18.0</ele><time>2026-04-13T15:29:59Z</time></trkpt><trkpt lat="51.148307619020635" lon="4.983894485577832"><ele>18.166666666666668</ele><time>2026-04-13T15:30:02Z</time></trkpt><trkpt lat="51.14832073374789" lon="4.983781687682915"><ele>18.333333333333332</ele><time>2026-04-13T15:30:05Z</time></trkpt><trkpt lat="51.14833975191473" lon="4.983650610497387"><ele>18.5</ele><time>2026-04-13T15:30:24Z</time></trkpt><trkpt lat="51.14835634498433" lon="4.983540402620616"><ele>18.666666666666664</ele><time>2026-04-13T15:30:25Z</time></trkpt><trkpt lat="51.14838010875168" lon="4.983398572681438"><ele>18.833333333333332</ele><time>2026-04-13T15:30:26Z</time></trkpt><trkpt lat="51.14841052480959" lon="4.983227729588052"><ele>19.0</ele><time>2026-04-13T15:30:27Z</time></trkpt><trkpt lat="51.148440228975545" lon="4.983060616433612"><ele>19.0</ele><time>2026-04-13T15:30:28Z</time></trkpt><trkpt lat="51.148470663753194" lon="4.982881323734094"><ele>19.0</ele><time>2026-04-13T15:30:29Z</time></trkpt><trkpt lat="51.14850329967832" lon="4.98267025775633"><ele>19.0</ele><time>2026-04-13T15:30:30Z</time></trkpt><trkpt lat="51.14854248140398" lon="4.9824285955196626"><ele>19.0</ele><time>2026-04-13T15:30:31Z</time></trkpt><trkpt lat="51.14858713883919" lon="4.9821759016280796"><ele>19.0</ele><time>2026-04-13T15:30:32Z</time></trkpt><trkpt lat="51.14863604372164" lon="4.981924451969602"><ele>19.0</ele><time>2026-04-13T15:30:33Z</time></trkpt><trkpt lat="51.148689740902725" lon="4.981656909671621"><ele>19.0</ele><time>2026-04-13T15:30:34Z</time></trkpt><trkpt lat="51.148758173966044" lon="4.981363368427336"><ele>19.0</ele><time>2026-04-13T15:30:35Z</time></trkpt><trkpt lat="51.14882779219958" lon="4.981072773496999"><ele>19.0</ele><time>2026-04-13T15:30:36Z</time></trkpt><trkpt lat="51.148900467917606" lon="4.980796239863976"><ele>19.0</ele><time>2026-04-13T15:30:37Z</time></trkpt><trkpt lat="51.14898281474216" lon="4.980515103121034"><ele>18.666666666666664</ele><time>2026-04-13T15:30:38Z</time></trkpt><trkpt lat="51.14907170707707" lon="4.980234389246679"><ele>18.333333333333332</ele><time>2026-04-13T15:30:39Z</time></trkpt><trkpt lat="51.14916872664715" lon="4.979947358774159"><ele>18.0</ele><time>2026-04-13T15:30:40Z</time></trkpt><trkpt lat="51.14927633027105" lon="4.979651211278768"><ele>18.0</ele><time>2026-04-13T15:30:41Z</time></trkpt><trkpt lat="51.14939462893614" lon="4.979351193391383"><ele>18.0</ele><time>2026-04-13T15:30:42Z</time></trkpt><trkpt lat="51.14951283329157" lon="4.979069158662981"><ele>18.0</ele><time>2026-04-13T15:30:43Z</time></trkpt><trkpt lat="51.14963470131101" lon="4.978798193667425"><ele>18.0</ele><time>2026-04-13T15:30:44Z</time></trkpt><trkpt lat="51.14976232408132" lon="4.978534429566395"><ele>18.0</ele><time>2026-04-13T15:30:45Z</time></trkpt><trkpt lat="51.14989589826944" lon="4.978277568149747"><ele>18.0</ele><time>2026-04-13T15:30:46Z</time></trkpt><trkpt lat="51.15003516305532" lon="4.978024178449641"><ele>19.0</ele><time>2026-04-13T15:30:47Z</time></trkpt><trkpt lat="51.1501785476225" lon="4.977778418090336"><ele>20.0</ele><time>2026-04-13T15:30:48Z</time></trkpt><trkpt lat="51.15032668073601" lon="4.977537631555991"><ele>21.0</ele><time>2026-04-13T15:30:49Z</time></trkpt><trkpt lat="51.15047927939278" lon="4.97730835593563"><ele>21.0</ele><time>2026-04-13T15:30:50Z</time></trkpt><trkpt lat="51.15062763240015" lon="4.977100538158107"><ele>21.0</ele><time>2026-04-13T15:30:51Z</time></trkpt><trkpt lat="51.15077128537226" lon="4.976910612359589"><ele>21.0</ele><time>2026-04-13T15:30:52Z</time></trkpt><trkpt lat="51.15091079476751" lon="4.976732614380816"><ele>20.0</ele><time>2026-04-13T15:30:53Z</time></trkpt><trkpt lat="51.151045746841426" lon="4.976569625793951"><ele>19.0</ele><time>2026-04-13T15:30:54Z</time></trkpt><trkpt lat="51.151172132554144" lon="4.976424773245508"><ele>18.0</ele><time>2026-04-13T15:30:55Z</time></trkpt><trkpt lat="51.151287784275176" lon="4.9762980380373065"><ele>18.0</ele><time>2026-04-13T15:30:56Z</time></trkpt><trkpt lat="51.15139920676564" lon="4.976176576041915"><ele>18.0</ele><time>2026-04-13T15:30:57Z</time></trkpt><trkpt lat="51.151503251306124" lon="4.9760623185599595"><ele>18.0</ele><time>2026-04-13T15:30:58Z</time></trkpt><trkpt lat="51.15160431059325" lon="4.975959120200811"><ele>18.0</ele><time>2026-04-13T15:30:59Z</time></trkpt><trkpt lat="51.15170372739324" lon="4.975865769631507"><ele>18.25</ele><time>2026-04-13T15:31:00Z</time></trkpt><trkpt lat="51.151798800753625" lon="4.9757777210954295"><ele>18.5</ele><time>2026-04-13T15:31:01Z</time></trkpt><trkpt lat="51.151899135229954" lon="4.97568325262123"><ele>18.75</ele><time>2026-04-13T15:31:02Z</time></trkpt><trkpt lat="51.15200080361574" lon="4.97558497072757"><ele>19.0</ele><time>2026-04-13T15:31:03Z</time></trkpt><trkpt lat="51.15210025049291" lon="4.975488499994574"><ele>19.0</ele><time>2026-04-13T15:31:04Z</time></trkpt><trkpt lat="51.15218812108057" lon="4.975403309889794"><ele>19.0</ele><time>2026-04-13T15:31:05Z</time></trkpt><trkpt lat="51.15226618535457" lon="4.975326501176462"><ele>19.0</ele><time>2026-04-13T15:31:06Z</time></trkpt><trkpt lat="51.1523356056133" lon="4.9752586360257975"><ele>19.0</ele><time>2026-04-13T15:31:07Z</time></trkpt><trkpt lat="51.15239617628142" lon="4.975200717876868"><ele>19.0</ele><time>2026-04-13T15:31:08Z</time></trkpt><trkpt lat="51.15245279552002" lon="4.975148288848294"><ele>19.0</ele><time>2026-04-13T15:31:09Z</time></trkpt><trkpt lat="51.15256225934521" lon="4.975071715408244"><ele>19.4</ele><time>2026-04-13T15:31:11Z</time></trkpt><trkpt lat="51.1526885550941" lon="4.975078567699924"><ele>19.799999999999997</ele><time>2026-04-13T15:31:13Z</time></trkpt><trkpt lat="51.152797415707084" lon="4.9750676711794055"><ele>20.200000000000003</ele><time>2026-04-13T15:31:15Z</time></trkpt><trkpt lat="51.15286688121779" lon="4.974922629445928"><ele>20.6</ele><time>2026-04-13T15:31:17Z</time></trkpt><trkpt lat="51.15287705422243" lon="4.974822138412316"><ele>21.0</ele><time>2026-04-13T15:31:18Z</time></trkpt><trkpt lat="51.152835452528834" lon="4.974661132364416"><ele>21.0</ele><time>2026-04-13T15:31:20Z</time></trkpt><trkpt lat="51.15271755066592" lon="4.974545750660892"><ele>21.0</ele><time>2026-04-13T15:31:22Z</time></trkpt><trkpt lat="51.15265206229429" lon="4.974449198832609"><ele>21.0</ele><time>2026-04-13T15:31:23Z</time></trkpt><trkpt lat="51.152590995906245" lon="4.9743261628629405"><ele>21.0</ele><time>2026-04-13T15:31:24Z</time></trkpt><trkpt lat="51.152532118438195" lon="4.974179496665822"><ele>21.0</ele><time>2026-04-13T15:31:25Z</time></trkpt><trkpt lat="51.15246931451388" lon="4.974009184455238"><ele>21.0</ele><time>2026-04-13T15:31:26Z</time></trkpt><trkpt lat="51.15240740133084" lon="4.973836675670535"><ele>21.0</ele><time>2026-04-13T15:31:27Z</time></trkpt><trkpt lat="51.15234400157475" lon="4.97366554199317"><ele>21.0</ele><time>2026-04-13T15:31:28Z</time></trkpt><trkpt lat="51.15227522823148" lon="4.973484155039986"><ele>21.0</ele><time>2026-04-13T15:31:29Z</time></trkpt><trkpt lat="51.15220840642051" lon="4.973285874007013"><ele>20.75</ele><time>2026-04-13T15:31:30Z</time></trkpt><trkpt lat="51.15214163710562" lon="4.973076578659766"><ele>20.5</ele><time>2026-04-13T15:31:31Z</time></trkpt><trkpt lat="51.15206779273281" lon="4.972868036269555"><ele>20.25</ele><time>2026-04-13T15:31:32Z</time></trkpt><trkpt lat="51.152001390925996" lon="4.972683350847784"><ele>20.0</ele><time>2026-04-13T15:31:33Z</time></trkpt><trkpt lat="51.15193738595167" lon="4.972505872328763"><ele>20.0</ele><time>2026-04-13T15:31:34Z</time></trkpt><trkpt lat="51.15187444917618" lon="4.972322002992785"><ele>20.0</ele><time>2026-04-13T15:31:35Z</time></trkpt><trkpt lat="51.15180855508547" lon="4.9721378670857375"><ele>20.0</ele><time>2026-04-13T15:31:36Z</time></trkpt><trkpt lat="51.15173910682812" lon="4.971954648280888"><ele>20.0</ele><time>2026-04-13T15:31:37Z</time></trkpt><trkpt lat="51.15166856839296" lon="4.971766470746273"><ele>20.0</ele><time>2026-04-13T15:31:38Z</time></trkpt><trkpt lat="51.15159565616486" lon="4.971573842245208"><ele>20.0</ele><time>2026-04-13T15:31:39Z</time></trkpt><trkpt lat="51.151521166148164" lon="4.971379759553474"><ele>20.0</ele><time>2026-04-13T15:31:40Z</time></trkpt><trkpt lat="51.151444049695286" lon="4.971184079451619"><ele>20.0</ele><time>2026-04-13T15:31:41Z</time></trkpt><trkpt lat="51.151367605642484" lon="4.970984845317122"><ele>20.0</ele><time>2026-04-13T15:31:42Z</time></trkpt><trkpt lat="51.15129018591986" lon="4.970781113197154"><ele>20.0</ele><time>2026-04-13T15:31:43Z</time></trkpt><trkpt lat="51.15121227589993" lon="4.970574936589442"><ele>20.0</ele><time>2026-04-13T15:31:44Z</time></trkpt><trkpt lat="51.15113390393971" lon="4.970366337935595"><ele>20.0</ele><time>2026-04-13T15:31:45Z</time></trkpt><trkpt lat="51.15105559406015" lon="4.970158099400249"><ele>20.0</ele><time>2026-04-13T15:31:46Z</time></trkpt><trkpt lat="51.150983927919356" lon="4.969963446220219"><ele>20.0</ele><time>2026-04-13T15:31:47Z</time></trkpt><trkpt lat="51.150916120075465" lon="4.96977970059894"><ele>20.0</ele><time>2026-04-13T15:31:48Z</time></trkpt><trkpt lat="51.15085368671324" lon="4.969612300810981"><ele>20.0</ele><time>2026-04-13T15:31:49Z</time></trkpt><trkpt lat="51.15079281078262" lon="4.969455401968477"><ele>20.0</ele><time>2026-04-13T15:31:50Z</time></trkpt><trkpt lat="51.150732074420596" lon="4.969297301551492"><ele>20.0</ele><time>2026-04-13T15:31:51Z</time></trkpt><trkpt lat="51.150671786615334" lon="4.96913521301141"><ele>20.0</ele><time>2026-04-13T15:31:52Z</time></trkpt><trkpt lat="51.15061525869587" lon="4.968981389937108"><ele>20.2</ele><time>2026-04-13T15:31:53Z</time></trkpt><trkpt lat="51.15056212921845" lon="4.968851359812991"><ele>20.4</ele><time>2026-04-13T15:31:54Z</time></trkpt><trkpt lat="51.150521390274434" lon="4.968761754766586"><ele>20.6</ele><time>2026-04-13T15:31:55Z</time></trkpt><trkpt lat="51.15050295464844" lon="4.9686554533173375"><ele>20.8</ele><time>2026-04-13T15:31:57Z</time></trkpt><trkpt lat="51.15060443445734" lon="4.968509172486188"><ele>21.0</ele><time>2026-04-13T15:32:03Z</time></trkpt><trkpt lat="51.15065379490983" lon="4.968378969897055"><ele>21.25</ele><time>2026-04-13T15:32:04Z</time></trkpt><trkpt lat="51.15073477633699" lon="4.9682350509652675"><ele>21.5</ele><time>2026-04-13T15:32:05Z</time></trkpt><trkpt lat="51.15081826108561" lon="4.968089967001278"><ele>21.75</ele><time>2026-04-13T15:32:06Z</time></trkpt><trkpt lat="51.15090040666928" lon="4.967935866776642"><ele>22.0</ele><time>2026-04-13T15:32:07Z</time></trkpt><trkpt lat="51.1509957861575" lon="4.967769645593357"><ele>22.0</ele><time>2026-04-13T15:32:08Z</time></trkpt><trkpt lat="51.15110902311633" lon="4.967586045787745"><ele>22.0</ele><time>2026-04-13T15:32:09Z</time></trkpt><trkpt lat="51.15125736150027" lon="4.967411887216788"><ele>22.0</ele><time>2026-04-13T15:32:10Z</time></trkpt><trkpt lat="51.15138634176481" lon="4.967211033504393"><ele>21.666666666666664</ele><time>2026-04-13T15:32:11Z</time></trkpt><trkpt lat="51.151516463282476" lon="4.967008734074571"><ele>21.333333333333332</ele><time>2026-04-13T15:32:12Z</time></trkpt><trkpt lat="51.15164071946238" lon="4.966784168422752"><ele>21.0</ele><time>2026-04-13T15:32:13Z</time></trkpt><trkpt lat="51.15177390035313" lon="4.96657879599832"><ele>20.666666666666668</ele><time>2026-04-13T15:32:14Z</time></trkpt><trkpt lat="51.15190647913316" lon="4.966386086083296"><ele>20.333333333333336</ele><time>2026-04-13T15:32:15Z</time></trkpt><trkpt lat="51.15206668126052" lon="4.966272665244226"><ele>20.0</ele><time>2026-04-13T15:32:16Z</time></trkpt><trkpt lat="51.15222128886148" lon="4.966142222964477"><ele>20.666666666666668</ele><time>2026-04-13T15:32:17Z</time></trkpt><trkpt lat="51.15237481921525" lon="4.966013704512796"><ele>21.333333333333332</ele><time>2026-04-13T15:32:18Z</time></trkpt><trkpt lat="51.15251766916076" lon="4.9658662252843575"><ele>22.0</ele><time>2026-04-13T15:32:19Z</time></trkpt><trkpt lat="51.15264682776923" lon="4.9657668413714635"><ele>22.0</ele><time>2026-04-13T15:32:20Z</time></trkpt><trkpt lat="51.152732578535826" lon="4.965709598726841"><ele>22.0</ele><time>2026-04-13T15:32:21Z</time></trkpt><trkpt lat="51.15280690732686" lon="4.96567718726538"><ele>22.0</ele><time>2026-04-13T15:32:22Z</time></trkpt><trkpt lat="51.15289562068338" lon="4.9656127202072575"><ele>22.0</ele><time>2026-04-13T15:32:24Z</time></trkpt><trkpt lat="51.152852457886766" lon="4.96531074324262"><ele>22.0</ele><time>2026-04-13T15:32:25Z</time></trkpt><trkpt lat="51.15284969466814" lon="4.965131301451511"><ele>22.0</ele><time>2026-04-13T15:32:26Z</time></trkpt><trkpt lat="51.152816704689734" lon="4.9649302050728465"><ele>22.0</ele><time>2026-04-13T15:32:27Z</time></trkpt><trkpt lat="51.15278098924254" lon="4.964709515960977"><ele>22.0</ele><time>2026-04-13T15:32:28Z</time></trkpt><trkpt lat="51.152745012369394" lon="4.964489756009437"><ele>21.75</ele><time>2026-04-13T15:32:29Z</time></trkpt><trkpt lat="51.15269523649433" lon="4.964288182239352"><ele>21.5</ele><time>2026-04-13T15:32:30Z</time></trkpt><trkpt lat="51.15267265143308" lon="4.964077927546983"><ele>21.25</ele><time>2026-04-13T15:32:31Z</time></trkpt><trkpt lat="51.15262717162672" lon="4.9638806501284325"><ele>21.0</ele><time>2026-04-13T15:32:32Z</time></trkpt><trkpt lat="51.152600214098165" lon="4.963703757869237"><ele>21.0</ele><time>2026-04-13T15:32:33Z</time></trkpt><trkpt lat="51.15257484527816" lon="4.963584229080388"><ele>21.0</ele><time>2026-04-13T15:32:34Z</time></trkpt><trkpt lat="51.15257819387864" lon="4.963423068472509"><ele>21.0</ele><time>2026-04-13T15:32:36Z</time></trkpt><trkpt lat="51.15265041928047" lon="4.963371119033478"><ele>21.0</ele><time>2026-04-13T15:32:37Z</time></trkpt><trkpt lat="51.15271783690407" lon="4.963345330850476"><ele>21.0</ele><time>2026-04-13T15:32:38Z</time></trkpt><trkpt lat="51.15280279169069" lon="4.963293333152816"><ele>21.0</ele><time>2026-04-13T15:32:39Z</time></trkpt><trkpt lat="51.15291081544253" lon="4.963214811122283"><ele>20.666666666666668</ele><time>2026-04-13T15:32:40Z</time></trkpt><trkpt lat="51.153047087240054" lon="4.963114276773099"><ele>20.333333333333336</ele><time>2026-04-13T15:32:41Z</time></trkpt><trkpt lat="51.153204373802986" lon="4.962995739398105"><ele>20.0</ele><time>2026-04-13T15:32:42Z</time></trkpt><trkpt lat="51.153361884205815" lon="4.962880677760977"><ele>20.0</ele><time>2026-04-13T15:32:43Z</time></trkpt><trkpt lat="51.153529652002575" lon="4.962759728378755"><ele>20.0</ele><time>2026-04-13T15:32:44Z</time></trkpt><trkpt lat="51.15371384519885" lon="4.9626241411828484"><ele>20.0</ele><time>2026-04-13T15:32:45Z</time></trkpt><trkpt lat="51.15391806406225" lon="4.9624710042307445"><ele>20.0</ele><time>2026-04-13T15:32:46Z</time></trkpt><trkpt lat="51.15409913358913" lon="4.962334921693947"><ele>20.0</ele><time>2026-04-13T15:32:47Z</time></trkpt><trkpt lat="51.15428788406848" lon="4.962195860033492"><ele>20.0</ele><time>2026-04-13T15:32:48Z</time></trkpt><trkpt lat="51.154466365039895" lon="4.962065969882439"><ele>20.0</ele><time>2026-04-13T15:32:49Z</time></trkpt><trkpt lat="51.154616838455084" lon="4.961955783797202"><ele>20.0</ele><time>2026-04-13T15:32:50Z</time></trkpt><trkpt lat="51.154743927898245" lon="4.961863428215796"><ele>20.0</ele><time>2026-04-13T15:32:51Z</time></trkpt><trkpt lat="51.15484069267621" lon="4.961783911134686"><ele>20.0</ele><time>2026-04-13T15:32:52Z</time></trkpt><trkpt lat="51.15492520277507" lon="4.9617252162802625"><ele>20.2</ele><time>2026-04-13T15:32:53Z</time></trkpt><trkpt lat="51.15499561364896" lon="4.961710493302281"><ele>20.4</ele><time>2026-04-13T15:32:54Z</time></trkpt><trkpt lat="51.15507353038014" lon="4.961701478323569"><ele>20.6</ele><time>2026-04-13T15:32:56Z</time></trkpt><trkpt lat="51.155177013858996" lon="4.96167202690683"><ele>20.8</ele><time>2026-04-13T15:32:58Z</time></trkpt><trkpt lat="51.155202724664235" lon="4.96139000539677"><ele>21.0</ele><time>2026-04-13T15:32:59Z</time></trkpt><trkpt lat="51.155236784977056" lon="4.961198541051455"><ele>21.0</ele><time>2026-04-13T15:33:00Z</time></trkpt><trkpt lat="51.15525734474697" lon="4.96101845255767"><ele>21.0</ele><time>2026-04-13T15:33:01Z</time></trkpt><trkpt lat="51.15526434257662" lon="4.960805325306141"><ele>21.0</ele><time>2026-04-13T15:33:02Z</time></trkpt><trkpt lat="51.15524796050172" lon="4.960571739035448"><ele>21.0</ele><time>2026-04-13T15:33:03Z</time></trkpt><trkpt lat="51.155216199271074" lon="4.960320728608026"><ele>21.0</ele><time>2026-04-13T15:33:04Z</time></trkpt><trkpt lat="51.15518193634903" lon="4.960048142461405"><ele>21.0</ele><time>2026-04-13T15:33:05Z</time></trkpt><trkpt lat="51.155150274781214" lon="4.959738624954912"><ele>21.0</ele><time>2026-04-13T15:33:06Z</time></trkpt><trkpt lat="51.15512672132114" lon="4.959387057110609"><ele>21.0</ele><time>2026-04-13T15:33:07Z</time></trkpt><trkpt lat="51.1551095906339" lon="4.959020275709181"><ele>21.0</ele><time>2026-04-13T15:33:08Z</time></trkpt><trkpt lat="51.155100624687186" lon="4.958672934044061"><ele>21.0</ele><time>2026-04-13T15:33:09Z</time></trkpt><trkpt lat="51.15509452259572" lon="4.958323286894698"><ele>20.333333333333332</ele><time>2026-04-13T15:33:10Z</time></trkpt><trkpt lat="51.155083866737144" lon="4.957989090590741"><ele>19.666666666666664</ele><time>2026-04-13T15:33:11Z</time></trkpt><trkpt lat="51.155059105356095" lon="4.9576443869810936"><ele>19.0</ele><time>2026-04-13T15:33:12Z</time></trkpt><trkpt lat="51.155023323407484" lon="4.957296716428554"><ele>19.0</ele><time>2026-04-13T15:33:13Z</time></trkpt><trkpt lat="51.154988326440154" lon="4.956945228492461"><ele>19.0</ele><time>2026-04-13T15:33:14Z</time></trkpt><trkpt lat="51.15495510346236" lon="4.956610908756853"><ele>19.0</ele><time>2026-04-13T15:33:15Z</time></trkpt><trkpt lat="51.15492486252309" lon="4.956297964923954"><ele>19.0</ele><time>2026-04-13T15:33:16Z</time></trkpt><trkpt lat="51.15489708009874" lon="4.956003211530781"><ele>19.0</ele><time>2026-04-13T15:33:17Z</time></trkpt><trkpt lat="51.15487217330243" lon="4.955722014736297"><ele>19.0</ele><time>2026-04-13T15:33:18Z</time></trkpt><trkpt lat="51.15484483538263" lon="4.955446758005385"><ele>19.5</ele><time>2026-04-13T15:33:19Z</time></trkpt><trkpt lat="51.154825236750646" lon="4.955198545931471"><ele>20.0</ele><time>2026-04-13T15:33:20Z</time></trkpt><trkpt lat="51.15481939326597" lon="4.9549644034199005"><ele>20.5</ele><time>2026-04-13T15:33:21Z</time></trkpt><trkpt lat="51.15483954831032" lon="4.954746395635871"><ele>21.0</ele><time>2026-04-13T15:33:22Z</time></trkpt><trkpt lat="51.15487126153389" lon="4.95453123887322"><ele>21.0</ele><time>2026-04-13T15:33:23Z</time></trkpt><trkpt lat="51.15490296921675" lon="4.954315640290845"><ele>21.0</ele><time>2026-04-13T15:33:24Z</time></trkpt><trkpt lat="51.15494013285758" lon="4.954085620181837"><ele>21.0</ele><time>2026-04-13T15:33:25Z</time></trkpt><trkpt lat="51.15500259164888" lon="4.953853433739357"><ele>21.0</ele><time>2026-04-13T15:33:26Z</time></trkpt><trkpt lat="51.15510794564195" lon="4.953643264236892"><ele>21.0</ele><time>2026-04-13T15:33:27Z</time></trkpt><trkpt lat="51.15519063375048" lon="4.953392753642705"><ele>21.0</ele><time>2026-04-13T15:33:28Z</time></trkpt><trkpt lat="51.15527344594515" lon="4.953131912722797"><ele>21.0</ele><time>2026-04-13T15:33:29Z</time></trkpt><trkpt lat="51.15535958953052" lon="4.95283600672966"><ele>21.0</ele><time>2026-04-13T15:33:30Z</time></trkpt><trkpt lat="51.15544298233809" lon="4.952544437565853"><ele>21.0</ele><time>2026-04-13T15:33:31Z</time></trkpt><trkpt lat="51.15552027880693" lon="4.9522460712198715"><ele>21.0</ele><time>2026-04-13T15:33:32Z</time></trkpt><trkpt lat="51.15558888961319" lon="4.951930727318448"><ele>21.333333333333332</ele><time>2026-04-13T15:33:33Z</time></trkpt><trkpt lat="51.155644400797286" lon="4.951591935315042"><ele>21.666666666666664</ele><time>2026-04-13T15:33:34Z</time></trkpt><trkpt lat="51.15569040832632" lon="4.951237465546292"><ele>22.0</ele><time>2026-04-13T15:33:35Z</time></trkpt><trkpt lat="51.15575452210866" lon="4.950877551165312"><ele>20.5</ele><time>2026-04-13T15:33:36Z</time></trkpt><trkpt lat="51.155809629223604" lon="4.950504095568945"><ele>19.0</ele><time>2026-04-13T15:33:37Z</time></trkpt><trkpt lat="51.15586854367157" lon="4.950120771915628"><ele>19.5</ele><time>2026-04-13T15:33:38Z</time></trkpt><trkpt lat="51.155936407638194" lon="4.949731414335849"><ele>20.0</ele><time>2026-04-13T15:33:39Z</time></trkpt><trkpt lat="51.15600849479937" lon="4.949340766846173"><ele>19.5</ele><time>2026-04-13T15:33:40Z</time></trkpt><trkpt lat="51.15606834933407" lon="4.948947206971761"><ele>19.0</ele><time>2026-04-13T15:33:41Z</time></trkpt><trkpt lat="51.156145496888854" lon="4.9485842082922735"><ele>19.333333333333332</ele><time>2026-04-13T15:33:42Z</time></trkpt><trkpt lat="51.156216916952026" lon="4.948241525224001"><ele>19.666666666666668</ele><time>2026-04-13T15:33:43Z</time></trkpt><trkpt lat="51.15628289847238" lon="4.947916116928611"><ele>20.0</ele><time>2026-04-13T15:33:44Z</time></trkpt><trkpt lat="51.15633849863205" lon="4.947601651661816"><ele>20.0</ele><time>2026-04-13T15:33:45Z</time></trkpt><trkpt lat="51.156379088743016" lon="4.947279920539691"><ele>20.0</ele><time>2026-04-13T15:33:46Z</time></trkpt><trkpt lat="51.15639993913615" lon="4.946956977907232"><ele>20.0</ele><time>2026-04-13T15:33:47Z</time></trkpt><trkpt lat="51.156403000771384" lon="4.946622842027438"><ele>20.0</ele><time>2026-04-13T15:33:48Z</time></trkpt><trkpt lat="51.15639765907549" lon="4.946278065026549"><ele>20.0</ele><time>2026-04-13T15:33:49Z</time></trkpt><trkpt lat="51.15638950111742" lon="4.945923519407244"><ele>20.0</ele><time>2026-04-13T15:33:50Z</time></trkpt><trkpt lat="51.15637390651867" lon="4.945577239590929"><ele>20.0</ele><time>2026-04-13T15:33:51Z</time></trkpt><trkpt lat="51.156347046484974" lon="4.9452624688480595"><ele>20.0</ele><time>2026-04-13T15:33:52Z</time></trkpt><trkpt lat="51.15630932561197" lon="4.944969242147831"><ele>20.0</ele><time>2026-04-13T15:33:53Z</time></trkpt><trkpt lat="51.15625547270313" lon="4.944693145661019"><ele>20.666666666666668</ele><time>2026-04-13T15:33:54Z</time></trkpt><trkpt lat="51.15618715610982" lon="4.944425062602569"><ele>21.333333333333332</ele><time>2026-04-13T15:33:55Z</time></trkpt><trkpt lat="51.15611323965697" lon="4.944174135721367"><ele>22.0</ele><time>2026-04-13T15:33:56Z</time></trkpt><trkpt lat="51.15605395843002" lon="4.943952057808746"><ele>22.0</ele><time>2026-04-13T15:33:57Z</time></trkpt><trkpt lat="51.156017956658566" lon="4.943742508172711"><ele>22.0</ele><time>2026-04-13T15:33:58Z</time></trkpt><trkpt lat="51.15601118034232" lon="4.943544127023238"><ele>22.0</ele><time>2026-04-13T15:33:59Z</time></trkpt><trkpt lat="51.1560301917721" lon="4.943355290931222"><ele>22.0</ele><time>2026-04-13T15:34:00Z</time></trkpt><trkpt lat="51.156079004431895" lon="4.943164660851699"><ele>22.0</ele><time>2026-04-13T15:34:01Z</time></trkpt><trkpt lat="51.1561591654531" lon="4.942984489263733"><ele>22.0</ele><time>2026-04-13T15:34:02Z</time></trkpt><trkpt lat="51.156254270283796" lon="4.94280410324386"><ele>22.0</ele><time>2026-04-13T15:34:03Z</time></trkpt><trkpt lat="51.15633511503175" lon="4.94262365389405"><ele>22.0</ele><time>2026-04-13T15:34:04Z</time></trkpt><trkpt lat="51.156394008567084" lon="4.942448182383366"><ele>22.0</ele><time>2026-04-13T15:34:05Z</time></trkpt><trkpt lat="51.156444596580144" lon="4.942262515966737"><ele>22.0</ele><time>2026-04-13T15:34:06Z</time></trkpt><trkpt lat="51.156490827906616" lon="4.9420736211978955"><ele>22.0</ele><time>2026-04-13T15:34:07Z</time></trkpt><trkpt lat="51.15653445682446" lon="4.941885127274027"><ele>22.0</ele><time>2026-04-13T15:34:08Z</time></trkpt><trkpt lat="51.15657670912954" lon="4.941698310841222"><ele>22.0</ele><time>2026-04-13T15:34:09Z</time></trkpt><trkpt lat="51.15661526623691" lon="4.9415292256701555"><ele>22.0</ele><time>2026-04-13T15:34:10Z</time></trkpt><trkpt lat="51.15665241579885" lon="4.941369878485811"><ele>22.0</ele><time>2026-04-13T15:34:11Z</time></trkpt><trkpt lat="51.15668768194156" lon="4.941221426092791"><ele>22.0</ele><time>2026-04-13T15:34:12Z</time></trkpt><trkpt lat="51.15671974754912" lon="4.941080457160989"><ele>22.0</ele><time>2026-04-13T15:34:13Z</time></trkpt><trkpt lat="51.15675026275994" lon="4.9409469548499025"><ele>22.0</ele><time>2026-04-13T15:34:14Z</time></trkpt><trkpt lat="51.156777014535095" lon="4.94082268968978"><ele>22.0</ele><time>2026-04-13T15:34:15Z</time></trkpt><trkpt lat="51.15680253304679" lon="4.940712035051437"><ele>22.0</ele><time>2026-04-13T15:34:16Z</time></trkpt><trkpt lat="51.156819924986934" lon="4.94061230236182"><ele>22.0</ele><time>2026-04-13T15:34:17Z</time></trkpt><trkpt lat="51.15683252487894" lon="4.9405100108480156"><ele>22.0</ele><time>2026-04-13T15:34:19Z</time></trkpt><trkpt lat="51.156853014252626" lon="4.940373563664497"><ele>22.0</ele><time>2026-04-13T15:34:22Z</time></trkpt><trkpt lat="51.15695677916925" lon="4.94030590868009"><ele>22.0</ele><time>2026-04-13T15:34:24Z</time></trkpt><trkpt lat="51.15706138520231" lon="4.940290658314136"><ele>22.0</ele><time>2026-04-13T15:34:25Z</time></trkpt><trkpt lat="51.15716754498648" lon="4.940247511038403"><ele>22.0</ele><time>2026-04-13T15:34:26Z</time></trkpt><trkpt lat="51.15725983102966" lon="4.940162234903982"><ele>22.0</ele><time>2026-04-13T15:34:27Z</time></trkpt><trkpt lat="51.15736566915667" lon="4.940087882980995"><ele>22.0</ele><time>2026-04-13T15:34:28Z</time></trkpt><trkpt lat="51.15748650067417" lon="4.93999736944729"><ele>22.0</ele><time>2026-04-13T15:34:29Z</time></trkpt><trkpt lat="51.15762653698059" lon="4.939958492124066"><ele>22.0</ele><time>2026-04-13T15:34:30Z</time></trkpt><trkpt lat="51.15775036409114" lon="4.939928842243583"><ele>22.0</ele><time>2026-04-13T15:34:31Z</time></trkpt><trkpt lat="51.15787059668844" lon="4.939941023325438"><ele>22.0</ele><time>2026-04-13T15:34:32Z</time></trkpt><trkpt lat="51.15799535517953" lon="4.939972855103353"><ele>22.0</ele><time>2026-04-13T15:34:33Z</time></trkpt><trkpt lat="51.15811722929046" lon="4.940062394050058"><ele>22.0</ele><time>2026-04-13T15:34:34Z</time></trkpt><trkpt lat="51.158265137961685" lon="4.9401647498889805"><ele>22.0</ele><time>2026-04-13T15:34:35Z</time></trkpt><trkpt lat="51.15842032114239" lon="4.9403030513990815"><ele>22.0</ele><time>2026-04-13T15:34:36Z</time></trkpt><trkpt lat="51.15861063035297" lon="4.940429129718795"><ele>22.0</ele><time>2026-04-13T15:34:37Z</time></trkpt><trkpt lat="51.158795944633525" lon="4.940537402155263"><ele>22.0</ele><time>2026-04-13T15:34:38Z</time></trkpt><trkpt lat="51.15899119583838" lon="4.940640928090504"><ele>21.333333333333332</ele><time>2026-04-13T15:34:39Z</time></trkpt><trkpt lat="51.159192318021915" lon="4.94076677730653"><ele>20.666666666666668</ele><time>2026-04-13T15:34:40Z</time></trkpt><trkpt lat="51.15939030856057" lon="4.9409015603049875"><ele>20.0</ele><time>2026-04-13T15:34:41Z</time></trkpt><trkpt lat="51.159565792852845" lon="4.941062693940146"><ele>20.0</ele><time>2026-04-13T15:34:42Z</time></trkpt><trkpt lat="51.15973491904616" lon="4.941215496213007"><ele>20.0</ele><time>2026-04-13T15:34:43Z</time></trkpt><trkpt lat="51.1599060616938" lon="4.941373025027914"><ele>20.0</ele><time>2026-04-13T15:34:44Z</time></trkpt><trkpt lat="51.1600651484016" lon="4.941573974677948"><ele>19.666666666666668</ele><time>2026-04-13T15:34:45Z</time></trkpt><trkpt lat="51.1602243218886" lon="4.941792505962028"><ele>19.333333333333332</ele><time>2026-04-13T15:34:46Z</time></trkpt><trkpt lat="51.16038921900956" lon="4.942009193208364"><ele>19.0</ele><time>2026-04-13T15:34:47Z</time></trkpt><trkpt lat="51.16055338062987" lon="4.942225656390079"><ele>19.0</ele><time>2026-04-13T15:34:48Z</time></trkpt><trkpt lat="51.160712047032234" lon="4.942442617879461"><ele>19.0</ele><time>2026-04-13T15:34:49Z</time></trkpt><trkpt lat="51.160857603566434" lon="4.942671045207103"><ele>19.0</ele><time>2026-04-13T15:34:50Z</time></trkpt><trkpt lat="51.16098663157808" lon="4.942911329142875"><ele>19.0</ele><time>2026-04-13T15:34:51Z</time></trkpt><trkpt lat="51.16110275476555" lon="4.943160835158899"><ele>19.0</ele><time>2026-04-13T15:34:52Z</time></trkpt><trkpt lat="51.161212028316285" lon="4.9434083277039536"><ele>19.0</ele><time>2026-04-13T15:34:53Z</time></trkpt><trkpt lat="51.16132143417575" lon="4.94364710682289"><ele>19.0</ele><time>2026-04-13T15:34:54Z</time></trkpt><trkpt lat="51.16143088754346" lon="4.943874638693302"><ele>19.0</ele><time>2026-04-13T15:34:55Z</time></trkpt><trkpt lat="51.161531737046225" lon="4.944089847185969"><ele>19.0</ele><time>2026-04-13T15:34:56Z</time></trkpt><trkpt lat="51.16162401183672" lon="4.944289316152535"><ele>19.25</ele><time>2026-04-13T15:34:57Z</time></trkpt><trkpt lat="51.1617111559606" lon="4.9444709047003395"><ele>19.5</ele><time>2026-04-13T15:34:58Z</time></trkpt><trkpt lat="51.16179071876257" lon="4.944633285591065"><ele>19.75</ele><time>2026-04-13T15:34:59Z</time></trkpt><trkpt lat="51.1618560025361" lon="4.944762590479347"><ele>20.0</ele><time>2026-04-13T15:35:00Z</time></trkpt><trkpt lat="51.16191743727956" lon="4.944879241067573"><ele>20.0</ele><time>2026-04-13T15:35:01Z</time></trkpt><trkpt lat="51.1620053526134" lon="4.944936681223834"><ele>20.0</ele><time>2026-04-13T15:35:02Z</time></trkpt><trkpt lat="51.16211760290042" lon="4.9449170075561995"><ele>20.0</ele><time>2026-04-13T15:35:03Z</time></trkpt><trkpt lat="51.16223583014782" lon="4.944893296793857"><ele>20.0</ele><time>2026-04-13T15:35:04Z</time></trkpt><trkpt lat="51.162366660146525" lon="4.944866090566823"><ele>19.75</ele><time>2026-04-13T15:35:05Z</time></trkpt><trkpt lat="51.16250293374546" lon="4.944858564248544"><ele>19.5</ele><time>2026-04-13T15:35:06Z</time></trkpt><trkpt lat="51.162639938360144" lon="4.944873731045049"><ele>19.25</ele><time>2026-04-13T15:35:07Z</time></trkpt><trkpt lat="51.16277586554568" lon="4.9448842144294405"><ele>19.0</ele><time>2026-04-13T15:35:08Z</time></trkpt><trkpt lat="51.16289912400895" lon="4.944880987330958"><ele>19.0</ele><time>2026-04-13T15:35:09Z</time></trkpt><trkpt lat="51.16301383611195" lon="4.944846901583022"><ele>19.0</ele><time>2026-04-13T15:35:10Z</time></trkpt><trkpt lat="51.163131953464266" lon="4.944778512510278"><ele>19.0</ele><time>2026-04-13T15:35:11Z</time></trkpt><trkpt lat="51.163255218779824" lon="4.944680313465212"><ele>19.0</ele><time>2026-04-13T15:35:12Z</time></trkpt><trkpt lat="51.16338403037483" lon="4.94457074684405"><ele>19.0</ele><time>2026-04-13T15:35:13Z</time></trkpt><trkpt lat="51.16351674575565" lon="4.944449166867007"><ele>19.0</ele><time>2026-04-13T15:35:14Z</time></trkpt><trkpt lat="51.163664101930046" lon="4.944332996700509"><ele>19.0</ele><time>2026-04-13T15:35:15Z</time></trkpt><trkpt lat="51.163825058701676" lon="4.94424154288352"><ele>19.0</ele><time>2026-04-13T15:35:16Z</time></trkpt><trkpt lat="51.16398441706778" lon="4.944176240178041"><ele>19.0</ele><time>2026-04-13T15:35:17Z</time></trkpt><trkpt lat="51.16413549900162" lon="4.944130081809495"><ele>19.0</ele><time>2026-04-13T15:35:18Z</time></trkpt><trkpt lat="51.16427908809259" lon="4.944103673145139"><ele>19.25</ele><time>2026-04-13T15:35:19Z</time></trkpt><trkpt lat="51.16441920971961" lon="4.944086764148891"><ele>19.5</ele><time>2026-04-13T15:35:20Z</time></trkpt><trkpt lat="51.16455940722215" lon="4.944091214701854"><ele>19.75</ele><time>2026-04-13T15:35:21Z</time></trkpt><trkpt lat="51.164700348891415" lon="4.94403720164739"><ele>20.0</ele><time>2026-04-13T15:35:22Z</time></trkpt><trkpt lat="51.16484613355429" lon="4.944034912194463"><ele>20.0</ele><time>2026-04-13T15:35:23Z</time></trkpt><trkpt lat="51.164987519744514" lon="4.943983273465382"><ele>20.0</ele><time>2026-04-13T15:35:24Z</time></trkpt><trkpt lat="51.16513139231521" lon="4.9439810091298035"><ele>20.0</ele><time>2026-04-13T15:35:25Z</time></trkpt><trkpt lat="51.165274595950564" lon="4.944008171154051"><ele>20.0</ele><time>2026-04-13T15:35:26Z</time></trkpt><trkpt lat="51.16540761320249" lon="4.944039559810638"><ele>20.0</ele><time>2026-04-13T15:35:27Z</time></trkpt><trkpt lat="51.1655299872026" lon="4.944067943393469"><ele>20.0</ele><time>2026-04-13T15:35:28Z</time></trkpt><trkpt lat="51.165657991137756" lon="4.944097398820823"><ele>20.0</ele><time>2026-04-13T15:35:29Z</time></trkpt><trkpt lat="51.16578881788522" lon="4.944127494095448"><ele>20.0</ele><time>2026-04-13T15:35:30Z</time></trkpt><trkpt lat="51.16592216878295" lon="4.944159447753731"><ele>19.75</ele><time>2026-04-13T15:35:31Z</time></trkpt><trkpt lat="51.166056126181125" lon="4.944190457443964"><ele>19.5</ele><time>2026-04-13T15:35:32Z</time></trkpt><trkpt lat="51.16619009801119" lon="4.944220574286029"><ele>19.25</ele><time>2026-04-13T15:35:33Z</time></trkpt><trkpt lat="51.166311741438314" lon="4.944252906750278"><ele>19.0</ele><time>2026-04-13T15:35:34Z</time></trkpt><trkpt lat="51.166422833064736" lon="4.944284624651788"><ele>19.0</ele><time>2026-04-13T15:35:35Z</time></trkpt><trkpt lat="51.166514892138444" lon="4.944319935124765"><ele>19.0</ele><time>2026-04-13T15:35:36Z</time></trkpt><trkpt lat="51.166584706827386" lon="4.9443628377678674"><ele>19.0</ele><time>2026-04-13T15:35:37Z</time></trkpt><trkpt lat="51.16664343312806" lon="4.94442564503828"><ele>19.0</ele><time>2026-04-13T15:35:39Z</time></trkpt><trkpt lat="51.16670167262459" lon="4.94452563741328"><ele>19.0</ele><time>2026-04-13T15:35:44Z</time></trkpt><trkpt lat="51.16678718369994" lon="4.94458075193535"><ele>19.0</ele><time>2026-04-13T15:35:46Z</time></trkpt><trkpt lat="51.16685525957412" lon="4.944438919528192"><ele>19.2</ele><time>2026-04-13T15:35:47Z</time></trkpt><trkpt lat="51.166896384219164" lon="4.94431617758458"><ele>19.4</ele><time>2026-04-13T15:35:48Z</time></trkpt><trkpt lat="51.16696173935163" lon="4.944196380538839"><ele>19.6</ele><time>2026-04-13T15:35:49Z</time></trkpt><trkpt lat="51.16703432156262" lon="4.944072973604305"><ele>19.8</ele><time>2026-04-13T15:35:50Z</time></trkpt><trkpt lat="51.16709704265812" lon="4.943973904921668"><ele>20.0</ele><time>2026-04-13T15:35:51Z</time></trkpt><trkpt lat="51.167154490673724" lon="4.943882768414215"><ele>20.0</ele><time>2026-04-13T15:35:52Z</time></trkpt><trkpt lat="51.16721101633217" lon="4.943790561967316"><ele>20.0</ele><time>2026-04-13T15:35:53Z</time></trkpt><trkpt lat="51.1672662994107" lon="4.943694096673099"><ele>20.0</ele><time>2026-04-13T15:35:54Z</time></trkpt><trkpt lat="51.16731639853246" lon="4.943585336172615"><ele>20.0</ele><time>2026-04-13T15:35:55Z</time></trkpt><trkpt lat="51.16735450309561" lon="4.943468140158212"><ele>20.0</ele><time>2026-04-13T15:35:56Z</time></trkpt><trkpt lat="51.16739049041965" lon="4.943372354076256"><ele>20.0</ele><time>2026-04-13T15:35:57Z</time></trkpt><trkpt lat="51.16744526113538" lon="4.943322275039826"><ele>20.0</ele><time>2026-04-13T15:35:58Z</time></trkpt><trkpt lat="51.167529219355835" lon="4.9433875421618625"><ele>20.0</ele><time>2026-04-13T15:35:59Z</time></trkpt><trkpt lat="51.167592507474765" lon="4.943365905125831"><ele>20.0</ele><time>2026-04-13T15:36:00Z</time></trkpt><trkpt lat="51.167654183352845" lon="4.943228345872329"><ele>20.0</ele><time>2026-04-13T15:36:01Z</time></trkpt><trkpt lat="51.16772850736339" lon="4.943125340969251"><ele>20.0</ele><time>2026-04-13T15:36:02Z</time></trkpt><trkpt lat="51.16780824508925" lon="4.943035810744334"><ele>20.0</ele><time>2026-04-13T15:36:03Z</time></trkpt><trkpt lat="51.16788953389696" lon="4.9429501573855354"><ele>20.0</ele><time>2026-04-13T15:36:04Z</time></trkpt><trkpt lat="51.16795048170008" lon="4.942865404200847"><ele>20.0</ele><time>2026-04-13T15:36:05Z</time></trkpt><trkpt lat="51.168004978204735" lon="4.942790521787921"><ele>20.0</ele><time>2026-04-13T15:36:06Z</time></trkpt><trkpt lat="51.16806640796338" lon="4.942717673637855"><ele>20.0</ele><time>2026-04-13T15:36:07Z</time></trkpt><trkpt lat="51.1681399028162" lon="4.942630513307352"><ele>20.0</ele><time>2026-04-13T15:36:08Z</time></trkpt><trkpt lat="51.16822687116808" lon="4.942521253079729"><ele>19.5</ele><time>2026-04-13T15:36:09Z</time></trkpt><trkpt lat="51.168326924562066" lon="4.942395865025798"><ele>19.0</ele><time>2026-04-13T15:36:10Z</time></trkpt><trkpt lat="51.16843658163771" lon="4.942265133477075"><ele>18.5</ele><time>2026-04-13T15:36:11Z</time></trkpt><trkpt lat="51.16853906951179" lon="4.942146930407731"><ele>18.0</ele><time>2026-04-13T15:36:12Z</time></trkpt><trkpt lat="51.16865075476139" lon="4.942046145785092"><ele>18.0</ele><time>2026-04-13T15:36:13Z</time></trkpt><trkpt lat="51.16876805165336" lon="4.941926178287526"><ele>18.0</ele><time>2026-04-13T15:36:14Z</time></trkpt><trkpt lat="51.168891882696244" lon="4.94179861611284"><ele>18.0</ele><time>2026-04-13T15:36:15Z</time></trkpt><trkpt lat="51.169020886265976" lon="4.941665031256968"><ele>18.0</ele><time>2026-04-13T15:36:16Z</time></trkpt><trkpt lat="51.16915111239029" lon="4.94153018005423"><ele>18.0</ele><time>2026-04-13T15:36:17Z</time></trkpt><trkpt lat="51.16928271407932" lon="4.941393904686265"><ele>18.0</ele><time>2026-04-13T15:36:18Z</time></trkpt><trkpt lat="51.1694054407443" lon="4.941235166075155"><ele>18.0</ele><time>2026-04-13T15:36:19Z</time></trkpt><trkpt lat="51.16953985231739" lon="4.941096559503291"><ele>18.0</ele><time>2026-04-13T15:36:20Z</time></trkpt><trkpt lat="51.16967445232508" lon="4.940958411533174"><ele>18.0</ele><time>2026-04-13T15:36:21Z</time></trkpt><trkpt lat="51.16981480284584" lon="4.940842187067148"><ele>18.0</ele><time>2026-04-13T15:36:22Z</time></trkpt><trkpt lat="51.16994743502736" lon="4.9407043563158375"><ele>17.75</ele><time>2026-04-13T15:36:23Z</time></trkpt><trkpt lat="51.170080010326856" lon="4.940566757713136"><ele>17.5</ele><time>2026-04-13T15:36:24Z</time></trkpt><trkpt lat="51.170206224249526" lon="4.940436027928824"><ele>17.25</ele><time>2026-04-13T15:36:25Z</time></trkpt><trkpt lat="51.17032271273782" lon="4.940315371743129"><ele>17.0</ele><time>2026-04-13T15:36:26Z</time></trkpt><trkpt lat="51.1704296030055" lon="4.940204638431288"><ele>17.0</ele><time>2026-04-13T15:36:27Z</time></trkpt><trkpt lat="51.17051734018371" lon="4.940082556635188"><ele>17.0</ele><time>2026-04-13T15:36:28Z</time></trkpt><trkpt lat="51.17061942575736" lon="4.940013943701941"><ele>17.0</ele><time>2026-04-13T15:36:29Z</time></trkpt><trkpt lat="51.17070343841667" lon="4.939938844385366"><ele>17.0</ele><time>2026-04-13T15:36:30Z</time></trkpt><trkpt lat="51.170788373569835" lon="4.939845204881445"><ele>17.0</ele><time>2026-04-13T15:36:31Z</time></trkpt><trkpt lat="51.170885383131875" lon="4.939716597670437"><ele>17.666666666666668</ele><time>2026-04-13T15:36:32Z</time></trkpt><trkpt lat="51.171017978733175" lon="4.939612140297302"><ele>18.333333333333332</ele><time>2026-04-13T15:36:33Z</time></trkpt><trkpt lat="51.171144850060735" lon="4.939460561249919"><ele>19.0</ele><time>2026-04-13T15:36:34Z</time></trkpt><trkpt lat="51.17127215716743" lon="4.939326571297099"><ele>19.0</ele><time>2026-04-13T15:36:35Z</time></trkpt><trkpt lat="51.171413327894655" lon="4.939177616724209"><ele>19.0</ele><time>2026-04-13T15:36:36Z</time></trkpt><trkpt lat="51.17156564148141" lon="4.9390168470427955"><ele>19.0</ele><time>2026-04-13T15:36:37Z</time></trkpt><trkpt lat="51.171731332225235" lon="4.938842611043833"><ele>18.666666666666664</ele><time>2026-04-13T15:36:38Z</time></trkpt><trkpt lat="51.171910143608635" lon="4.9386601655738325"><ele>18.333333333333332</ele><time>2026-04-13T15:36:39Z</time></trkpt><trkpt lat="51.172087263251235" lon="4.9384790864226495"><ele>18.0</ele><time>2026-04-13T15:36:40Z</time></trkpt><trkpt lat="51.172260734650834" lon="4.93830339420409"><ele>18.0</ele><time>2026-04-13T15:36:41Z</time></trkpt><trkpt lat="51.1724316544085" lon="4.938124883842107"><ele>18.0</ele><time>2026-04-13T15:36:42Z</time></trkpt><trkpt lat="51.17260187803243" lon="4.9379479527853745"><ele>18.0</ele><time>2026-04-13T15:36:43Z</time></trkpt><trkpt lat="51.17277427934394" lon="4.937771327733754"><ele>18.0</ele><time>2026-04-13T15:36:44Z</time></trkpt><trkpt lat="51.17295090178707" lon="4.937603210829723"><ele>18.0</ele><time>2026-04-13T15:36:45Z</time></trkpt><trkpt lat="51.173135444436916" lon="4.93745805028362"><ele>18.0</ele><time>2026-04-13T15:36:46Z</time></trkpt><trkpt lat="51.17332479724339" lon="4.937332261697897"><ele>18.333333333333332</ele><time>2026-04-13T15:36:47Z</time></trkpt><trkpt lat="51.173517187845526" lon="4.937215618339642"><ele>18.666666666666664</ele><time>2026-04-13T15:36:48Z</time></trkpt><trkpt lat="51.17371353976766" lon="4.937114062432949"><ele>19.0</ele><time>2026-04-13T15:36:49Z</time></trkpt><trkpt lat="51.17391311092294" lon="4.937030956864029"><ele>19.0</ele><time>2026-04-13T15:36:50Z</time></trkpt><trkpt lat="51.17411545156681" lon="4.936967721551408"><ele>19.0</ele><time>2026-04-13T15:36:51Z</time></trkpt><trkpt lat="51.174319595828436" lon="4.936924645060056"><ele>19.0</ele><time>2026-04-13T15:36:52Z</time></trkpt><trkpt lat="51.17452564205766" lon="4.93690504904033"><ele>19.0</ele><time>2026-04-13T15:36:53Z</time></trkpt><trkpt lat="51.17473225916327" lon="4.9369060887370235"><ele>19.0</ele><time>2026-04-13T15:36:54Z</time></trkpt><trkpt lat="51.174937506420264" lon="4.9369202408594255"><ele>19.0</ele><time>2026-04-13T15:36:55Z</time></trkpt><trkpt lat="51.17514210111103" lon="4.936934640457623"><ele>19.333333333333332</ele><time>2026-04-13T15:36:56Z</time></trkpt><trkpt lat="51.17534641328056" lon="4.936953214732082"><ele>19.666666666666668</ele><time>2026-04-13T15:36:57Z</time></trkpt><trkpt lat="51.17555067048232" lon="4.936973407116976"><ele>20.0</ele><time>2026-04-13T15:36:58Z</time></trkpt><trkpt lat="51.17575348352153" lon="4.936990032053466"><ele>19.333333333333336</ele><time>2026-04-13T15:36:59Z</time></trkpt><trkpt lat="51.17595525723545" lon="4.93700604247403"><ele>18.666666666666668</ele><time>2026-04-13T15:37:00Z</time></trkpt><trkpt lat="51.17615720032705" lon="4.937022378253141"><ele>18.0</ele><time>2026-04-13T15:37:01Z</time></trkpt><trkpt lat="51.17635971412543" lon="4.937039776613067"><ele>18.333333333333332</ele><time>2026-04-13T15:37:02Z</time></trkpt><trkpt lat="51.17656817335788" lon="4.937056197859224"><ele>18.666666666666664</ele><time>2026-04-13T15:37:03Z</time></trkpt><trkpt lat="51.17677869417582" lon="4.937072986751177"><ele>19.0</ele><time>2026-04-13T15:37:04Z</time></trkpt><trkpt lat="51.17698114840003" lon="4.937089695528621"><ele>19.0</ele><time>2026-04-13T15:37:05Z</time></trkpt><trkpt lat="51.1771799301858" lon="4.937105269348501"><ele>19.0</ele><time>2026-04-13T15:37:06Z</time></trkpt><trkpt lat="51.17737682246482" lon="4.937119945839535"><ele>19.0</ele><time>2026-04-13T15:37:07Z</time></trkpt><trkpt lat="51.1775754992393" lon="4.937132850124727"><ele>19.0</ele><time>2026-04-13T15:37:08Z</time></trkpt><trkpt lat="51.17777273624142" lon="4.937147855760343"><ele>19.0</ele><time>2026-04-13T15:37:09Z</time></trkpt><trkpt lat="51.177970579708116" lon="4.937162553850566"><ele>19.0</ele><time>2026-04-13T15:37:10Z</time></trkpt><trkpt lat="51.17816974307897" lon="4.937179589461626"><ele>18.666666666666664</ele><time>2026-04-13T15:37:11Z</time></trkpt><trkpt lat="51.17836925247422" lon="4.937197617247539"><ele>18.333333333333332</ele><time>2026-04-13T15:37:12Z</time></trkpt><trkpt lat="51.17856826361522" lon="4.937213726987632"><ele>18.0</ele><time>2026-04-13T15:37:13Z</time></trkpt><trkpt lat="51.17875652880126" lon="4.937226880889666"><ele>18.0</ele><time>2026-04-13T15:37:14Z</time></trkpt><trkpt lat="51.17893065218928" lon="4.93723730152773"><ele>18.0</ele><time>2026-04-13T15:37:15Z</time></trkpt><trkpt lat="51.17909621406861" lon="4.937248281023658"><ele>18.0</ele><time>2026-04-13T15:37:16Z</time></trkpt><trkpt lat="51.17925300154019" lon="4.937264362516753"><ele>17.5</ele><time>2026-04-13T15:37:17Z</time></trkpt><trkpt lat="51.17940062520703" lon="4.9372718654795795"><ele>17.0</ele><time>2026-04-13T15:37:18Z</time></trkpt><trkpt lat="51.179532797279535" lon="4.93724322647521"><ele>16.5</ele><time>2026-04-13T15:37:19Z</time></trkpt><trkpt lat="51.17965361679674" lon="4.93718485433539"><ele>16.0</ele><time>2026-04-13T15:37:20Z</time></trkpt><trkpt lat="51.179770019752155" lon="4.937108056489836"><ele>16.0</ele><time>2026-04-13T15:37:21Z</time></trkpt><trkpt lat="51.17988240053309" lon="4.937022327794784"><ele>16.0</ele><time>2026-04-13T15:37:22Z</time></trkpt><trkpt lat="51.179983256713086" lon="4.93694583591164"><ele>16.0</ele><time>2026-04-13T15:37:23Z</time></trkpt><trkpt lat="51.180049252559925" lon="4.936886772145546"><ele>16.0</ele><time>2026-04-13T15:37:24Z</time></trkpt><trkpt lat="51.180098713636994" lon="4.936690148969737"><ele>16.0</ele><time>2026-04-13T15:37:26Z</time></trkpt><trkpt lat="51.18010408392103" lon="4.936537388561756"><ele>16.25</ele><time>2026-04-13T15:37:27Z</time></trkpt><trkpt lat="51.180137729663194" lon="4.936359862109045"><ele>16.5</ele><time>2026-04-13T15:37:28Z</time></trkpt><trkpt lat="51.1801483819658" lon="4.936133162091155"><ele>16.75</ele><time>2026-04-13T15:37:29Z</time></trkpt><trkpt lat="51.18018072563292" lon="4.935877722498626"><ele>17.0</ele><time>2026-04-13T15:37:30Z</time></trkpt><trkpt lat="51.180216118439645" lon="4.935614641212647"><ele>17.0</ele><time>2026-04-13T15:37:31Z</time></trkpt><trkpt lat="51.18025128092172" lon="4.93535395403277"><ele>17.0</ele><time>2026-04-13T15:37:32Z</time></trkpt><trkpt lat="51.18029024809046" lon="4.935075903349898"><ele>17.0</ele><time>2026-04-13T15:37:33Z</time></trkpt><trkpt lat="51.1803312640705" lon="4.934783868975738"><ele>17.333333333333336</ele><time>2026-04-13T15:37:34Z</time></trkpt><trkpt lat="51.18037532924546" lon="4.934470715780939"><ele>17.666666666666668</ele><time>2026-04-13T15:37:35Z</time></trkpt><trkpt lat="51.18041800724265" lon="4.934179733703175"><ele>18.0</ele><time>2026-04-13T15:37:36Z</time></trkpt><trkpt lat="51.18046095803901" lon="4.933884342478767"><ele>18.0</ele><time>2026-04-13T15:37:37Z</time></trkpt><trkpt lat="51.18050470361753" lon="4.933582538292431"><ele>18.0</ele><time>2026-04-13T15:37:38Z</time></trkpt><trkpt lat="51.18054980014566" lon="4.933279818658318"><ele>18.0</ele><time>2026-04-13T15:37:39Z</time></trkpt><trkpt lat="51.180593809314296" lon="4.932978230978524"><ele>18.333333333333332</ele><time>2026-04-13T15:37:40Z</time></trkpt><trkpt lat="51.180633598658176" lon="4.932702892862573"><ele>18.666666666666664</ele><time>2026-04-13T15:37:41Z</time></trkpt><trkpt lat="51.18067011157303" lon="4.932452000764824"><ele>19.0</ele><time>2026-04-13T15:37:42Z</time></trkpt><trkpt lat="51.18070210278467" lon="4.932233330849269"><ele>19.0</ele><time>2026-04-13T15:37:43Z</time></trkpt><trkpt lat="51.180729745949726" lon="4.932047793246363"><ele>19.0</ele><time>2026-04-13T15:37:44Z</time></trkpt><trkpt lat="51.180748678091014" lon="4.931907270926203"><ele>19.0</ele><time>2026-04-13T15:37:45Z</time></trkpt><trkpt lat="51.18076500691765" lon="4.931793876294484"><ele>19.0</ele><time>2026-04-13T15:37:46Z</time></trkpt><trkpt lat="51.18078027614946" lon="4.931679643334537"><ele>19.0</ele><time>2026-04-13T15:37:47Z</time></trkpt><trkpt lat="51.180800739054355" lon="4.931549572876474"><ele>19.0</ele><time>2026-04-13T15:37:48Z</time></trkpt><trkpt lat="51.18082765058234" lon="4.931392672324662"><ele>18.75</ele><time>2026-04-13T15:37:49Z</time></trkpt><trkpt lat="51.18085728435592" lon="4.931203872079765"><ele>18.5</ele><time>2026-04-13T15:37:50Z</time></trkpt><trkpt lat="51.180893637213764" lon="4.930982133288603"><ele>18.25</ele><time>2026-04-13T15:37:51Z</time></trkpt><trkpt lat="51.18093174202582" lon="4.930744903861686"><ele>18.0</ele><time>2026-04-13T15:37:52Z</time></trkpt><trkpt lat="51.18096900892353" lon="4.930514701227087"><ele>18.666666666666668</ele><time>2026-04-13T15:37:53Z</time></trkpt><trkpt lat="51.18101036046132" lon="4.930257839089814"><ele>19.333333333333336</ele><time>2026-04-13T15:37:54Z</time></trkpt><trkpt lat="51.18105085706488" lon="4.9299819793827515"><ele>20.0</ele><time>2026-04-13T15:37:55Z</time></trkpt><trkpt lat="51.18109329463552" lon="4.929684764271783"><ele>20.0</ele><time>2026-04-13T15:37:56Z</time></trkpt><trkpt lat="51.18113901076409" lon="4.929370915053325"><ele>20.0</ele><time>2026-04-13T15:37:57Z</time></trkpt><trkpt lat="51.18118452805711" lon="4.929074623583812"><ele>20.0</ele><time>2026-04-13T15:37:58Z</time></trkpt><trkpt lat="51.18123558140152" lon="4.928771369174914"><ele>19.666666666666668</ele><time>2026-04-13T15:37:59Z</time></trkpt><trkpt lat="51.181282739187814" lon="4.9284586977223075"><ele>19.333333333333332</ele><time>2026-04-13T15:38:00Z</time></trkpt><trkpt lat="51.18133305063183" lon="4.928143512505664"><ele>19.0</ele><time>2026-04-13T15:38:01Z</time></trkpt><trkpt lat="51.1813837254925" lon="4.927819044721077"><ele>19.333333333333332</ele><time>2026-04-13T15:38:02Z</time></trkpt><trkpt lat="51.18143518663449" lon="4.927486623025674"><ele>19.666666666666668</ele><time>2026-04-13T15:38:03Z</time></trkpt><trkpt lat="51.18148799398055" lon="4.927140770429647"><ele>20.0</ele><time>2026-04-13T15:38:04Z</time></trkpt><trkpt lat="51.181538843719366" lon="4.926809309809804"><ele>20.333333333333336</ele><time>2026-04-13T15:38:05Z</time></trkpt><trkpt lat="51.18159180383426" lon="4.926476291436394"><ele>20.666666666666668</ele><time>2026-04-13T15:38:06Z</time></trkpt><trkpt lat="51.18164529961402" lon="4.9261427478951925"><ele>21.0</ele><time>2026-04-13T15:38:07Z</time></trkpt><trkpt lat="51.18169697897851" lon="4.925811507253073"><ele>20.666666666666668</ele><time>2026-04-13T15:38:08Z</time></trkpt><trkpt lat="51.18174502409266" lon="4.925483995221864"><ele>20.333333333333336</ele><time>2026-04-13T15:38:09Z</time></trkpt><trkpt lat="51.181791271233436" lon="4.925158181339222"><ele>20.0</ele><time>2026-04-13T15:38:10Z</time></trkpt><trkpt lat="51.181839413708616" lon="4.924835661707187"><ele>20.0</ele><time>2026-04-13T15:38:11Z</time></trkpt><trkpt lat="51.181888575648756" lon="4.924515079302683"><ele>20.0</ele><time>2026-04-13T15:38:12Z</time></trkpt><trkpt lat="51.181937318239385" lon="4.9241968670634595"><ele>20.0</ele><time>2026-04-13T15:38:13Z</time></trkpt><trkpt lat="51.18198581765032" lon="4.923877474196359"><ele>20.333333333333336</ele><time>2026-04-13T15:38:14Z</time></trkpt><trkpt lat="51.182035997622826" lon="4.923558044015523"><ele>20.666666666666668</ele><time>2026-04-13T15:38:15Z</time></trkpt><trkpt lat="51.18208653976398" lon="4.9232397182627565"><ele>21.0</ele><time>2026-04-13T15:38:16Z</time></trkpt><trkpt lat="51.18213636289144" lon="4.9229193693191515"><ele>20.333333333333332</ele><time>2026-04-13T15:38:17Z</time></trkpt><trkpt lat="51.1821867290739" lon="4.92259885609532"><ele>19.666666666666664</ele><time>2026-04-13T15:38:18Z</time></trkpt><trkpt lat="51.18223647068559" lon="4.922279158828837"><ele>19.0</ele><time>2026-04-13T15:38:19Z</time></trkpt><trkpt lat="51.18228722045822" lon="4.92196186940944"><ele>19.0</ele><time>2026-04-13T15:38:20Z</time></trkpt><trkpt lat="51.182333758737634" lon="4.921642607725333"><ele>19.0</ele><time>2026-04-13T15:38:21Z</time></trkpt><trkpt lat="51.18238300507282" lon="4.921327325671228"><ele>19.0</ele><time>2026-04-13T15:38:22Z</time></trkpt><trkpt lat="51.182432684319" lon="4.921011237383981"><ele>19.333333333333332</ele><time>2026-04-13T15:38:23Z</time></trkpt><trkpt lat="51.182483312234204" lon="4.920696699741667"><ele>19.666666666666668</ele><time>2026-04-13T15:38:24Z</time></trkpt><trkpt lat="51.182532732226335" lon="4.920383438247766"><ele>20.0</ele><time>2026-04-13T15:38:25Z</time></trkpt><trkpt lat="51.1825750073196" lon="4.920069874817032"><ele>20.666666666666668</ele><time>2026-04-13T15:38:26Z</time></trkpt><trkpt lat="51.182625622955754" lon="4.919760209619563"><ele>21.333333333333332</ele><time>2026-04-13T15:38:27Z</time></trkpt><trkpt lat="51.18267838461913" lon="4.919450338809638"><ele>22.0</ele><time>2026-04-13T15:38:28Z</time></trkpt><trkpt lat="51.18272869502294" lon="4.919120414919832"><ele>22.666666666666664</ele><time>2026-04-13T15:38:29Z</time></trkpt><trkpt lat="51.182782334779446" lon="4.918777277513257"><ele>23.333333333333332</ele><time>2026-04-13T15:38:30Z</time></trkpt><trkpt lat="51.18283809119676" lon="4.9184277722176555"><ele>24.0</ele><time>2026-04-13T15:38:31Z</time></trkpt><trkpt lat="51.18289396678369" lon="4.918089441805449"><ele>24.0</ele><time>2026-04-13T15:38:32Z</time></trkpt><trkpt lat="51.18294473260299" lon="4.9177714382723"><ele>24.0</ele><time>2026-04-13T15:38:33Z</time></trkpt><trkpt lat="51.1829917860291" lon="4.91746803654851"><ele>24.0</ele><time>2026-04-13T15:38:34Z</time></trkpt><trkpt lat="51.18304368628608" lon="4.917182425922728"><ele>23.0</ele><time>2026-04-13T15:38:35Z</time></trkpt><trkpt lat="51.183105762374765" lon="4.916912983820776"><ele>22.0</ele><time>2026-04-13T15:38:36Z</time></trkpt><trkpt lat="51.18318132355004" lon="4.916653809182593"><ele>21.0</ele><time>2026-04-13T15:38:37Z</time></trkpt><trkpt lat="51.1832634515924" lon="4.916408083769571"><ele>20.0</ele><time>2026-04-13T15:38:38Z</time></trkpt><trkpt lat="51.18333298212034" lon="4.916160102115838"><ele>19.0</ele><time>2026-04-13T15:38:39Z</time></trkpt><trkpt lat="51.183382147379014" lon="4.915902251031672"><ele>18.0</ele><time>2026-04-13T15:38:40Z</time></trkpt><trkpt lat="51.183419820094805" lon="4.915631851931642"><ele>17.666666666666668</ele><time>2026-04-13T15:38:41Z</time></trkpt><trkpt lat="51.18344805098105" lon="4.915356022539987"><ele>17.333333333333336</ele><time>2026-04-13T15:38:42Z</time></trkpt><trkpt lat="51.18345772583029" lon="4.915075517599942"><ele>17.0</ele><time>2026-04-13T15:38:43Z</time></trkpt><trkpt lat="51.18344678038105" lon="4.9147864293934145"><ele>16.666666666666668</ele><time>2026-04-13T15:38:44Z</time></trkpt><trkpt lat="51.18342448567401" lon="4.914481418306557"><ele>16.333333333333332</ele><time>2026-04-13T15:38:45Z</time></trkpt><trkpt lat="51.18340044325554" lon="4.9141627128329315"><ele>16.0</ele><time>2026-04-13T15:38:46Z</time></trkpt><trkpt lat="51.183369096303494" lon="4.913837430791559"><ele>16.0</ele><time>2026-04-13T15:38:47Z</time></trkpt><trkpt lat="51.18336942477321" lon="4.91350707367781"><ele>16.0</ele><time>2026-04-13T15:38:48Z</time></trkpt><trkpt lat="51.18337231533162" lon="4.913186380203727"><ele>16.0</ele><time>2026-04-13T15:38:49Z</time></trkpt><trkpt lat="51.18337236245922" lon="4.912879560019166"><ele>16.666666666666664</ele><time>2026-04-13T15:38:50Z</time></trkpt><trkpt lat="51.18339984793958" lon="4.912584522719117"><ele>17.333333333333332</ele><time>2026-04-13T15:38:51Z</time></trkpt><trkpt lat="51.18342553661271" lon="4.912299801374136"><ele>18.0</ele><time>2026-04-13T15:38:52Z</time></trkpt><trkpt lat="51.183447536075704" lon="4.912022207406225"><ele>18.0</ele><time>2026-04-13T15:38:53Z</time></trkpt><trkpt lat="51.183470450422234" lon="4.911752877710601"><ele>18.0</ele><time>2026-04-13T15:38:54Z</time></trkpt><trkpt lat="51.18349182393975" lon="4.911489557081165"><ele>18.0</ele><time>2026-04-13T15:38:55Z</time></trkpt><trkpt lat="51.18351195334716" lon="4.91124398413745"><ele>17.75</ele><time>2026-04-13T15:38:56Z</time></trkpt><trkpt lat="51.183532771558674" lon="4.911010776052314"><ele>17.5</ele><time>2026-04-13T15:38:57Z</time></trkpt><trkpt lat="51.18355210178653" lon="4.910790969848811"><ele>17.25</ele><time>2026-04-13T15:38:58Z</time></trkpt><trkpt lat="51.18357018623458" lon="4.910578811750813"><ele>17.0</ele><time>2026-04-13T15:38:59Z</time></trkpt><trkpt lat="51.183586643773985" lon="4.910376091834095"><ele>16.8</ele><time>2026-04-13T15:39:00Z</time></trkpt><trkpt lat="51.18360181738432" lon="4.910189695597777"><ele>16.6</ele><time>2026-04-13T15:39:01Z</time></trkpt><trkpt lat="51.18361454221371" lon="4.9100236951577525"><ele>16.400000000000002</ele><time>2026-04-13T15:39:02Z</time></trkpt><trkpt lat="51.18362670097232" lon="4.909889852485379"><ele>16.2</ele><time>2026-04-13T15:39:03Z</time></trkpt><trkpt lat="51.18363857783912" lon="4.909776974310508"><ele>16.0</ele><time>2026-04-13T15:39:04Z</time></trkpt><trkpt lat="51.1836449452433" lon="4.909613014787"><ele>15.8</ele><time>2026-04-13T15:39:06Z</time></trkpt><trkpt lat="51.18356692795628" lon="4.909548779990506"><ele>15.600000000000001</ele><time>2026-04-13T15:39:08Z</time></trkpt><trkpt lat="51.18349804596905" lon="4.909569290050982"><ele>15.4</ele><time>2026-04-13T15:39:09Z</time></trkpt><trkpt lat="51.18341959208591" lon="4.909629795212122"><ele>15.2</ele><time>2026-04-13T15:39:10Z</time></trkpt><trkpt lat="51.183325074749455" lon="4.909703684407201"><ele>15.0</ele><time>2026-04-13T15:39:11Z</time></trkpt><trkpt lat="51.183217857279814" lon="4.909781910210501"><ele>15.25</ele><time>2026-04-13T15:39:12Z</time></trkpt><trkpt lat="51.18309779080843" lon="4.909866941831696"><ele>15.5</ele><time>2026-04-13T15:39:13Z</time></trkpt><trkpt lat="51.18298201561789" lon="4.909954191902335"><ele>15.75</ele><time>2026-04-13T15:39:14Z</time></trkpt><trkpt lat="51.18287989776856" lon="4.910030080610934"><ele>16.0</ele><time>2026-04-13T15:39:15Z</time></trkpt><trkpt lat="51.182784307822985" lon="4.910098652130364"><ele>16.2</ele><time>2026-04-13T15:39:16Z</time></trkpt><trkpt lat="51.182688844319905" lon="4.910168724142248"><ele>16.400000000000002</ele><time>2026-04-13T15:39:17Z</time></trkpt><trkpt lat="51.18259612521879" lon="4.9102410796107545"><ele>16.6</ele><time>2026-04-13T15:39:18Z</time></trkpt><trkpt lat="51.182505601352474" lon="4.910309986942316"><ele>16.8</ele><time>2026-04-13T15:39:19Z</time></trkpt><trkpt lat="51.18242346004449" lon="4.9103693000425075"><ele>17.0</ele><time>2026-04-13T15:39:20Z</time></trkpt><trkpt lat="51.18235107704242" lon="4.910425560085197"><ele>17.0</ele><time>2026-04-13T15:39:21Z</time></trkpt><trkpt lat="51.182288445656994" lon="4.910477835631758"><ele>17.0</ele><time>2026-04-13T15:39:22Z</time></trkpt><trkpt lat="51.18219011173628" lon="4.91044986850851"><ele>17.0</ele><time>2026-04-13T15:39:24Z</time></trkpt><trkpt lat="51.182135792958654" lon="4.9103081962355795"><ele>17.0</ele><time>2026-04-13T15:39:26Z</time></trkpt><trkpt lat="51.18210953306298" lon="4.91020405706979"><ele>17.0</ele><time>2026-04-13T15:39:27Z</time></trkpt><trkpt lat="51.18207413838162" lon="4.910085374152325"><ele>17.0</ele><time>2026-04-13T15:39:28Z</time></trkpt><trkpt lat="51.18203406439713" lon="4.909919032280174"><ele>17.0</ele><time>2026-04-13T15:39:29Z</time></trkpt><trkpt lat="51.18198698197519" lon="4.9097134114599985"><ele>17.0</ele><time>2026-04-13T15:39:30Z</time></trkpt><trkpt lat="51.18193546837521" lon="4.909496193940097"><ele>17.0</ele><time>2026-04-13T15:39:31Z</time></trkpt><trkpt lat="51.18189502551423" lon="4.909292621036925"><ele>17.0</ele><time>2026-04-13T15:39:32Z</time></trkpt><trkpt lat="51.18186067068916" lon="4.909093102342101"><ele>17.0</ele><time>2026-04-13T15:39:33Z</time></trkpt><trkpt lat="51.18182357423181" lon="4.908896264104335"><ele>17.0</ele><time>2026-04-13T15:39:34Z</time></trkpt><trkpt lat="51.181787034787405" lon="4.908702666625651"><ele>17.0</ele><time>2026-04-13T15:39:35Z</time></trkpt><trkpt lat="51.181751494891245" lon="4.9085107937636225"><ele>17.0</ele><time>2026-04-13T15:39:36Z</time></trkpt><trkpt lat="51.18171721860029" lon="4.9083197305475075"><ele>16.75</ele><time>2026-04-13T15:39:37Z</time></trkpt><trkpt lat="51.181681771384895" lon="4.9081330285606155"><ele>16.5</ele><time>2026-04-13T15:39:38Z</time></trkpt><trkpt lat="51.181646775241084" lon="4.907948383339302"><ele>16.25</ele><time>2026-04-13T15:39:39Z</time></trkpt><trkpt lat="51.18160989658491" lon="4.907765575181076"><ele>16.0</ele><time>2026-04-13T15:39:40Z</time></trkpt><trkpt lat="51.181577112268464" lon="4.907585605829949"><ele>16.25</ele><time>2026-04-13T15:39:41Z</time></trkpt><trkpt lat="51.18154483713065" lon="4.907405341461612"><ele>16.5</ele><time>2026-04-13T15:39:42Z</time></trkpt><trkpt lat="51.181513183092825" lon="4.907224283385615"><ele>16.75</ele><time>2026-04-13T15:39:43Z</time></trkpt><trkpt lat="51.181479602634774" lon="4.9070443238599655"><ele>17.0</ele><time>2026-04-13T15:39:44Z</time></trkpt><trkpt lat="51.181448557848725" lon="4.906863754727003"><ele>17.0</ele><time>2026-04-13T15:39:45Z</time></trkpt><trkpt lat="51.181416491301036" lon="4.9066949965585325"><ele>17.0</ele><time>2026-04-13T15:39:46Z</time></trkpt><trkpt lat="51.18140731412261" lon="4.906558774003062"><ele>17.0</ele><time>2026-04-13T15:39:47Z</time></trkpt><trkpt lat="51.18137943692261" lon="4.906454598376869"><ele>17.0</ele><time>2026-04-13T15:39:48Z</time></trkpt><trkpt lat="51.181404981058776" lon="4.906348732206391"><ele>17.0</ele><time>2026-04-13T15:39:49Z</time></trkpt><trkpt lat="51.18145070677957" lon="4.906265429717628"><ele>17.0</ele><time>2026-04-13T15:39:50Z</time></trkpt><trkpt lat="51.18153219792822" lon="4.906242774893854"><ele>17.0</ele><time>2026-04-13T15:39:51Z</time></trkpt><trkpt lat="51.18161276755102" lon="4.906186019078262"><ele>17.0</ele><time>2026-04-13T15:39:52Z</time></trkpt><trkpt lat="51.18170188017603" lon="4.906123806124015"><ele>17.0</ele><time>2026-04-13T15:39:53Z</time></trkpt><trkpt lat="51.181799974030554" lon="4.906055702355029"><ele>17.0</ele><time>2026-04-13T15:39:54Z</time></trkpt><trkpt lat="51.18189025080448" lon="4.905993025668181"><ele>17.0</ele><time>2026-04-13T15:39:55Z</time></trkpt><trkpt lat="51.181966659764406" lon="4.905939977009739"><ele>17.0</ele><time>2026-04-13T15:39:56Z</time></trkpt><trkpt lat="51.182024471964624" lon="4.905899839846808"><ele>17.0</ele><time>2026-04-13T15:39:57Z</time></trkpt><trkpt lat="51.18208880075907" lon="4.905889377113889"><ele>17.0</ele><time>2026-04-13T15:39:59Z</time></trkpt><trkpt lat="51.182119524988764" lon="4.9060224725962485"><ele>17.0</ele><time>2026-04-13T15:40:00Z</time></trkpt><trkpt lat="51.18213392941399" lon="4.906138567547404"><ele>17.0</ele><time>2026-04-13T15:40:01Z</time></trkpt><trkpt lat="51.182156972449036" lon="4.9062633947323535"><ele>17.0</ele><time>2026-04-13T15:40:02Z</time></trkpt><trkpt lat="51.18218429596429" lon="4.90641144767925"><ele>17.0</ele><time>2026-04-13T15:40:03Z</time></trkpt><trkpt lat="51.182216010925785" lon="4.90658049133003"><ele>17.0</ele><time>2026-04-13T15:40:04Z</time></trkpt><trkpt lat="51.18225421717842" lon="4.906783408343764"><ele>17.0</ele><time>2026-04-13T15:40:05Z</time></trkpt><trkpt lat="51.18229519047382" lon="4.907010608444044"><ele>17.0</ele><time>2026-04-13T15:40:06Z</time></trkpt><trkpt lat="51.182329626326066" lon="4.907218534654854"><ele>16.75</ele><time>2026-04-13T15:40:07Z</time></trkpt><trkpt lat="51.182361517604846" lon="4.907420080426564"><ele>16.5</ele><time>2026-04-13T15:40:08Z</time></trkpt><trkpt lat="51.18239440617591" lon="4.907619743411716"><ele>16.25</ele><time>2026-04-13T15:40:09Z</time></trkpt><trkpt lat="51.18242326054515" lon="4.907797954077606"><ele>16.0</ele><time>2026-04-13T15:40:10Z</time></trkpt><trkpt lat="51.182444078359524" lon="4.90792614276401"><ele>16.0</ele><time>2026-04-13T15:40:11Z</time></trkpt><trkpt lat="51.18248492942622" lon="4.90806161950384"><ele>16.0</ele><time>2026-04-13T15:40:13Z</time></trkpt><trkpt lat="51.18267024509966" lon="4.90804088921677"><ele>16.0</ele><time>2026-04-13T15:40:20Z</time></trkpt><trkpt lat="51.182751511960326" lon="4.907995494609388"><ele>16.0</ele><time>2026-04-13T15:40:23Z</time></trkpt><trkpt lat="51.18273551529581" lon="4.907894132641755"><ele>16.0</ele><time>2026-04-13T15:40:26Z</time></trkpt><trkpt lat="51.182798626453604" lon="4.907914700761626"><ele>15.999999999999998</ele><time>2026-04-13T15:41:33Z</time></trkpt><trkpt lat="51.182750153281866" lon="4.907978905419"><ele>16.0</ele><time>2026-04-13T15:44:01Z</time></trkpt><trkpt lat="51.182683607525455" lon="4.908007742606439"><ele>16.0</ele><time>2026-04-13T15:44:10Z</time></trkpt><trkpt lat="51.18264779440959" lon="4.907917793543836"><ele>16.0</ele><time>2026-04-13T15:44:15Z</time></trkpt><trkpt lat="51.182644391334065" lon="4.908038860389894"><ele>15.999999999999998</ele><time>2026-04-13T15:44:21.075Z</time></trkpt><trkpt lat="51.18252142856148" lon="4.908137253292181"><ele>16.0</ele><time>2026-04-13T15:44:23.074Z</time></trkpt><trkpt lat="51.182422867492896" lon="4.907934855106517"><ele>16.0</ele><time>2026-04-13T15:44:25.077Z</time></trkpt><trkpt lat="51.182389715879594" lon="4.907704615786779"><ele>16.0</ele><time>2026-04-13T15:44:26.073Z</time></trkpt></trkseg></trk></gpx>